Provisional Data: West Branch Owego Creek near Speedsville, NY


Please select a monitoring station.
Please select start date.
Please select start date.

Toggle Unit: C/F Toggle Unit: C/F
Sample Time Temperature (C) Temperature (F) Specific Conductivity (mS/cm) pH   Turbidity (NTU+) DO (mg/L)
9/6/2021 12:00:00 AM 15.68 60.224 0.185 7.44 5.38 9.07
9/6/2021 12:15:00 AM 15.66 60.188 0.186 7.45 4.84 9.08
9/6/2021 12:30:00 AM 15.65 60.17 0.186 7.45 4.08 9.09
9/6/2021 12:45:00 AM 15.63 60.134 0.187 7.46 3.77 9.1
9/6/2021 1:00:00 AM 15.61 60.098 0.187 7.46 3.8 9.1
9/6/2021 1:15:00 AM 15.6 60.08 0.187 7.46 3.78 9.1
9/6/2021 1:30:00 AM 15.58 60.044 0.187 7.46 3.01 9.1
9/6/2021 1:45:00 AM 15.57 60.026 0.187 7.47 3.03 9.1
9/6/2021 2:00:00 AM 15.55 59.99 0.187 7.47 2.98 9.11
9/6/2021 2:15:00 AM 15.53 59.954 0.187 7.46 3.06 9.1
9/6/2021 2:30:00 AM 15.5 59.9 0.188 7.46 2.89 9.1
9/6/2021 2:45:00 AM 15.49 59.882 0.188 7.46 2.93 9.11
9/6/2021 3:00:00 AM 15.47 59.846 0.188 7.46 2.71 9.1
9/6/2021 3:15:00 AM 15.44 59.792 0.188 7.46 2.87 9.11
9/6/2021 3:30:00 AM 15.42 59.756 0.188 7.46 2.64 9.11
9/6/2021 3:45:00 AM 15.4 59.72 0.188 7.47 2.43 9.11
9/6/2021 4:00:00 AM 15.37 59.666 0.188 7.47 2.41 9.12
9/6/2021 4:15:00 AM 15.35 59.63 0.188 7.46 2.16 9.12
9/6/2021 4:30:00 AM 15.33 59.594 0.188 7.47 2.16 9.12
9/6/2021 4:45:00 AM 15.3 59.54 0.188 7.47 2.89 9.13
9/6/2021 5:00:00 AM 15.28 59.504 0.188 7.47 2.16 9.14
9/6/2021 5:15:00 AM 15.26 59.468 0.189 7.47 2.12 9.14
9/6/2021 5:30:00 AM 15.23 59.414 0.189 7.47 1.93 9.14
9/6/2021 5:45:00 AM 15.21 59.378 0.19 7.47 1.88 9.14
9/6/2021 6:00:00 AM 15.18 59.324 0.19 7.47 2.01 9.15
9/6/2021 6:15:00 AM 15.16 59.288 0.19 7.47 1.85 9.15
9/6/2021 6:30:00 AM 15.13 59.234 0.191 7.47 2.08 9.16
9/6/2021 6:45:00 AM 15.11 59.198 0.191 7.47 2.8 9.16
9/6/2021 7:00:00 AM 15.08 59.144 0.191 7.45 1.85 9.17
9/6/2021 7:15:00 AM 15.06 59.108 0.191 7.47 1.85 9.18
9/6/2021 7:30:00 AM 15.05 59.09 0.191 7.47 1.58 9.2
9/6/2021 7:45:00 AM 15.03 59.054 0.191 7.48 1.4 9.22
9/6/2021 8:00:00 AM 15.02 59.036 0.191 7.48 1.28 9.25
9/6/2021 8:15:00 AM 15.02 59.036 0.191 7.48 1.45 9.29
9/6/2021 8:30:00 AM 15.03 59.054 0.19 7.49 1.58 9.35
9/6/2021 8:45:00 AM 15.05 59.09 0.19 7.49 1.84 9.4
9/6/2021 9:00:00 AM 15.06 59.108 0.189 7.5 2.01 9.44
9/6/2021 9:15:00 AM 15.09 59.162 0.188 7.51 1.9 9.49
9/6/2021 9:30:00 AM 15.14 59.252 0.187 7.52 1.97 9.57
9/6/2021 9:45:00 AM 15.17 59.306 0.186 7.54 1.97 9.59
9/6/2021 10:00:00 AM 15.21 59.378 0.185 7.53 2.22 9.59
9/6/2021 10:15:00 AM 15.25 59.45 0.184 7.53 2.52 9.6
9/6/2021 10:30:00 AM 15.31 59.558 0.183 7.55 2.46 9.61
9/6/2021 10:45:00 AM 15.35 59.63 0.182 7.55 2.89 9.62
9/6/2021 11:00:00 AM 15.38 59.684 0.182 7.55 2.94 9.61
9/6/2021 11:15:00 AM 15.49 59.882 0.181 7.56 3.19 9.64
9/6/2021 11:30:00 AM 15.61 60.098 0.18 7.55 3.21 9.67
9/6/2021 11:45:00 AM 15.75 60.35 0.179 7.57 3.07 9.75
9/6/2021 12:00:00 PM 15.82 60.476 0.179 7.58 3.02 9.73
9/6/2021 12:15:00 PM 15.91 60.638 0.178 7.6 3.3 9.75
9/6/2021 12:30:00 PM 16.06 60.908 0.178 7.6 3.16 9.77
9/6/2021 12:45:00 PM 16.26 61.268 0.178 7.6 2.92 9.79
9/6/2021 1:00:00 PM 16.46 61.628 0.177 7.6 2.82 9.8
9/6/2021 1:15:00 PM 16.45 61.61 0.177 7.62 2.65 9.82
9/6/2021 1:30:00 PM 16.55 61.79 0.177 7.61 2.74 9.82
9/6/2021 1:45:00 PM 16.74 62.132 0.177 7.55 2.45 9.78
9/6/2021 2:00:00 PM 16.98 62.564 0.176 7.57 2.37 9.79
9/6/2021 2:15:00 PM 17.12 62.816 0.176 7.53 2.38 9.74
9/6/2021 2:30:00 PM 17.21 62.978 0.177 7.54 2.9 9.74
9/6/2021 2:45:00 PM 17.3 63.14 0.177 7.53 1.96 9.71
9/6/2021 3:00:00 PM 17.43 63.374 0.177 7.59 1.94 9.74
9/6/2021 3:15:00 PM 17.52 63.536 0.177 7.54 1.82 9.65
9/6/2021 3:30:00 PM 17.54 63.572 0.177 7.51 1.84 9.56
9/6/2021 3:45:00 PM 17.5 63.5 0.177 7.47 1.88 9.45
9/6/2021 4:00:00 PM 17.59 63.662 0.177 7.46 1.72 9.42
9/6/2021 4:15:00 PM 17.63 63.734 0.178 7.45 1.61 9.4
9/6/2021 4:30:00 PM 17.58 63.644 0.178 7.44 1.64 9.35
9/6/2021 4:45:00 PM 17.47 63.446 0.178 7.44 1.62 9.31
9/6/2021 5:00:00 PM 17.31 63.158 0.179 7.47 1.43 9.28
9/6/2021 5:15:00 PM 17.22 62.996 0.18 7.58 1.3 9.33
9/6/2021 5:30:00 PM 17.15 62.87 0.181 7.63 1.37 9.33
9/6/2021 5:45:00 PM 17.07 62.726 0.181 7.63 1.51 9.29
9/6/2021 6:00:00 PM 16.99 62.582 0.181 7.56 1.26 9.18
9/6/2021 6:15:00 PM 16.92 62.456 0.182 7.56 1.48 9.15
9/6/2021 6:30:00 PM 16.85 62.33 0.18 7.42 1.08 8.97
9/6/2021 6:45:00 PM 16.79 62.222 0.181 7.4 1.09 8.94
9/6/2021 7:00:00 PM 16.73 62.114 0.181 7.35 1.13 8.86
9/6/2021 7:15:00 PM 16.66 61.988 0.181 7.33 1.01 8.8
9/6/2021 7:30:00 PM 16.59 61.862 0.181 7.31 1.19 8.76
9/6/2021 7:45:00 PM 16.51 61.718 0.181 7.29 1.03 8.72
9/6/2021 8:00:00 PM 16.44 61.592 0.182 7.28 1.2 8.69
9/6/2021 8:15:00 PM 16.38 61.484 0.182 7.27 1.16 8.65
9/6/2021 8:30:00 PM 16.31 61.358 0.182 7.26 1.16 8.64
9/6/2021 8:45:00 PM 16.25 61.25 0.182 7.25 1.29 8.61
9/6/2021 9:00:00 PM 16.18 61.124 0.182 7.23 1.07 8.6
9/6/2021 9:15:00 PM 16.11 60.998 0.183 7.23 1.17 8.58
9/6/2021 9:30:00 PM 16.05 60.89 0.183 7.21 1.33 8.55
9/6/2021 9:45:00 PM 15.99 60.782 0.184 7.21 1.25 8.56
9/6/2021 10:00:00 PM 15.93 60.674 0.184 7.21 1.34 8.55
9/6/2021 10:15:00 PM 15.86 60.548 0.184 7.19 1.35 8.52
9/6/2021 10:30:00 PM 15.81 60.458 0.185 7.2 1.48 8.55
9/6/2021 10:45:00 PM 15.75 60.35 0.186 7.19 1.56 8.54
9/6/2021 11:00:00 PM 15.69 60.242 0.186 7.19 1.39 8.56
9/6/2021 11:15:00 PM 15.64 60.152 0.187 7.2 1.58 8.6
9/6/2021 11:30:00 PM 15.59 60.062 0.187 7.22 1.56 8.64
9/6/2021 11:45:00 PM 15.53 59.954 0.188 7.23 1.5 8.66
9/7/2021 12:00:00 AM 15.48 59.864 0.188 7.23 1.49 8.67
9/7/2021 12:15:00 AM 15.42 59.756 0.188 7.24 1.52 8.7
9/7/2021 12:30:00 AM 15.37 59.666 0.188 7.24 2.01 8.72
9/7/2021 12:45:00 AM 15.33 59.594 0.187 7.24 1.64 8.74
9/7/2021 1:00:00 AM 15.27 59.486 0.187 7.23 1.75 8.75
9/7/2021 1:15:00 AM 15.21 59.378 0.187 7.24 1.61 8.76
9/7/2021 1:30:00 AM 15.15 59.27 0.187 7.22 1.65 8.76
9/7/2021 1:45:00 AM 15.09 59.162 0.186 7.22 1.62 8.76
9/7/2021 2:00:00 AM 15.03 59.054 0.186 7.21 1.38 8.75
9/7/2021 2:15:00 AM 14.97 58.946 0.186 7.21 1.29 8.75
9/7/2021 2:30:00 AM 14.91 58.838 0.186 7.2 1.19 8.76
9/7/2021 2:45:00 AM 14.83 58.694 0.188 7.25 1.33 8.89
9/7/2021 3:00:00 AM 14.76 58.568 0.189 7.35 1.48 9
9/7/2021 3:15:00 AM 14.69 58.442 0.189 7.37 1.57 9.02
9/7/2021 3:30:00 AM 14.63 58.334 0.189 7.37 2.18 9.02
9/7/2021 3:45:00 AM 14.58 58.244 0.189 7.37 2 9.04
9/7/2021 4:00:00 AM 14.52 58.136 0.189 7.36 2.01 9.04
9/7/2021 4:15:00 AM 14.47 58.046 0.189 7.36 1.98 9.04
9/7/2021 4:30:00 AM 14.42 57.956 0.189 7.36 2.35 9.04
9/7/2021 4:45:00 AM 14.37 57.866 0.19 7.35 2.13 9.03
9/7/2021 5:00:00 AM 14.34 57.812 0.19 7.34 2.27 9.03
9/7/2021 5:15:00 AM 14.3 57.74 0.19 7.33 2.28 9.02
9/7/2021 5:30:00 AM 14.26 57.668 0.19 7.33 2.11 9.01
9/7/2021 5:45:00 AM 14.22 57.596 0.19 7.33 1.98 9.01
9/7/2021 6:00:00 AM 14.18 57.524 0.19 7.32 1.99 9.02
9/7/2021 6:15:00 AM 14.14 57.452 0.19 7.32 1.89 9.02
9/7/2021 6:30:00 AM 14.11 57.398 0.19 7.33 2.03 9.01
9/7/2021 6:45:00 AM 14.07 57.326 0.19 7.32 1.77 9.02
9/7/2021 7:00:00 AM 14.04 57.272 0.19 7.31 1.53 9.04
9/7/2021 7:15:00 AM 14.01 57.218 0.19 7.31 1.71 9.06
9/7/2021 7:30:00 AM 13.99 57.182 0.19 7.32 1.52 9.07
9/7/2021 7:45:00 AM 13.97 57.146 0.19 7.32 1.38 9.11
9/7/2021 8:00:00 AM 13.95 57.11 0.19 7.32 1.43 9.15
9/7/2021 8:15:00 AM 13.95 57.11 0.19 7.32 1.45 9.19
9/7/2021 8:30:00 AM 13.94 57.092 0.19 7.33 1.47 9.25
9/7/2021 8:45:00 AM 13.94 57.092 0.19 7.34 1.46 9.29
9/7/2021 9:00:00 AM 13.94 57.092 0.19 7.33 1.46 9.31
9/7/2021 9:15:00 AM 13.94 57.092 0.19 7.34 1.23 9.33
9/7/2021 9:30:00 AM 13.96 57.128 0.19 7.35 1.21 9.34
9/7/2021 9:45:00 AM 13.97 57.146 0.191 7.35 1.2 9.36
9/7/2021 10:00:00 AM 14 57.2 0.191 7.35 1.08 9.41
9/7/2021 10:15:00 AM 14.04 57.272 0.191 7.36 1.22 9.41
9/7/2021 10:30:00 AM 14.1 57.38 0.191 7.35 0.91 9.44
9/7/2021 10:45:00 AM 14.17 57.506 0.191 7.36 1.04 9.47
9/7/2021 11:00:00 AM 14.27 57.686 0.191 7.37 0.95 9.51
9/7/2021 11:15:00 AM 14.39 57.902 0.191 7.37 0.97 9.56
9/7/2021 11:30:00 AM 14.55 58.19 0.191 7.38 0.92 9.6
9/7/2021 11:45:00 AM 14.71 58.478 0.19 7.39 0.89 9.61
9/7/2021 12:00:00 PM 14.89 58.802 0.19 7.39 1.07 9.65
9/7/2021 12:15:00 PM 15.07 59.126 0.19 7.4 1.18 9.68
9/7/2021 12:30:00 PM 15.3 59.54 0.19 7.41 0.98 9.72
9/7/2021 12:45:00 PM 15.58 60.044 0.19 7.43 0.9 9.78
9/7/2021 1:00:00 PM 15.9 60.62 0.19 7.43 0.93 9.84
9/7/2021 1:15:00 PM 16.3 61.34 0.19 7.43 0.87 9.88
9/7/2021 1:30:00 PM 16.68 62.024 0.19 7.45 1.07 9.89
9/7/2021 1:45:00 PM 17.02 62.636 0.19 7.46 0.82 9.93
9/7/2021 2:00:00 PM 17.27 63.086 0.19 7.48 0.8 9.94
9/7/2021 2:15:00 PM 17.58 63.644 0.19 7.49 0.89 9.96
9/7/2021 2:30:00 PM 17.78 64.004 0.19 7.5 0.83 9.94
9/7/2021 2:45:00 PM 17.95 64.31 0.19 7.5 0.88 9.9
9/7/2021 3:00:00 PM 18.03 64.454 0.19 7.51 0.92 9.87
9/7/2021 3:15:00 PM 18.1 64.58 0.19 7.51 0.96 9.84
9/7/2021 3:30:00 PM 18.25 64.85 0.19 7.51 0.98 9.81
9/7/2021 3:45:00 PM 18.34 65.012 0.19 7.52 0.89 9.77
9/7/2021 4:00:00 PM 18.31 64.958 0.19 7.52 0.86 9.69
9/7/2021 4:15:00 PM 18.32 64.976 0.19 7.51 0.87 9.63
9/7/2021 4:30:00 PM 18.31 64.958 0.19 7.5 0.96 9.54
9/7/2021 4:45:00 PM 18.26 64.868 0.191 7.48 0.91 9.43
9/7/2021 5:00:00 PM 18.19 64.742 0.191 7.48 1.02 9.35
9/7/2021 5:15:00 PM 18.09 64.562 0.191 7.47 1.07 9.21
9/7/2021 5:30:00 PM 17.97 64.346 0.191 7.45 1.1 9.13
9/7/2021 5:45:00 PM 17.86 64.148 0.191 7.44 1.27 9.04
9/7/2021 6:00:00 PM 17.74 63.932 0.191 7.41 1.46 8.93
9/7/2021 6:15:00 PM 17.64 63.752 0.191 7.39 1.45 8.88
9/7/2021 6:30:00 PM 17.55 63.59 0.191 7.39 1.21 8.79
9/7/2021 6:45:00 PM 17.45 63.41 0.191 7.38 1.39 8.74
9/7/2021 7:00:00 PM 17.36 63.248 0.192 7.36 1.23 8.62
9/7/2021 7:15:00 PM 17.27 63.086 0.192 7.35 1.45 8.62
9/7/2021 7:30:00 PM 17.17 62.906 0.192 7.33 0.99 8.56
9/7/2021 7:45:00 PM 17.07 62.726 0.192 7.32 1.64 8.44
9/7/2021 8:00:00 PM 16.99 62.582 0.192 7.31 1.47 8.42
9/7/2021 8:15:00 PM 16.9 62.42 0.192 7.28 1.19 8.39
9/7/2021 8:30:00 PM 16.81 62.258 0.192 7.26 1.29 8.32
9/7/2021 8:45:00 PM 16.72 62.096 0.192 7.26 3.33 8.3
9/7/2021 9:00:00 PM 16.63 61.934 0.192 7.24 1.39 8.29
9/7/2021 9:15:00 PM 16.53 61.754 0.192 7.21 1.49 8.2
9/7/2021 9:30:00 PM 16.42 61.556 0.189 7.14 1.36 8.05
9/7/2021 9:45:00 PM 16.33 61.394 0.188 7.06 1.17 7.9
9/7/2021 10:00:00 PM 16.27 61.286 0.188 7.05 1.3 7.91
9/7/2021 10:15:00 PM 16.19 61.142 0.187 7.02 1.19 7.83
9/7/2021 10:30:00 PM 16.09 60.962 0.19 7.03 1.59 7.84
9/7/2021 10:45:00 PM 16.01 60.818 0.191 7.07 5.62 7.78
9/7/2021 11:00:00 PM 15.99 60.782 0.192 7.12 1.85 8.04
9/7/2021 11:15:00 PM 15.92 60.656 0.192 7.13 1.15 7.99
9/7/2021 11:30:00 PM 15.86 60.548 0.193 7.14 1.7 8.08
9/7/2021 11:45:00 PM 15.82 60.476 0.193 7.14 1.09 8.16
9/8/2021 12:00:00 AM 15.74 60.332 0.192 7.12 1.13 7.97
9/8/2021 12:15:00 AM 15.71 60.278 0.193 7.12 1.02 8.03
9/8/2021 12:30:00 AM 15.67 60.206 0.193 7.14 1.07 8.05
9/8/2021 12:45:00 AM 15.64 60.152 0.193 7.14 1.59 8.07
9/8/2021 1:00:00 AM 15.6 60.08 0.193 7.14 1.26 8.11
9/8/2021 1:15:00 AM 15.57 60.026 0.193 7.14 1.39 8.15
9/8/2021 1:30:00 AM 15.53 59.954 0.193 7.16 1.22 8.17
9/8/2021 1:45:00 AM 15.49 59.882 0.193 7.15 1.46 8.2
9/8/2021 2:00:00 AM 15.46 59.828 0.194 7.16 1.38 8.24
9/8/2021 2:15:00 AM 15.41 59.738 0.193 7.16 1.14 8.24
9/8/2021 2:30:00 AM 15.37 59.666 0.194 7.16 1.25 8.28
9/8/2021 2:45:00 AM 15.35 59.63 0.193 7.17 1.18 8.28
9/8/2021 3:00:00 AM 15.31 59.558 0.194 7.17 1.11 8.28
9/8/2021 3:15:00 AM 15.28 59.504 0.194 7.17 1.09 8.31
9/8/2021 3:30:00 AM 15.26 59.468 0.194 7.18 1.16 8.33
9/8/2021 3:45:00 AM 15.23 59.414 0.194 7.19 1.2 8.33
9/8/2021 4:00:00 AM 15.19 59.342 0.194 7.17 1.2 8.31
9/8/2021 4:15:00 AM 15.16 59.288 0.193 7.16 1.21 8.32
9/8/2021 4:30:00 AM 15.12 59.216 0.193 7.15 1.25 8.3
9/8/2021 4:45:00 AM 15.11 59.198 0.191 7.11 1.15 8.24
9/8/2021 5:00:00 AM 15.07 59.126 0.192 7.1 1.31 8.3
9/8/2021 5:15:00 AM 15.02 59.036 0.192 7.12 1.83 8.33
9/8/2021 5:30:00 AM 14.99 58.982 0.191 7.11 1.45 8.3
9/8/2021 5:45:00 AM 14.97 58.946 0.188 7.04 1.24 8.12
9/8/2021 6:00:00 AM 14.91 58.838 0.191 7.06 1.17 8.28
9/8/2021 6:15:00 AM 14.88 58.784 0.19 7.06 1.5 8.27
9/8/2021 6:30:00 AM 14.83 58.694 0.193 7.1 3.39 8.28
9/8/2021 6:45:00 AM 14.79 58.622 0.193 7.14 1.37 8.43
9/8/2021 7:00:00 AM 14.77 58.586 0.193 7.15 1.76 8.46
9/8/2021 7:15:00 AM 14.73 58.514 0.195 7.2 1.64 8.5
9/8/2021 7:30:00 AM 14.71 58.478 0.195 7.22 1.43 8.6
9/8/2021 7:45:00 AM 14.69 58.442 0.196 7.23 1.44 8.65
9/8/2021 8:00:00 AM 14.7 58.46 0.196 7.24 1.6 8.72
9/8/2021 8:15:00 AM 14.71 58.478 0.196 7.25 1.86 8.77
9/8/2021 8:30:00 AM 14.72 58.496 0.196 7.26 1.5 8.82
9/8/2021 8:45:00 AM 14.75 58.55 0.197 7.27 1.33 8.87
9/8/2021 9:00:00 AM 14.79 58.622 0.196 7.26 1.77 8.92
9/8/2021 9:15:00 AM 14.82 58.676 0.196 7.28 1.91 9
9/8/2021 9:30:00 AM 14.85 58.73 0.196 7.28 1.39 9.06
9/8/2021 9:45:00 AM 14.91 58.838 0.195 7.26 1.34 9.07
9/8/2021 10:00:00 AM 14.96 58.928 0.195 7.24 1.33 9.06
9/8/2021 10:15:00 AM 15.02 59.036 0.195 7.24 1.38 9.13
9/8/2021 10:30:00 AM 15.08 59.144 0.195 7.23 0.98 9.09
9/8/2021 10:45:00 AM 15.15 59.27 0.194 7.19 0.87 9.06
9/8/2021 11:00:00 AM 15.25 59.45 0.195 7.21 1.69 9.12
9/8/2021 11:15:00 AM 15.38 59.684 0.195 7.22 1.54 9.09
9/8/2021 11:30:00 AM 15.52 59.936 0.195 7.23 1.02 9.26
9/8/2021 11:45:00 AM 15.59 60.062 0.195 7.23 1.95 9.24
9/8/2021 12:00:00 PM 15.74 60.332 0.195 7.25 1.03 9.32
9/8/2021 12:15:00 PM 15.87 60.566 0.195 7.27 0.94 9.5
9/8/2021 12:30:00 PM 16.06 60.908 0.195 7.29 0.93 9.48
9/8/2021 12:45:00 PM 16.26 61.268 0.195 7.22 1.08 9.25
9/8/2021 1:00:00 PM 16.42 61.556 0.194 7.19 1.13 9.28
9/8/2021 1:15:00 PM 16.6 61.88 0.194 7.18 1.95 9.17
9/8/2021 1:30:00 PM 16.76 62.168 0.195 7.23 1.71 9.33
9/8/2021 1:45:00 PM 16.88 62.384 0.195 7.25 1.36 9.44
9/8/2021 2:00:00 PM 16.98 62.564 0.196 7.3 1.04 9.29
9/8/2021 2:15:00 PM 17.05 62.69 0.195 7.26 1.09 9.19
9/8/2021 2:30:00 PM 17.13 62.834 0.195 7.22 1.15 9.15
9/8/2021 2:45:00 PM 17.1 62.78 0.194 7.2 1.22 9.05
9/8/2021 3:00:00 PM 17.11 62.798 0.195 7.19 1.53 9.09
9/8/2021 3:15:00 PM 17.08 62.744 0.195 7.19 2.18 8.88
9/8/2021 3:30:00 PM 17.08 62.744 0.194 7.2 1.2 8.9
9/8/2021 3:45:00 PM 17.12 62.816 0.188 7.28 3.24 9.03
9/8/2021 4:00:00 PM 17.05 62.69 0.182 7.28 10.08 8.85
9/8/2021 4:15:00 PM 17.04 62.672 0.184 7.24 14.4 8.77
9/8/2021 4:30:00 PM 17.08 62.744 0.184 7.46 20.7 8.87
9/8/2021 4:45:00 PM 17.02 62.636 0.179 7.5 67.51 8.88
9/8/2021 5:00:00 PM 16.98 62.564 0.174 7.48 65.55 8.83
9/8/2021 5:15:00 PM 16.95 62.51 0.172 7.46 77.87 8.8
9/8/2021 5:30:00 PM 16.93 62.474 0.17 7.45 53.35 8.8
9/8/2021 5:45:00 PM 16.9 62.42 0.167 7.44 50.46 8.8
9/8/2021 6:00:00 PM 16.84 62.312 0.167 7.44 50.46 8.81
9/8/2021 6:15:00 PM 16.79 62.222 0.169 7.46 40.42 8.86
9/8/2021 6:30:00 PM 16.73 62.114 0.171 7.47 44.18 8.89
9/8/2021 6:45:00 PM 16.68 62.024 0.169 7.47 29.93 8.88
9/8/2021 7:00:00 PM 16.63 61.934 0.166 7.44 29.42 8.87
9/8/2021 7:15:00 PM 16.59 61.862 0.163 7.43 26.78 8.87
9/8/2021 7:30:00 PM 16.55 61.79 0.161 7.42 22.91 8.87
9/8/2021 7:45:00 PM 16.51 61.718 0.162 7.42 15.61 8.88
9/8/2021 8:00:00 PM 16.49 61.682 0.164 7.42 15.67 8.88
9/8/2021 8:15:00 PM 16.47 61.646 0.167 7.42 14.49 8.89
9/8/2021 8:30:00 PM 16.45 61.61 0.17 7.43 13.32 8.89
9/8/2021 8:45:00 PM 16.44 61.592 0.173 7.44 12.4 8.91
9/8/2021 9:00:00 PM 16.44 61.592 0.175 7.45 12.09 8.91
9/8/2021 9:15:00 PM 16.42 61.556 0.176 7.44 12.52 8.92
9/8/2021 9:30:00 PM 16.41 61.538 0.177 7.44 10.85 8.92
9/8/2021 9:45:00 PM 16.39 61.502 0.179 7.44 9.33 8.93
9/8/2021 10:00:00 PM 16.37 61.466 0.182 7.45 8.62 8.94
9/8/2021 10:15:00 PM 16.34 61.412 0.184 7.45 8.04 8.95
9/8/2021 10:30:00 PM 16.31 61.358 0.186 7.46 7.19 8.96
9/8/2021 10:45:00 PM 16.28 61.304 0.187 7.45 7.22 8.96
9/8/2021 11:00:00 PM 16.25 61.25 0.187 7.45 6.44 8.96
9/8/2021 11:15:00 PM 16.21 61.178 0.188 7.46 6.18 8.97
9/8/2021 11:30:00 PM 16.18 61.124 0.188 7.45 6 8.97
9/8/2021 11:45:00 PM 16.16 61.088 0.188 7.45 5.67 8.97
9/9/2021 12:00:00 AM 16.14 61.052 0.188 7.45 5.6 8.97
9/9/2021 12:15:00 AM 16.12 61.016 0.188 7.45 6.24 8.98
9/9/2021 12:30:00 AM 16.1 60.98 0.187 7.44 4.66 8.97
9/9/2021 12:45:00 AM 16.08 60.944 0.187 7.45 5 8.97
9/9/2021 1:00:00 AM 16.08 60.944 0.186 7.45 4.65 8.98
9/9/2021 1:15:00 AM 16.07 60.926 0.186 7.44 4.39 8.97
9/9/2021 1:30:00 AM 16.06 60.908 0.186 7.44 4.55 8.97
9/9/2021 1:45:00 AM 16.06 60.908 0.186 7.44 4.59 8.98
9/9/2021 2:00:00 AM 16.05 60.89 0.186 7.44 4.52 8.97
9/9/2021 2:15:00 AM 16.05 60.89 0.186 7.45 3.75 8.97
9/9/2021 2:30:00 AM 16.04 60.872 0.187 7.44 3.99 8.98
9/9/2021 2:45:00 AM 16.03 60.854 0.187 7.45 4.72 8.97
9/9/2021 3:00:00 AM 16.02 60.836 0.187 7.45 5.99 8.96
9/9/2021 3:15:00 AM 16.01 60.818 0.188 7.44 5.57 8.95
9/9/2021 3:30:00 AM 16 60.8 0.188 7.45 5.31 8.97
9/9/2021 3:45:00 AM 15.99 60.782 0.188 7.46 4.56 8.98
9/9/2021 4:00:00 AM 15.98 60.764 0.188 7.46 3.75 8.98
9/9/2021 4:15:00 AM 15.97 60.746 0.188 7.46 4.2 8.99
9/9/2021 4:30:00 AM 15.95 60.71 0.188 7.46 3.88 8.98
9/9/2021 4:45:00 AM 15.94 60.692 0.187 7.47 4.14 8.98
9/9/2021 5:00:00 AM 15.93 60.674 0.187 7.46 3.96 8.98
9/9/2021 5:15:00 AM 15.91 60.638 0.186 7.46 4.36 8.98
9/9/2021 5:30:00 AM 15.9 60.62 0.186 7.46 4.56 8.98
9/9/2021 5:45:00 AM 15.88 60.584 0.185 7.44 5.29 8.99
9/9/2021 6:00:00 AM 15.87 60.566 0.184 7.46 6.02 8.99
9/9/2021 6:15:00 AM 15.85 60.53 0.183 7.41 8.31 8.99
9/9/2021 6:30:00 AM 15.84 60.512 0.182 7.46 10.2 8.99
9/9/2021 6:45:00 AM 15.82 60.476 0.18 7.41 13.32 9
9/9/2021 7:00:00 AM 15.81 60.458 0.179 7.43 15.29 9
9/9/2021 7:15:00 AM 15.8 60.44 0.178 7.44 15.91 9.01
9/9/2021 7:30:00 AM 15.78 60.404 0.176 7.44 16.24 9.01
9/9/2021 7:45:00 AM 15.77 60.386 0.175 7.4 20.47 9.02
9/9/2021 8:00:00 AM 15.77 60.386 0.174 7.44 21.93 9.03
9/9/2021 8:15:00 AM 15.76 60.368 0.173 7.44 22.4 9.05
9/9/2021 8:30:00 AM 15.76 60.368 0.171 7.44 24.17 9.07
9/9/2021 8:45:00 AM 15.76 60.368 0.171 7.43 23.02 9.1
9/9/2021 9:00:00 AM 15.78 60.404 0.17 7.43 24.18 9.13
9/9/2021 9:15:00 AM 15.79 60.422 0.169 7.45 23.33 9.18
9/9/2021 9:30:00 AM 15.81 60.458 0.168 7.46 21.63 9.22
9/9/2021 9:45:00 AM 15.84 60.512 0.168 7.41 21.29 9.27
9/9/2021 10:00:00 AM 15.88 60.584 0.167 7.45 19.88 9.33
9/9/2021 10:15:00 AM 15.93 60.674 0.167 7.47 18.49 9.37
9/9/2021 10:30:00 AM 15.99 60.782 0.167 7.49 18.86 9.44
9/9/2021 10:45:00 AM 16.07 60.926 0.167 7.49 16.23 9.49
9/9/2021 11:00:00 AM 16.12 61.016 0.167 7.51 14.03 9.54
9/9/2021 11:15:00 AM 16.21 61.178 0.167 7.5 14.89 9.58
9/9/2021 11:30:00 AM 16.32 61.376 0.167 7.51 13.31 9.62
9/9/2021 11:45:00 AM 16.48 61.664 0.167 7.55 12.06 9.69
9/9/2021 12:00:00 PM 16.56 61.808 0.168 7.57 11.38 9.72
9/9/2021 12:15:00 PM 16.63 61.934 0.168 7.58 10.38 9.73
9/9/2021 12:30:00 PM 16.71 62.078 0.168 7.6 9.39 9.75
9/9/2021 12:45:00 PM 16.79 62.222 0.169 7.6 9.41 9.74
9/9/2021 1:00:00 PM 16.81 62.258 0.169 7.6 7.97 9.68
9/9/2021 1:15:00 PM 16.8 62.24 0.168 7.61 7.95 9.57
9/9/2021 1:30:00 PM 16.85 62.33 0.169 7.61 7.24 9.58
9/9/2021 1:45:00 PM 16.94 62.492 0.169 7.61 7.52 9.6
9/9/2021 2:00:00 PM 16.94 62.492 0.169 7.6 6.98 9.59
9/9/2021 2:15:00 PM 16.95 62.51 0.17 7.61 6.67 9.59
9/9/2021 2:30:00 PM 16.96 62.528 0.171 7.62 5.37 9.6
9/9/2021 2:45:00 PM 16.99 62.582 0.171 7.63 5.53 9.61
9/9/2021 3:00:00 PM 17.02 62.636 0.17 7.64 5.26 9.62
9/9/2021 3:15:00 PM 17.07 62.726 0.17 7.63 5.15 9.63
9/9/2021 3:30:00 PM 17.2 62.96 0.171 7.63 5.18 9.63
9/9/2021 3:45:00 PM 17.14 62.852 0.172 7.65 5.76 9.57
9/9/2021 4:00:00 PM 17.11 62.798 0.173 7.63 4.76 9.53
9/9/2021 4:15:00 PM 17.07 62.726 0.174 7.63 4.01 9.47
9/9/2021 4:30:00 PM 17.03 62.654 0.174 7.62 3.84 9.4
9/9/2021 4:45:00 PM 16.99 62.582 0.175 7.61 3.66 9.33
9/9/2021 5:00:00 PM 16.95 62.51 0.175 7.6 3.97 9.3
9/9/2021 5:15:00 PM 16.9 62.42 0.176 7.59 3.37 9.27
9/9/2021 5:30:00 PM 16.82 62.276 0.176 7.57 3.78 9.21
9/9/2021 5:45:00 PM 16.76 62.168 0.177 7.56 3.45 9.17
9/9/2021 6:00:00 PM 16.72 62.096 0.177 7.55 3.56 9.16
9/9/2021 6:15:00 PM 16.69 62.042 0.178 7.54 2.78 9.15
9/9/2021 6:30:00 PM 16.67 62.006 0.178 7.53 2.67 9.13
9/9/2021 6:45:00 PM 16.63 61.934 0.177 7.52 3.12 9.12
9/9/2021 7:00:00 PM 16.59 61.862 0.177 7.51 3.45 9.08
9/9/2021 7:15:00 PM 16.55 61.79 0.178 7.49 3.55 9.06
9/9/2021 7:30:00 PM 16.5 61.7 0.178 7.49 3.89 9.02
9/9/2021 7:45:00 PM 16.45 61.61 0.179 7.5 3.59 8.99
9/9/2021 8:00:00 PM 16.4 61.52 0.18 7.49 3.74 8.96
9/9/2021 8:15:00 PM 16.34 61.412 0.18 7.49 3.42 8.94
9/9/2021 8:30:00 PM 16.29 61.322 0.181 7.48 3.1 8.93
9/9/2021 8:45:00 PM 16.23 61.214 0.182 7.47 3.25 8.91
9/9/2021 9:00:00 PM 16.18 61.124 0.182 7.47 2.67 8.9
9/9/2021 9:15:00 PM 16.13 61.034 0.182 7.46 2.79 8.9
9/9/2021 9:30:00 PM 16.07 60.926 0.182 7.45 2.7 8.9
9/9/2021 9:45:00 PM 16.03 60.854 0.182 7.46 2.62 8.9
9/9/2021 10:00:00 PM 15.98 60.764 0.182 7.43 2.72 8.9
9/9/2021 10:15:00 PM 15.94 60.692 0.182 7.45 2.53 8.9
9/9/2021 10:30:00 PM 15.89 60.602 0.182 7.46 2.54 8.92
9/9/2021 10:45:00 PM 15.84 60.512 0.182 7.45 2.67 8.93
9/9/2021 11:00:00 PM 15.79 60.422 0.182 7.45 2.6 8.94
9/9/2021 11:15:00 PM 15.74 60.332 0.182 7.41 2.55 8.95
9/9/2021 11:30:00 PM 15.69 60.242 0.182 7.44 2.38 8.95
9/9/2021 11:45:00 PM 15.63 60.134 0.182 7.45 2.45 8.97
9/10/2021 12:00:00 AM 15.58 60.044 0.182 7.44 2.59 8.98
9/10/2021 12:15:00 AM 15.53 59.954 0.183 7.44 2.3 8.97
9/10/2021 12:30:00 AM 15.49 59.882 0.183 7.45 2.51 8.99
9/10/2021 12:45:00 AM 15.45 59.81 0.183 7.44 2.29 9
9/10/2021 1:00:00 AM 15.41 59.738 0.183 7.43 2.3 9
9/10/2021 1:15:00 AM 15.37 59.666 0.183 7.42 2.23 9.01
9/10/2021 1:30:00 AM 15.34 59.612 0.183 7.41 2.26 8.99
9/10/2021 1:45:00 AM 15.3 59.54 0.184 7.43 2.3 9.01
9/10/2021 2:00:00 AM 15.27 59.486 0.184 7.43 2.22 9.01
9/10/2021 2:15:00 AM 15.25 59.45 0.184 7.42 2.29 9.02
9/10/2021 2:30:00 AM 15.23 59.414 0.184 7.42 2.14 9.02
9/10/2021 2:45:00 AM 15.2 59.36 0.184 7.43 2.52 9.04
9/10/2021 3:00:00 AM 15.18 59.324 0.184 7.39 2.25 9.04
9/10/2021 3:15:00 AM 15.17 59.306 0.184 7.43 2.31 9.05
9/10/2021 3:30:00 AM 15.14 59.252 0.184 7.42 2.64 9.05
9/10/2021 3:45:00 AM 15.11 59.198 0.184 7.41 2.72 9.04
9/10/2021 4:00:00 AM 15.08 59.144 0.184 7.42 2.41 9.05
9/10/2021 4:15:00 AM 15.05 59.09 0.184 7.4 2.19 9.04
9/10/2021 4:30:00 AM 15.02 59.036 0.184 7.39 2.17 9.04
9/10/2021 4:45:00 AM 14.98 58.964 0.184 7.39 2.16 9.05
9/10/2021 5:00:00 AM 14.94 58.892 0.184 7.42 2.36 9.06
9/10/2021 5:15:00 AM 14.9 58.82 0.184 7.38 2.83 9.06
9/10/2021 5:30:00 AM 14.86 58.748 0.184 7.41 3.45 9.07
9/10/2021 5:45:00 AM 14.82 58.676 0.184 7.39 2.98 9.08
9/10/2021 6:00:00 AM 14.78 58.604 0.184 7.41 2.67 9.07
9/10/2021 6:15:00 AM 14.74 58.532 0.184 7.39 2.52 9.08
9/10/2021 6:30:00 AM 14.71 58.478 0.184 7.41 2.28 9.08
9/10/2021 6:45:00 AM 14.68 58.424 0.184 7.37 2.58 9.05
9/10/2021 7:00:00 AM 14.64 58.352 0.184 7.4 2.41 9.1
9/10/2021 7:15:00 AM 14.62 58.316 0.184 7.35 2.1 9.06
9/10/2021 7:30:00 AM 14.61 58.298 0.183 7.27 1.98 8.98
9/10/2021 7:45:00 AM 14.56 58.208 0.184 7.37 2.46 9.13
9/10/2021 8:00:00 AM 14.56 58.208 0.183 7.29 1.69 9.05
9/10/2021 8:15:00 AM 14.56 58.208 0.183 7.24 1.68 9
9/10/2021 8:30:00 AM 14.57 58.226 0.183 7.23 2.51 9.04
9/10/2021 8:45:00 AM 14.58 58.244 0.183 7.24 2.3 9.12
9/10/2021 9:00:00 AM 14.6 58.28 0.183 7.25 2.03 9.16
9/10/2021 9:15:00 AM 14.63 58.334 0.183 7.26 1.56 9.23
9/10/2021 9:30:00 AM 14.67 58.406 0.183 7.26 1.53 9.29
9/10/2021 9:45:00 AM 14.69 58.442 0.183 7.26 1.48 9.31
9/10/2021 10:00:00 AM 14.7 58.46 0.183 7.26 1.55 9.33
9/10/2021 10:15:00 AM 14.73 58.514 0.183 7.25 1.58 9.35
9/10/2021 10:30:00 AM 14.78 58.604 0.183 7.26 1.21 9.37
9/10/2021 10:45:00 AM 14.83 58.694 0.183 7.26 1.34 9.38
9/10/2021 11:00:00 AM 14.91 58.838 0.183 7.27 1.2 9.43
9/10/2021 11:15:00 AM 15 59 0.183 7.27 1.38 9.45
9/10/2021 11:30:00 AM 15.1 59.18 0.183 7.26 1.23 9.46
9/10/2021 11:45:00 AM 15.21 59.378 0.183 7.27 1.1 9.49
9/10/2021 12:00:00 PM 15.32 59.576 0.183 7.28 1.13 9.53
9/10/2021 12:15:00 PM 15.43 59.774 0.183 7.26 1.09 9.53
9/10/2021 12:30:00 PM 15.61 60.098 0.183 7.29 1.19 9.59
9/10/2021 12:45:00 PM 15.81 60.458 0.183 7.3 1.22 9.66
9/10/2021 1:00:00 PM 16.03 60.854 0.184 7.29 1.26 9.67
9/10/2021 1:15:00 PM 16.22 61.196 0.183 7.33 1.08 9.71
9/10/2021 1:30:00 PM 16.49 61.682 0.184 7.36 1.1 9.77
9/10/2021 1:45:00 PM 16.71 62.078 0.184 7.36 1.29 9.74
9/10/2021 2:00:00 PM 16.95 62.51 0.183 7.33 1.06 9.73
9/10/2021 2:15:00 PM 17.07 62.726 0.183 7.36 0.83 9.69
9/10/2021 2:30:00 PM 17.07 62.726 0.183 7.36 1.02 9.66
9/10/2021 2:45:00 PM 17.04 62.672 0.183 7.37 0.95 9.62
9/10/2021 3:00:00 PM 17.15 62.87 0.183 7.36 0.99 9.56
9/10/2021 3:15:00 PM 17.33 63.194 0.183 7.37 1.02 9.56
9/10/2021 3:30:00 PM 17.42 63.356 0.183 7.34 1.05 9.5
9/10/2021 3:45:00 PM 17.51 63.518 0.183 7.34 0.98 9.48
9/10/2021 4:00:00 PM 17.53 63.554 0.183 7.33 0.92 9.47
9/10/2021 4:15:00 PM 17.53 63.554 0.183 7.33 0.89 9.44
9/10/2021 4:30:00 PM 17.44 63.392 0.183 7.31 0.94 9.38
9/10/2021 4:45:00 PM 17.23 63.014 0.183 7.3 0.94 9.27
9/10/2021 5:00:00 PM 17.08 62.744 0.183 7.29 1.04 9.18
9/10/2021 5:15:00 PM 16.96 62.528 0.183 7.27 1 9.07
9/10/2021 5:30:00 PM 16.88 62.384 0.183 7.25 1.01 9.01
9/10/2021 5:45:00 PM 16.79 62.222 0.183 7.25 0.79 8.94
9/10/2021 6:00:00 PM 16.69 62.042 0.183 7.23 0.93 8.89
9/10/2021 6:15:00 PM 16.57 61.826 0.184 7.24 0.92 8.87
9/10/2021 6:30:00 PM 16.45 61.61 0.184 7.23 0.83 8.83
9/10/2021 6:45:00 PM 16.33 61.394 0.184 7.22 1.12 8.75
9/10/2021 7:00:00 PM 16.23 61.214 0.184 7.21 1.09 8.77
9/10/2021 7:15:00 PM 16.12 61.016 0.184 7.19 0.88 8.71
9/10/2021 7:30:00 PM 16.03 60.854 0.184 7.18 1.11 8.68
9/10/2021 7:45:00 PM 15.94 60.692 0.185 7.24 1.22 8.73
9/10/2021 8:00:00 PM 15.86 60.548 0.188 7.36 1.37 8.88
9/10/2021 8:15:00 PM 15.77 60.386 0.187 7.34 1.27 8.8
9/10/2021 8:30:00 PM 15.69 60.242 0.188 7.34 1.33 8.81
9/10/2021 8:45:00 PM 15.6 60.08 0.188 7.35 1.63 8.81
9/10/2021 9:00:00 PM 15.52 59.936 0.189 7.37 2.32 8.84
9/10/2021 9:15:00 PM 15.43 59.774 0.189 7.37 2.39 8.84
9/10/2021 9:30:00 PM 15.34 59.612 0.189 7.36 1.81 8.83
9/10/2021 9:45:00 PM 15.26 59.468 0.189 7.36 1.66 8.84
9/10/2021 10:00:00 PM 15.18 59.324 0.189 7.35 1.39 8.84
9/10/2021 10:15:00 PM 15.1 59.18 0.189 7.35 1.3 8.85
9/10/2021 10:30:00 PM 15.02 59.036 0.189 7.35 1.41 8.86
9/10/2021 10:45:00 PM 14.95 58.91 0.189 7.34 1.16 8.85
9/10/2021 11:00:00 PM 14.87 58.766 0.189 7.34 1.06 8.87
9/10/2021 11:15:00 PM 14.8 58.64 0.189 7.33 1.06 8.86
9/10/2021 11:30:00 PM 14.74 58.532 0.189 7.33 1.01 8.87
9/10/2021 11:45:00 PM 14.67 58.406 0.189 7.32 1.17 8.87
9/11/2021 12:00:00 AM 14.61 58.298 0.189 7.31 1.22 8.86
9/11/2021 12:15:00 AM 14.54 58.172 0.189 7.3 1.39 8.86
9/11/2021 12:30:00 AM 14.48 58.064 0.189 7.3 1.19 8.84
9/11/2021 12:45:00 AM 14.42 57.956 0.189 7.28 1.21 8.82
9/11/2021 1:00:00 AM 14.35 57.83 0.189 7.28 1.36 8.82
9/11/2021 1:15:00 AM 14.29 57.722 0.189 7.26 1.07 8.81
9/11/2021 1:30:00 AM 14.24 57.632 0.189 7.25 1.33 8.81
9/11/2021 1:45:00 AM 14.19 57.542 0.189 7.21 1.35 8.76
9/11/2021 2:00:00 AM 14.16 57.488 0.189 7.2 1.5 8.78
9/11/2021 2:15:00 AM 14.11 57.398 0.189 7.19 2.62 8.72
9/11/2021 2:30:00 AM 14.06 57.308 0.189 7.2 1.84 8.78
9/11/2021 2:45:00 AM 14.01 57.218 0.189 7.2 1.42 8.81
9/11/2021 3:00:00 AM 13.95 57.11 0.189 7.2 1.28 8.82
9/11/2021 3:15:00 AM 13.89 57.002 0.189 7.2 1.29 8.84
9/11/2021 3:30:00 AM 13.84 56.912 0.189 7.21 1.33 8.84
9/11/2021 3:45:00 AM 13.79 56.822 0.19 7.2 1.32 8.86
9/11/2021 4:00:00 AM 13.74 56.732 0.19 7.2 2.03 8.86
9/11/2021 4:15:00 AM 13.7 56.66 0.19 7.2 2.14 8.87
9/11/2021 4:30:00 AM 13.66 56.588 0.189 7.18 2.05 8.83
9/11/2021 4:45:00 AM 13.64 56.552 0.188 7.13 1.55 8.73
9/11/2021 5:00:00 AM 13.58 56.444 0.189 7.16 1.53 8.83
9/11/2021 5:15:00 AM 13.53 56.354 0.189 7.17 1.4 8.83
9/11/2021 5:30:00 AM 13.49 56.282 0.189 7.16 1.35 8.82
9/11/2021 5:45:00 AM 13.47 56.246 0.189 7.13 1.24 8.72
9/11/2021 6:00:00 AM 13.44 56.192 0.188 7.12 1.38 8.72
9/11/2021 6:15:00 AM 13.41 56.138 0.188 7.1 1.25 8.67
9/11/2021 6:30:00 AM 13.38 56.084 0.188 7.11 1.39 8.69
9/11/2021 6:45:00 AM 13.36 56.048 0.188 7.09 1.22 8.65
9/11/2021 7:00:00 AM 13.33 55.994 0.188 7.09 1.39 8.66
9/11/2021 7:15:00 AM 13.29 55.922 0.188 7.08 1.49 8.7
9/11/2021 7:30:00 AM 13.27 55.886 0.188 7.07 1.31 8.72
9/11/2021 7:45:00 AM 13.26 55.868 0.188 7.08 1.32 8.76
9/11/2021 8:00:00 AM 13.23 55.814 0.188 7.08 1.38 8.8
9/11/2021 8:15:00 AM 13.23 55.814 0.188 7.08 1.54 8.81
9/11/2021 8:30:00 AM 13.23 55.814 0.188 7.08 1.37 8.84
9/11/2021 8:45:00 AM 13.23 55.814 0.188 7.09 1.17 8.91
9/11/2021 9:00:00 AM 13.24 55.832 0.188 7.09 1.25 8.94
9/11/2021 9:15:00 AM 13.25 55.85 0.188 7.09 1.17 8.97
9/11/2021 9:30:00 AM 13.29 55.922 0.187 7.09 1.11 9.02
9/11/2021 9:45:00 AM 13.31 55.958 0.187 7.09 1.15 9.07
9/11/2021 10:00:00 AM 13.34 56.012 0.187 7.1 1.11 9.11
9/11/2021 10:15:00 AM 13.38 56.084 0.187 7.1 1.07 9.18
9/11/2021 10:30:00 AM 13.44 56.192 0.187 7.09 0.99 9.19
9/11/2021 10:45:00 AM 13.45 56.21 0.188 7.13 1.14 9.33
9/11/2021 11:00:00 AM 13.52 56.336 0.187 7.12 1.2 9.31
9/11/2021 11:15:00 AM 13.61 56.498 0.187 7.12 1.08 9.32
9/11/2021 11:30:00 AM 13.76 56.768 0.185 7.08 1.04 9.21
9/11/2021 11:45:00 AM 13.88 56.984 0.184 7.07 0.93 9.23
9/11/2021 12:00:00 PM 13.99 57.182 0.186 7.09 0.75 9.31
9/11/2021 12:15:00 PM 14.17 57.506 0.184 7.05 1.09 9.23
9/11/2021 12:30:00 PM 14.34 57.812 0.184 7.05 1.05 9.29
9/11/2021 12:45:00 PM 14.55 58.19 0.184 7.06 1.03 9.36
9/11/2021 1:00:00 PM 14.81 58.658 0.186 7.11 1.14 9.57
9/11/2021 1:15:00 PM 15.18 59.324 0.186 7.13 1.13 9.67
9/11/2021 1:30:00 PM 15.62 60.116 0.188 7.21 1.05 9.84
9/11/2021 1:45:00 PM 16.07 60.926 0.189 7.25 1.27 9.92
9/11/2021 2:00:00 PM 16.35 61.43 0.189 7.29 1.12 9.99
9/11/2021 2:15:00 PM 16.66 61.988 0.189 7.3 1.17 9.96
9/11/2021 2:30:00 PM 16.91 62.438 0.19 7.35 0.87 10.07
9/11/2021 2:45:00 PM 17.13 62.834 0.19 7.38 1.09 10.1
9/11/2021 3:00:00 PM 17.18 62.924 0.19 7.42 1.05 10.08
9/11/2021 3:15:00 PM 17.27 63.086 0.19 7.46 0.96 10.07
9/11/2021 3:30:00 PM 17.43 63.374 0.191 7.49 1.05 10.04
9/11/2021 3:45:00 PM 17.56 63.608 0.189 7.33 0.89 9.8
9/11/2021 4:00:00 PM 17.54 63.572 0.189 7.35 1.13 9.71
9/11/2021 4:15:00 PM 17.52 63.536 0.187 7.28 0.95 9.5
9/11/2021 4:30:00 PM 17.61 63.698 0.187 7.24 1.18 9.51
9/11/2021 4:45:00 PM 17.57 63.626 0.189 7.32 1.11 9.6
9/11/2021 5:00:00 PM 17.47 63.446 0.185 7.23 1.28 9.28
9/11/2021 5:15:00 PM 17.34 63.212 0.186 7.14 0.86 9.1
9/11/2021 5:30:00 PM 17.26 63.068 0.188 7.18 0.93 9.13
9/11/2021 5:45:00 PM 17.22 62.996 0.185 7.1 0.92 8.98
9/11/2021 6:00:00 PM 17.16 62.888 0.185 7.07 0.77 8.9
9/11/2021 6:15:00 PM 17.12 62.816 0.188 7.14 1.78 9.01
9/11/2021 6:30:00 PM 17.05 62.69 0.189 7.2 1.17 9.03
9/11/2021 6:45:00 PM 16.96 62.528 0.19 7.24 1.12 9
9/11/2021 7:00:00 PM 16.85 62.33 0.191 7.24 1.27 8.88
9/11/2021 7:15:00 PM 16.81 62.258 0.191 7.26 1.19 8.87
9/11/2021 7:30:00 PM 16.67 62.006 0.191 7.24 1.57 8.69
9/11/2021 7:45:00 PM 16.58 61.844 0.192 7.21 1.4 8.57
9/11/2021 8:00:00 PM 16.5 61.7 0.192 7.22 1.43 8.5
9/11/2021 8:15:00 PM 16.41 61.538 0.192 7.2 1.37 8.46
9/11/2021 8:30:00 PM 16.32 61.376 0.192 7.19 1.43 8.38
9/11/2021 8:45:00 PM 16.28 61.304 0.193 7.19 1.33 8.36
9/11/2021 9:00:00 PM 16.19 61.142 0.193 7.17 1.28 8.3
9/11/2021 9:15:00 PM 16.08 60.944 0.193 7.16 1.39 8.23
9/11/2021 9:30:00 PM 15.99 60.782 0.193 7.18 1.71 8.2
9/11/2021 9:45:00 PM 15.88 60.584 0.193 7.13 1.62 8.06
9/11/2021 10:00:00 PM 15.82 60.476 0.194 7.13 1.68 8.2
9/11/2021 10:15:00 PM 15.74 60.332 0.194 7.14 1.34 8.13
9/11/2021 10:30:00 PM 15.69 60.242 0.194 7.15 1.43 8.2
9/11/2021 10:45:00 PM 15.59 60.062 0.195 7.13 1.37 8.12
9/11/2021 11:00:00 PM 15.53 59.954 0.195 7.12 1.39 8.13
9/11/2021 11:15:00 PM 15.48 59.864 0.195 7.13 1.62 8.17
9/11/2021 11:30:00 PM 15.41 59.738 0.195 7.12 1.75 8.08
9/11/2021 11:45:00 PM 15.39 59.702 0.197 7.16 1.32 8.25
9/12/2021 12:00:00 AM 15.29 59.522 0.196 7.11 1.34 8.01
9/12/2021 12:15:00 AM 15.24 59.432 0.195 7.08 1.19 8.04
9/12/2021 12:30:00 AM 15.22 59.396 0.196 7.12 1.23 8.2
9/12/2021 12:45:00 AM 15.15 59.27 0.196 7.11 1.21 8.16
9/12/2021 1:00:00 AM 15.12 59.216 0.197 7.12 1.09 8.23
9/12/2021 1:15:00 AM 15.09 59.162 0.197 7.13 1.07 8.23
9/12/2021 1:30:00 AM 15.03 59.054 0.197 7.12 1.22 8.17
9/12/2021 1:45:00 AM 14.99 58.982 0.197 7.12 1.31 8.17
9/12/2021 2:00:00 AM 14.96 58.928 0.196 7.11 1.51 8.18
9/12/2021 2:15:00 AM 14.94 58.892 0.197 7.1 1.41 8.21
9/12/2021 2:30:00 AM 14.92 58.856 0.196 7.09 1.08 8.2
9/12/2021 2:45:00 AM 14.89 58.802 0.196 7.1 1.54 8.2
9/12/2021 3:00:00 AM 14.87 58.766 0.197 7.1 0.88 8.22
9/12/2021 3:15:00 AM 14.85 58.73 0.197 7.1 0.97 8.15
9/12/2021 3:30:00 AM 14.84 58.712 0.197 7.1 1 8.14
9/12/2021 3:45:00 AM 14.83 58.694 0.197 7.11 3.4 8.15
9/12/2021 4:00:00 AM 14.79 58.622 0.197 7.09 1.21 8.04
9/12/2021 4:15:00 AM 14.78 58.604 0.197 7.09 1.93 8.06
9/12/2021 4:30:00 AM 14.77 58.586 0.197 7.1 1.17 8.09
9/12/2021 4:45:00 AM 14.74 58.532 0.197 7.08 0.88 8.05
9/12/2021 5:00:00 AM 14.73 58.514 0.197 7.09 0.86 8.08
9/12/2021 5:15:00 AM 14.71 58.478 0.196 7.08 1 8.1
9/12/2021 5:30:00 AM 14.68 58.424 0.196 7.07 0.87 8.01
9/12/2021 5:45:00 AM 14.65 58.37 0.196 7.06 0.99 7.98
9/12/2021 6:00:00 AM 14.62 58.316 0.196 7.05 1.8 8.03
9/12/2021 6:15:00 AM 14.61 58.298 0.196 7.05 1.89 7.99
9/12/2021 6:30:00 AM 14.59 58.262 0.196 7.04 1.37 7.93
9/12/2021 6:45:00 AM 14.57 58.226 0.196 7.05 1.33 7.91
9/12/2021 7:00:00 AM 14.56 58.208 0.195 7.03 3.73 7.87
9/12/2021 7:15:00 AM 14.54 58.172 0.195 7.03 1.02 7.97
9/12/2021 7:30:00 AM 14.52 58.136 0.195 7.04 1.14 7.99
9/12/2021 7:45:00 AM 14.51 58.118 0.195 7.03 1.39 7.99
9/12/2021 8:00:00 AM 14.51 58.118 0.195 7.04 0.89 8.05
9/12/2021 8:15:00 AM 14.52 58.136 0.195 7.04 0.8 8.09
9/12/2021 8:30:00 AM 14.51 58.118 0.195 7.04 0.77 8.04
9/12/2021 8:45:00 AM 14.53 58.154 0.194 7.03 0.98 8.17
9/12/2021 9:00:00 AM 14.56 58.208 0.195 7.02 1.25 8.15
9/12/2021 9:15:00 AM 14.57 58.226 0.194 7.02 1.05 8.08
9/12/2021 9:30:00 AM 14.6 58.28 0.195 7.02 1.1 8.07
9/12/2021 9:45:00 AM 14.65 58.37 0.195 7.03 1.12 8.11
9/12/2021 10:00:00 AM 14.72 58.496 0.195 7.04 1.33 8.29
9/12/2021 10:15:00 AM 14.79 58.622 0.195 7.03 0.88 8.27
9/12/2021 10:30:00 AM 14.85 58.73 0.193 6.99 0.69 8.26
9/12/2021 10:45:00 AM 14.9 58.82 0.193 6.98 1.17 8.08
9/12/2021 11:00:00 AM 14.9 58.82 0.191 6.94 0.57 7.97
9/12/2021 11:15:00 AM 14.98 58.964 0.189 6.9 1.07 7.78
9/12/2021 11:30:00 AM 15.06 59.108 0.192 6.94 1.23 8.08
9/12/2021 11:45:00 AM 15.12 59.216 0.192 6.97 0.63 8.33
9/12/2021 12:00:00 PM 15.14 59.252 0.191 6.95 0.82 8.23
9/12/2021 12:15:00 PM 15.25 59.45 0.191 6.91 2.97 8.11
9/12/2021 12:30:00 PM 15.3 59.54 0.19 6.92 1.17 8.1
9/12/2021 12:45:00 PM 15.42 59.756 0.191 6.95 0.74 8.23
9/12/2021 1:00:00 PM 15.57 60.026 0.191 6.95 3.86 8.52
9/12/2021 1:15:00 PM 15.57 60.026 0.19 6.92 1.04 8.26
9/12/2021 1:30:00 PM 15.65 60.17 0.189 6.91 0.7 8.1
9/12/2021 1:45:00 PM 15.76 60.368 0.189 6.89 1.39 8.28
9/12/2021 2:00:00 PM 15.85 60.53 0.19 6.93 1.52 8.48
9/12/2021 2:15:00 PM 15.93 60.674 0.191 6.95 0.7 8.58
9/12/2021 2:30:00 PM 15.97 60.746 0.191 6.95 1.05 8.54
9/12/2021 2:45:00 PM 16.02 60.836 0.191 6.97 2.17 8.58
9/12/2021 3:00:00 PM 16.06 60.908 0.191 6.96 0.68 8.6
9/12/2021 3:15:00 PM 16.13 61.034 0.191 6.98 0.64 8.51
9/12/2021 3:30:00 PM 16.22 61.196 0.191 6.97 1.25 8.7
9/12/2021 3:45:00 PM 16.31 61.358 0.191 6.97 1.24 8.72
9/12/2021 4:00:00 PM 16.37 61.466 0.192 6.98 0.6 8.81
9/12/2021 4:15:00 PM 16.39 61.502 0.191 6.99 0.7 8.78
9/12/2021 4:30:00 PM 16.44 61.592 0.192 6.99 0.88 8.74
9/12/2021 4:45:00 PM 16.47 61.646 0.192 6.98 0.86 8.68
9/12/2021 5:00:00 PM 16.5 61.7 0.192 7 1.12 8.64
9/12/2021 5:15:00 PM 16.51 61.718 0.192 7 1.3 8.58
9/12/2021 5:30:00 PM 16.52 61.736 0.192 6.99 0.96 8.62
9/12/2021 5:45:00 PM 16.51 61.718 0.192 6.98 0.84 8.41
9/12/2021 6:00:00 PM 16.5 61.7 0.192 6.99 0.58 8.43
9/12/2021 6:15:00 PM 16.48 61.664 0.192 6.97 0.54 8.36
9/12/2021 6:30:00 PM 16.49 61.682 0.193 6.98 0.48 8.36
9/12/2021 6:45:00 PM 16.46 61.628 0.192 6.97 0.74 8.24
9/12/2021 7:00:00 PM 16.45 61.61 0.193 6.97 0.63 8.19
9/12/2021 7:15:00 PM 16.41 61.538 0.192 6.96 0.55 8.09
9/12/2021 7:30:00 PM 16.4 61.52 0.193 6.96 0.58 8.05
9/12/2021 7:45:00 PM 16.37 61.466 0.193 6.95 0.51 7.94
9/12/2021 8:00:00 PM 16.35 61.43 0.193 6.95 0.72 7.84
9/12/2021 8:15:00 PM 16.35 61.43 0.193 6.95 0.5 7.87
9/12/2021 8:30:00 PM 16.27 61.286 0.193 6.93 0.51 7.59
9/12/2021 8:45:00 PM 16.26 61.268 0.193 6.91 1.38 7.59
9/12/2021 9:00:00 PM 16.24 61.232 0.193 6.92 0.59 7.54
9/12/2021 9:15:00 PM 16.22 61.196 0.193 6.9 0.55 7.45
9/12/2021 9:30:00 PM 16.2 61.16 0.193 6.9 0.35 7.4
9/12/2021 9:45:00 PM 16.22 61.196 0.194 6.91 0.61 7.46
9/12/2021 10:00:00 PM 16.17 61.106 0.194 6.89 0.33 7.22
9/12/2021 10:15:00 PM 16.18 61.124 0.194 6.9 0.4 7.3
9/12/2021 10:30:00 PM 16.14 61.052 0.194 6.88 0.37 7.23
9/12/2021 10:45:00 PM 16.13 61.034 0.194 6.89 0.39 7.22
9/12/2021 11:00:00 PM 16.13 61.034 0.194 6.88 0.94 7.22
9/12/2021 11:15:00 PM 16.12 61.016 0.194 6.88 0.53 7.21
9/12/2021 11:30:00 PM 16.1 60.98 0.194 6.88 0.51 7.15
9/12/2021 11:45:00 PM 16.06 60.908 0.194 6.86 0.45 7.07
9/13/2021 12:00:00 AM 16.04 60.872 0.194 6.86 0.85 7
9/13/2021 12:15:00 AM 16.03 60.854 0.194 6.86 1.01 7
9/13/2021 12:30:00 AM 16.03 60.854 0.194 6.86 0.47 7.03
9/13/2021 12:45:00 AM 16.01 60.818 0.194 6.85 0.46 6.91
9/13/2021 1:00:00 AM 16.01 60.818 0.193 6.85 0.32 6.95
9/13/2021 1:15:00 AM 16.02 60.836 0.194 6.86 0.8 6.99
9/13/2021 1:30:00 AM 15.97 60.746 0.193 6.84 0.53 6.83
9/13/2021 1:45:00 AM 15.95 60.71 0.193 6.82 1.07 6.77
9/13/2021 2:00:00 AM 15.95 60.71 0.193 6.83 0.68 6.87
9/13/2021 2:15:00 AM 15.92 60.656 0.191 6.83 1.11 6.75
9/13/2021 2:30:00 AM 16 60.8 0.191 6.85 0.7 6.96
9/13/2021 2:45:00 AM 16.01 60.818 0.191 6.86 0.94 7.01
9/13/2021 3:00:00 AM 16.04 60.872 0.19 6.88 0.94 7.17
9/13/2021 3:15:00 AM 16.07 60.926 0.191 6.9 1.83 7.36
9/13/2021 3:30:00 AM 16.05 60.89 0.192 6.92 2.07 7.37
9/13/2021 3:45:00 AM 16.02 60.836 0.193 6.93 1.85 7.32
9/13/2021 4:00:00 AM 15.99 60.782 0.193 6.95 1.73 7.51
9/13/2021 4:15:00 AM 15.97 60.746 0.194 6.96 1.9 7.56
9/13/2021 4:30:00 AM 15.96 60.728 0.195 6.99 1.84 7.68
9/13/2021 4:45:00 AM 15.95 60.71 0.196 7.01 2.06 7.79
9/13/2021 5:00:00 AM 15.94 60.692 0.196 7.03 2.45 7.85
9/13/2021 5:15:00 AM 15.93 60.674 0.197 7.08 2.13 8.01
9/13/2021 5:30:00 AM 15.92 60.656 0.197 7.09 2.4 8.04
9/13/2021 5:45:00 AM 15.91 60.638 0.197 7.11 2.3 8.08
9/13/2021 6:00:00 AM 15.89 60.602 0.197 7.13 2.32 8.16
9/13/2021 6:15:00 AM 15.86 60.548 0.197 7.17 2.06 8.25
9/13/2021 6:30:00 AM 15.85 60.53 0.198 7.22 1.71 8.39
9/13/2021 6:45:00 AM 15.83 60.494 0.198 7.24 1.7 8.49
9/13/2021 7:00:00 AM 15.8 60.44 0.198 7.28 2.08 8.56
9/13/2021 7:15:00 AM 15.79 60.422 0.199 7.31 1.86 8.63
9/13/2021 7:30:00 AM 15.77 60.386 0.199 7.33 2.43 8.67
9/13/2021 7:45:00 AM 15.76 60.368 0.199 7.34 1.66 8.72
9/13/2021 8:00:00 AM 15.76 60.368 0.198 7.36 1.62 8.79
9/13/2021 8:15:00 AM 15.76 60.368 0.198 7.37 1.75 8.85
9/13/2021 8:30:00 AM 15.77 60.386 0.197 7.38 1.26 8.92
9/13/2021 8:45:00 AM 15.78 60.404 0.197 7.38 1.3 8.97
9/13/2021 9:00:00 AM 15.79 60.422 0.196 7.39 1.12 9.04
9/13/2021 9:15:00 AM 15.81 60.458 0.196 7.4 1.2 9.11
9/13/2021 9:30:00 AM 15.83 60.494 0.196 7.41 0.93 9.18
9/13/2021 9:45:00 AM 15.86 60.548 0.196 7.42 0.95 9.25
9/13/2021 10:00:00 AM 15.89 60.602 0.196 7.44 1.01 9.35
9/13/2021 10:15:00 AM 15.89 60.602 0.196 7.45 0.89 9.38
9/13/2021 10:30:00 AM 15.9 60.62 0.197 7.48 1.14 9.46
9/13/2021 10:45:00 AM 15.94 60.692 0.197 7.48 0.96 9.49
9/13/2021 11:00:00 AM 15.99 60.782 0.197 7.5 0.76 9.53
9/13/2021 11:15:00 AM 16.06 60.908 0.198 7.52 0.82 9.56
9/13/2021 11:30:00 AM 16.15 61.07 0.198 7.53 0.82 9.61
9/13/2021 11:45:00 AM 16.27 61.286 0.199 7.57 0.79 9.66
9/13/2021 12:00:00 PM 16.39 61.502 0.199 7.58 0.77 9.71
9/13/2021 12:15:00 PM 16.53 61.754 0.2 7.6 0.62 9.72
9/13/2021 12:30:00 PM 16.69 62.042 0.2 7.62 0.65 9.74
9/13/2021 12:45:00 PM 16.89 62.402 0.201 7.64 0.64 9.78
9/13/2021 1:00:00 PM 17.1 62.78 0.2 7.6 0.43 9.77
9/13/2021 1:15:00 PM 17.23 63.014 0.198 7.45 0.68 9.63
9/13/2021 1:30:00 PM 17.32 63.176 0.198 7.41 0.63 9.61
9/13/2021 1:45:00 PM 17.5 63.5 0.198 7.42 0.57 9.62
9/13/2021 2:00:00 PM 17.74 63.932 0.198 7.41 0.61 9.64
9/13/2021 2:15:00 PM 17.94 64.292 0.198 7.41 0.56 9.61
9/13/2021 2:30:00 PM 18.09 64.562 0.198 7.4 0.57 9.58
9/13/2021 2:45:00 PM 18.22 64.796 0.198 7.42 0.36 9.62
9/13/2021 3:00:00 PM 18.35 65.03 0.198 7.41 0.46 9.6
9/13/2021 3:15:00 PM 18.44 65.192 0.198 7.43 0.52 9.58
9/13/2021 3:30:00 PM 18.53 65.354 0.198 7.41 0.43 9.52
9/13/2021 3:45:00 PM 18.59 65.462 0.199 7.43 0.52 9.52
9/13/2021 4:00:00 PM 18.61 65.498 0.198 7.41 0.5 9.44
9/13/2021 4:15:00 PM 18.56 65.408 0.198 7.42 0.82 9.38
9/13/2021 4:30:00 PM 18.48 65.264 0.199 7.4 0.64 9.3
9/13/2021 4:45:00 PM 18.34 65.012 0.198 7.38 0.46 9.21
9/13/2021 5:00:00 PM 18.21 64.778 0.198 7.37 0.5 9.11
9/13/2021 5:15:00 PM 18.12 64.616 0.198 7.36 0.47 9.05
9/13/2021 5:30:00 PM 18.04 64.472 0.198 7.34 0.59 8.98
9/13/2021 5:45:00 PM 17.97 64.346 0.199 7.33 0.64 8.93
9/13/2021 6:00:00 PM 17.89 64.202 0.199 7.33 0.65 8.88
9/13/2021 6:15:00 PM 17.81 64.058 0.199 7.33 0.57 8.86
9/13/2021 6:30:00 PM 17.73 63.914 0.2 7.35 0.51 8.85
9/13/2021 6:45:00 PM 17.62 63.716 0.199 7.31 0.45 8.73
9/13/2021 7:00:00 PM 17.54 63.572 0.199 7.31 0.35 8.69
9/13/2021 7:15:00 PM 17.43 63.374 0.198 7.27 0.37 8.55
9/13/2021 7:30:00 PM 17.35 63.23 0.199 7.29 0.42 8.56
9/13/2021 7:45:00 PM 17.27 63.086 0.199 7.28 0.49 8.52
9/13/2021 8:00:00 PM 17.22 62.996 0.201 7.3 0.45 8.56
9/13/2021 8:15:00 PM 17.17 62.906 0.203 7.42 0.56 8.66
9/13/2021 8:30:00 PM 17.12 62.816 0.203 7.45 0.52 8.66
9/13/2021 8:45:00 PM 17.06 62.708 0.203 7.46 0.66 8.64
9/13/2021 9:00:00 PM 17 62.6 0.203 7.46 0.59 8.62
9/13/2021 9:15:00 PM 16.94 62.492 0.203 7.45 0.64 8.6
9/13/2021 9:30:00 PM 16.89 62.402 0.204 7.45 0.52 8.59
9/13/2021 9:45:00 PM 16.83 62.294 0.204 7.44 0.67 8.59
9/13/2021 10:00:00 PM 16.77 62.186 0.204 7.44 0.85 8.58
9/13/2021 10:15:00 PM 16.72 62.096 0.204 7.43 0.75 8.57
9/13/2021 10:30:00 PM 16.66 61.988 0.204 7.43 0.66 8.56
9/13/2021 10:45:00 PM 16.61 61.898 0.204 7.42 0.71 8.57
9/13/2021 11:00:00 PM 16.56 61.808 0.204 7.41 0.72 8.56
9/13/2021 11:15:00 PM 16.5 61.7 0.204 7.41 0.65 8.56
9/13/2021 11:30:00 PM 16.46 61.628 0.204 7.41 0.96 8.56
9/13/2021 11:45:00 PM 16.42 61.556 0.204 7.4 0.6 8.56
9/14/2021 12:00:00 AM 16.37 61.466 0.204 7.4 0.91 8.56
9/14/2021 12:15:00 AM 16.33 61.394 0.204 7.4 0.62 8.57
9/14/2021 12:30:00 AM 16.29 61.322 0.204 7.4 0.55 8.59
9/14/2021 12:45:00 AM 16.25 61.25 0.204 7.38 0.64 8.58
9/14/2021 1:00:00 AM 16.21 61.178 0.204 7.38 0.95 8.57
9/14/2021 1:15:00 AM 16.18 61.124 0.204 7.38 2 8.57
9/14/2021 1:30:00 AM 16.15 61.07 0.204 7.38 1.22 8.56
9/14/2021 1:45:00 AM 16.12 61.016 0.204 7.36 1.16 8.55
9/14/2021 2:00:00 AM 16.1 60.98 0.204 7.36 1.01 8.56
9/14/2021 2:15:00 AM 16.06 60.908 0.203 7.36 1.12 8.6
9/14/2021 2:30:00 AM 16.03 60.854 0.203 7.37 0.89 8.6
9/14/2021 2:45:00 AM 16.01 60.818 0.203 7.37 1.03 8.61
9/14/2021 3:00:00 AM 15.98 60.764 0.203 7.36 1.14 8.62
9/14/2021 3:15:00 AM 15.96 60.728 0.203 7.37 1.24 8.64
9/14/2021 3:30:00 AM 15.92 60.656 0.201 7.38 1.17 8.71
9/14/2021 3:45:00 AM 15.88 60.584 0.198 7.38 2.52 8.75
9/14/2021 4:00:00 AM 15.86 60.548 0.195 7.28 4.28 8.63
9/14/2021 4:15:00 AM 15.82 60.476 0.194 7.26 5.31 8.63
9/14/2021 4:30:00 AM 15.78 60.404 0.194 7.3 8.71 8.77
9/14/2021 4:45:00 AM 15.73 60.314 0.195 7.41 10.37 8.93
9/14/2021 5:00:00 AM 15.71 60.278 0.192 7.35 17.33 8.85
9/14/2021 5:15:00 AM 15.7 60.26 0.192 7.34 22.22 8.82
9/14/2021 5:30:00 AM 15.68 60.224 0.192 7.35 21.66 8.83
9/14/2021 5:45:00 AM 15.68 60.224 0.19 7.29 17.89 8.74
9/14/2021 6:00:00 AM 15.66 60.188 0.19 7.27 13.94 8.72
9/14/2021 6:15:00 AM 15.65 60.17 0.19 7.27 10.42 8.74
9/14/2021 6:30:00 AM 15.62 60.116 0.191 7.35 10.53 8.88
9/14/2021 6:45:00 AM 15.61 60.098 0.192 7.39 10.69 8.92
9/14/2021 7:00:00 AM 15.61 60.098 0.191 7.37 9.24 8.89
9/14/2021 7:15:00 AM 15.6 60.08 0.192 7.38 8.99 8.94
9/14/2021 7:30:00 AM 15.6 60.08 0.192 7.41 7.75 8.97
9/14/2021 7:45:00 AM 15.61 60.098 0.193 7.41 7.46 8.99
9/14/2021 8:00:00 AM 15.62 60.116 0.193 7.43 6.62 9.05
9/14/2021 8:15:00 AM 15.64 60.152 0.193 7.44 5.57 9.09
9/14/2021 8:30:00 AM 15.66 60.188 0.193 7.44 4.52 9.13
9/14/2021 8:45:00 AM 15.69 60.242 0.192 7.44 4.02 9.19
9/14/2021 9:00:00 AM 15.73 60.314 0.192 7.47 3.96 9.25
9/14/2021 9:15:00 AM 15.77 60.386 0.192 7.48 4.01 9.33
9/14/2021 9:30:00 AM 15.82 60.476 0.193 7.51 4.12 9.39
9/14/2021 9:45:00 AM 15.88 60.584 0.194 7.52 4.42 9.46
9/14/2021 10:00:00 AM 15.94 60.692 0.195 7.55 4.56 9.51
9/14/2021 10:15:00 AM 16.01 60.818 0.197 7.57 4.42 9.55
9/14/2021 10:30:00 AM 16.09 60.962 0.198 7.58 3.72 9.58
9/14/2021 10:45:00 AM 16.17 61.106 0.199 7.6 2.72 9.62
9/14/2021 11:00:00 AM 16.24 61.232 0.2 7.61 2.44 9.66
9/14/2021 11:15:00 AM 16.31 61.358 0.201 7.63 2.16 9.67
9/14/2021 11:30:00 AM 16.38 61.484 0.202 7.64 2.1 9.69
9/14/2021 11:45:00 AM 16.47 61.646 0.202 7.65 1.83 9.72
9/14/2021 12:00:00 PM 16.54 61.772 0.203 7.66 1.83 9.73
9/14/2021 12:15:00 PM 16.6 61.88 0.203 7.68 1.43 9.74
9/14/2021 12:30:00 PM 16.71 62.078 0.203 7.69 1.6 9.75
9/14/2021 12:45:00 PM 16.8 62.24 0.203 7.7 1.46 9.77
9/14/2021 1:00:00 PM 16.94 62.492 0.203 7.71 1.54 9.78
9/14/2021 1:15:00 PM 17.12 62.816 0.203 7.73 1.7 9.82
9/14/2021 1:30:00 PM 17.25 63.05 0.203 7.74 1.51 9.82
9/14/2021 1:45:00 PM 17.37 63.266 0.203 7.75 1.4 9.84
9/14/2021 2:00:00 PM 17.5 63.5 0.203 7.76 1.42 9.84
9/14/2021 2:15:00 PM 17.59 63.662 0.203 7.78 1.54 9.82
9/14/2021 2:30:00 PM 17.71 63.878 0.203 7.78 1.32 9.79
9/14/2021 2:45:00 PM 17.72 63.896 0.202 7.78 1.5 9.71
9/14/2021 3:00:00 PM 17.88 64.184 0.202 7.78 1.23 9.69
9/14/2021 3:15:00 PM 17.96 64.328 0.202 7.79 1.31 9.69
9/14/2021 3:30:00 PM 17.97 64.346 0.202 7.79 1.17 9.65
9/14/2021 3:45:00 PM 18.01 64.418 0.202 7.79 1.18 9.6
9/14/2021 4:00:00 PM 18.05 64.49 0.202 7.78 1.1 9.57
9/14/2021 4:15:00 PM 18.05 64.49 0.202 7.78 1.03 9.52
9/14/2021 4:30:00 PM 18.04 64.472 0.202 7.77 1.09 9.47
9/14/2021 4:45:00 PM 18.02 64.436 0.203 7.76 1.09 9.43
9/14/2021 5:00:00 PM 18.02 64.436 0.203 7.75 1.07 9.39
9/14/2021 5:15:00 PM 17.99 64.382 0.203 7.74 1.21 9.34
9/14/2021 5:30:00 PM 17.97 64.346 0.204 7.72 1.07 9.29
9/14/2021 5:45:00 PM 17.93 64.274 0.204 7.7 1.06 9.25
9/14/2021 6:00:00 PM 17.89 64.202 0.205 7.69 1.14 9.2
9/14/2021 6:15:00 PM 17.84 64.112 0.205 7.67 1.06 9.14
9/14/2021 6:30:00 PM 17.79 64.022 0.205 7.66 1.12 9.1
9/14/2021 6:45:00 PM 17.73 63.914 0.205 7.63 1.15 9.03
9/14/2021 7:00:00 PM 17.67 63.806 0.205 7.62 1.08 8.99
9/14/2021 7:15:00 PM 17.62 63.716 0.206 7.61 1.1 8.94
9/14/2021 7:30:00 PM 17.57 63.626 0.205 7.59 1.02 8.89
9/14/2021 7:45:00 PM 17.52 63.536 0.205 7.57 1.27 8.84
9/14/2021 8:00:00 PM 17.49 63.482 0.205 7.56 1.37 8.8
9/14/2021 8:15:00 PM 17.45 63.41 0.204 7.54 2.26 8.76
9/14/2021 8:30:00 PM 17.42 63.356 0.204 7.53 2.5 8.72
9/14/2021 8:45:00 PM 17.38 63.284 0.203 7.51 3.19 8.69
9/14/2021 9:00:00 PM 17.34 63.212 0.202 7.51 3.4 8.67
9/14/2021 9:15:00 PM 17.3 63.14 0.201 7.49 4.35 8.66
9/14/2021 9:30:00 PM 17.27 63.086 0.201 7.49 5.16 8.65
9/14/2021 9:45:00 PM 17.23 63.014 0.2 7.48 6.56 8.64
9/14/2021 10:00:00 PM 17.2 62.96 0.199 7.47 7.75 8.64
9/14/2021 10:15:00 PM 17.16 62.888 0.198 7.46 8.3 8.63
9/14/2021 10:30:00 PM 17.13 62.834 0.197 7.46 9.24 8.63
9/14/2021 10:45:00 PM 17.09 62.762 0.196 7.45 10.01 8.63
9/14/2021 11:00:00 PM 17.06 62.708 0.195 7.45 11.55 8.63
9/14/2021 11:15:00 PM 17.03 62.654 0.194 7.44 11.85 8.62
9/14/2021 11:30:00 PM 17 62.6 0.193 7.42 19.66 8.61
9/14/2021 11:45:00 PM 16.97 62.546 0.193 7.43 11.77 8.61
9/15/2021 12:00:00 AM 16.94 62.492 0.193 7.42 11.74 8.62
9/15/2021 12:15:00 AM 16.92 62.456 0.192 7.41 11.29 8.61
9/15/2021 12:30:00 AM 16.89 62.402 0.192 7.4 11.16 8.59
9/15/2021 12:45:00 AM 16.86 62.348 0.192 7.39 11.04 8.59
9/15/2021 1:00:00 AM 16.83 62.294 0.191 7.36 10.12 8.54
9/15/2021 1:15:00 AM 16.81 62.258 0.191 7.38 9.8 8.58
9/15/2021 1:30:00 AM 16.78 62.204 0.191 7.37 9.38 8.57
9/15/2021 1:45:00 AM 16.73 62.114 0.189 7.27 8.45 8.44
9/15/2021 2:00:00 AM 16.72 62.096 0.191 7.35 8.83 8.58
9/15/2021 2:15:00 AM 16.68 62.024 0.19 7.32 7.67 8.51
9/15/2021 2:30:00 AM 16.65 61.97 0.188 7.23 6.8 8.4
9/15/2021 2:45:00 AM 16.61 61.898 0.187 7.21 6.28 8.38
9/15/2021 3:00:00 AM 16.58 61.844 0.187 7.21 6.19 8.4
9/15/2021 3:15:00 AM 16.55 61.79 0.188 7.2 5.57 8.41
9/15/2021 3:30:00 AM 16.52 61.736 0.188 7.2 4.8 8.4
9/15/2021 3:45:00 AM 16.49 61.682 0.188 7.19 4.92 8.4
9/15/2021 4:00:00 AM 16.47 61.646 0.187 7.18 4.41 8.37
9/15/2021 4:15:00 AM 16.44 61.592 0.188 7.18 4.44 8.38
9/15/2021 4:30:00 AM 16.42 61.556 0.187 7.16 3.98 8.35
9/15/2021 4:45:00 AM 16.41 61.538 0.188 7.17 3.34 8.39
9/15/2021 5:00:00 AM 16.39 61.502 0.189 7.17 3.42 8.41
9/15/2021 5:15:00 AM 16.38 61.484 0.189 7.16 3.22 8.37
9/15/2021 5:30:00 AM 16.36 61.448 0.189 7.16 3.29 8.36
9/15/2021 5:45:00 AM 16.35 61.43 0.189 7.15 3.15 8.35
9/15/2021 6:00:00 AM 16.34 61.412 0.189 7.15 2.96 8.37
9/15/2021 6:15:00 AM 16.32 61.376 0.188 7.14 2.94 8.31
9/15/2021 6:30:00 AM 16.31 61.358 0.189 7.13 2.95 8.32
9/15/2021 6:45:00 AM 16.3 61.34 0.189 7.13 3.34 8.3
9/15/2021 7:00:00 AM 16.29 61.322 0.189 7.12 2.98 8.29
9/15/2021 7:15:00 AM 16.28 61.304 0.19 7.15 2.57 8.34
9/15/2021 7:30:00 AM 16.29 61.322 0.193 7.24 2.63 8.54
9/15/2021 7:45:00 AM 16.29 61.322 0.194 7.29 2.55 8.59
9/15/2021 8:00:00 AM 16.3 61.34 0.194 7.3 2.4 8.63
9/15/2021 8:15:00 AM 16.32 61.376 0.195 7.31 2.26 8.69
9/15/2021 8:30:00 AM 16.34 61.412 0.195 7.32 2.11 8.76
9/15/2021 8:45:00 AM 16.37 61.466 0.195 7.33 1.98 8.82
9/15/2021 9:00:00 AM 16.4 61.52 0.195 7.34 2.08 8.87
9/15/2021 9:15:00 AM 16.43 61.574 0.195 7.35 1.81 8.92
9/15/2021 9:30:00 AM 16.48 61.664 0.196 7.36 1.62 8.98
9/15/2021 9:45:00 AM 16.54 61.772 0.193 7.22 1.56 8.83
9/15/2021 10:00:00 AM 16.62 61.916 0.194 7.24 1.53 9.01
9/15/2021 10:15:00 AM 16.69 62.042 0.196 7.34 1.64 9.2
9/15/2021 10:30:00 AM 16.76 62.168 0.193 7.22 1.26 9.02
9/15/2021 10:45:00 AM 16.84 62.312 0.195 7.32 1.5 9.26
9/15/2021 11:00:00 AM 16.94 62.492 0.196 7.4 1.49 9.4
9/15/2021 11:15:00 AM 17.06 62.708 0.197 7.44 1.43 9.5
9/15/2021 11:30:00 AM 17.18 62.924 0.197 7.48 1.45 9.56
9/15/2021 11:45:00 AM 17.26 63.068 0.196 7.44 1.27 9.53
9/15/2021 12:00:00 PM 17.37 63.266 0.197 7.48 1.29 9.58
9/15/2021 12:15:00 PM 17.46 63.428 0.197 7.51 1.12 9.61
9/15/2021 12:30:00 PM 17.51 63.518 0.194 7.33 0.97 9.33
9/15/2021 12:45:00 PM 17.54 63.572 0.194 7.33 0.98 9.36
9/15/2021 1:00:00 PM 17.58 63.644 0.197 7.46 0.91 9.43
9/15/2021 1:15:00 PM 17.6 63.68 0.196 7.49 0.94 9.33
9/15/2021 1:30:00 PM 17.68 63.824 0.196 7.48 0.88 9.28
9/15/2021 1:45:00 PM 17.78 64.004 0.197 7.53 0.79 9.39
9/15/2021 2:00:00 PM 17.84 64.112 0.197 7.55 1.07 9.42
9/15/2021 2:15:00 PM 17.85 64.13 0.197 7.56 1 9.36
9/15/2021 2:30:00 PM 17.84 64.112 0.198 7.55 1.08 9.26
9/15/2021 2:45:00 PM 17.82 64.076 0.198 7.54 0.84 9.18
9/15/2021 3:00:00 PM 17.82 64.076 0.198 7.54 0.89 9.15
9/15/2021 3:15:00 PM 17.79 64.022 0.195 7.47 0.88 8.96
9/15/2021 3:30:00 PM 17.75 63.95 0.195 7.38 0.95 8.9
9/15/2021 3:45:00 PM 17.7 63.86 0.192 7.37 1.89 8.83
9/15/2021 4:00:00 PM 17.68 63.824 0.192 7.37 2.6 8.82
9/15/2021 4:15:00 PM 17.67 63.806 0.192 7.38 2.59 8.84
9/15/2021 4:30:00 PM 17.63 63.734 0.191 7.39 3.66 8.81
9/15/2021 4:45:00 PM 17.59 63.662 0.191 7.38 4.91 8.81
9/15/2021 5:00:00 PM 17.58 63.644 0.193 7.51 5.77 8.93
9/15/2021 5:15:00 PM 17.56 63.608 0.192 7.54 6.54 8.92
9/15/2021 5:30:00 PM 17.52 63.536 0.191 7.54 9.4 8.91
9/15/2021 5:45:00 PM 17.48 63.464 0.19 7.54 9.78 8.89
9/15/2021 6:00:00 PM 17.43 63.374 0.189 7.52 8.68 8.87
9/15/2021 6:15:00 PM 17.38 63.284 0.188 7.53 9.72 8.88
9/15/2021 6:30:00 PM 17.32 63.176 0.187 7.54 12.36 8.88
9/15/2021 6:45:00 PM 17.26 63.068 0.186 7.54 14.1 8.86
9/15/2021 7:00:00 PM 17.21 62.978 0.186 7.51 10.98 8.85
9/15/2021 7:15:00 PM 17.17 62.906 0.184 7.5 9.13 8.84
9/15/2021 7:30:00 PM 17.12 62.816 0.181 7.5 8.02 8.85
9/15/2021 7:45:00 PM 17.08 62.744 0.178 7.49 8.1 8.85
9/15/2021 8:00:00 PM 17.04 62.672 0.178 7.49 8.01 8.86
9/15/2021 8:15:00 PM 17 62.6 0.179 7.49 7.92 8.86
9/15/2021 8:30:00 PM 16.96 62.528 0.18 7.49 8.81 8.87
9/15/2021 8:45:00 PM 16.93 62.474 0.179 7.48 10.09 8.87
9/15/2021 9:00:00 PM 16.9 62.42 0.178 7.48 12.24 8.89
9/15/2021 9:15:00 PM 16.87 62.366 0.179 7.49 12.89 8.92
9/15/2021 9:30:00 PM 16.84 62.312 0.181 7.48 12.37 8.92
9/15/2021 9:45:00 PM 16.81 62.258 0.183 7.49 12.17 8.93
9/15/2021 10:00:00 PM 16.77 62.186 0.186 7.5 10.68 8.93
9/15/2021 10:15:00 PM 16.74 62.132 0.187 7.5 10.13 8.95
9/15/2021 10:30:00 PM 16.71 62.078 0.188 7.51 9.26 8.95
9/15/2021 10:45:00 PM 16.68 62.024 0.188 7.5 9.18 8.97
9/15/2021 11:00:00 PM 16.65 61.97 0.188 7.5 8.71 8.97
9/15/2021 11:15:00 PM 16.62 61.916 0.187 7.5 8.35 8.99
9/15/2021 11:30:00 PM 16.6 61.88 0.186 7.5 7.53 8.99
9/15/2021 11:45:00 PM 16.57 61.826 0.186 7.5 7.2 9.01
9/16/2021 12:00:00 AM 16.55 61.79 0.185 7.5 7.36 9.01
9/16/2021 12:15:00 AM 16.53 61.754 0.185 7.5 7.17 9.02
9/16/2021 12:30:00 AM 16.5 61.7 0.184 7.51 6.7 9.03
9/16/2021 12:45:00 AM 16.47 61.646 0.184 7.5 6.6 9.04
9/16/2021 1:00:00 AM 16.44 61.592 0.184 7.5 6.66 9.04
9/16/2021 1:15:00 AM 16.41 61.538 0.184 7.5 6.89 9.05
9/16/2021 1:30:00 AM 16.38 61.484 0.183 7.5 6.94 9.05
9/16/2021 1:45:00 AM 16.34 61.412 0.183 7.5 7.16 9.06
9/16/2021 2:00:00 AM 16.31 61.358 0.182 7.5 7.91 9.07
9/16/2021 2:15:00 AM 16.27 61.286 0.181 7.49 8.55 9.07
9/16/2021 2:30:00 AM 16.24 61.232 0.179 7.48 12.08 9.07
9/16/2021 2:45:00 AM 16.21 61.178 0.177 7.48 15.18 9.08
9/16/2021 3:00:00 AM 16.18 61.124 0.175 7.48 22.74 9.08
9/16/2021 3:15:00 AM 16.14 61.052 0.172 7.47 22.02 9.09
9/16/2021 3:30:00 AM 16.11 60.998 0.17 7.46 31.97 9.09
9/16/2021 3:45:00 AM 16.08 60.944 0.168 7.47 37.35 9.1
9/16/2021 4:00:00 AM 16.05 60.89 0.166 7.46 38.28 9.1
9/16/2021 4:15:00 AM 16.02 60.836 0.165 7.46 37.52 9.1
9/16/2021 4:30:00 AM 15.99 60.782 0.163 7.44 39.04 9.09
9/16/2021 4:45:00 AM 15.97 60.746 0.163 7.45 37.86 9.11
9/16/2021 5:00:00 AM 15.94 60.692 0.162 7.44 43.21 9.12
9/16/2021 5:15:00 AM 15.91 60.638 0.162 7.45 39.85 9.12
9/16/2021 5:30:00 AM 15.89 60.602 0.162 7.44 27.39 9.13
9/16/2021 5:45:00 AM 15.86 60.548 0.162 7.44 27.21 9.13
9/16/2021 6:00:00 AM 15.83 60.494 0.162 7.43 28.91 9.14
9/16/2021 6:15:00 AM 15.81 60.458 0.163 7.44 21.66 9.14
9/16/2021 6:30:00 AM 15.79 60.422 0.164 7.44 21.11 9.15
9/16/2021 6:45:00 AM 15.76 60.368 0.165 7.44 18.8 9.16
9/16/2021 7:00:00 AM 15.74 60.332 0.165 7.44 14.13 9.16
9/16/2021 7:15:00 AM 15.73 60.314 0.167 7.44 21.68 9.18
9/16/2021 7:30:00 AM 15.71 60.278 0.168 7.44 13.37 9.18
9/16/2021 7:45:00 AM 15.7 60.26 0.169 7.45 12.03 9.19
9/16/2021 8:00:00 AM 15.7 60.26 0.17 7.45 11.3 9.21
9/16/2021 8:15:00 AM 15.7 60.26 0.171 7.46 9.67 9.23
9/16/2021 8:30:00 AM 15.7 60.26 0.172 7.47 8.84 9.26
9/16/2021 8:45:00 AM 15.71 60.278 0.172 7.47 7.85 9.29
9/16/2021 9:00:00 AM 15.72 60.296 0.173 7.48 7.37 9.31
9/16/2021 9:15:00 AM 15.73 60.314 0.174 7.49 7.2 9.36
9/16/2021 9:30:00 AM 15.75 60.35 0.174 7.49 6.15 9.4
9/16/2021 9:45:00 AM 15.77 60.386 0.175 7.51 5.85 9.45
9/16/2021 10:00:00 AM 15.8 60.44 0.175 7.51 5.59 9.49
9/16/2021 10:15:00 AM 15.84 60.512 0.175 7.53 5.1 9.52
9/16/2021 10:30:00 AM 15.93 60.674 0.175 7.54 4.8 9.61
9/16/2021 10:45:00 AM 16 60.8 0.175 7.55 4.71 9.67
9/16/2021 11:00:00 AM 16.09 60.962 0.175 7.57 4.22 9.73
9/16/2021 11:15:00 AM 16.11 60.998 0.175 7.59 3.95 9.74
9/16/2021 11:30:00 AM 16.15 61.07 0.175 7.59 3.97 9.73
9/16/2021 11:45:00 AM 16.18 61.124 0.175 7.6 3.88 9.74
9/16/2021 12:00:00 PM 16.23 61.214 0.175 7.6 3.69 9.75
9/16/2021 12:15:00 PM 16.32 61.376 0.174 7.61 3.7 9.75
9/16/2021 12:30:00 PM 16.51 61.718 0.174 7.61 3.25 9.77
9/16/2021 12:45:00 PM 16.69 62.042 0.174 7.62 3.47 9.77
9/16/2021 1:00:00 PM 16.93 62.474 0.174 7.64 4.37 9.8
9/16/2021 1:15:00 PM 17.07 62.726 0.173 7.66 3.58 9.8
9/16/2021 1:30:00 PM 17.19 62.942 0.173 7.67 3.57 9.76
9/16/2021 1:45:00 PM 17.33 63.194 0.172 7.67 3.18 9.74
9/16/2021 2:00:00 PM 17.6 63.68 0.172 7.67 3.13 9.77
9/16/2021 2:15:00 PM 17.78 64.004 0.172 7.69 3.31 9.76
9/16/2021 2:30:00 PM 17.77 63.986 0.172 7.7 3.03 9.72
9/16/2021 2:45:00 PM 17.85 64.13 0.171 7.7 2.92 9.67
9/16/2021 3:00:00 PM 17.93 64.274 0.171 7.7 3 9.66
9/16/2021 3:15:00 PM 17.92 64.256 0.171 7.7 2.79 9.6
9/16/2021 3:30:00 PM 17.92 64.256 0.171 7.69 2.81 9.57
9/16/2021 3:45:00 PM 17.91 64.238 0.171 7.69 2.69 9.53
9/16/2021 4:00:00 PM 17.9 64.22 0.171 7.68 2.48 9.49
9/16/2021 4:15:00 PM 17.87 64.166 0.171 7.67 2.4 9.45
9/16/2021 4:30:00 PM 17.81 64.058 0.17 7.67 2.55 9.41
9/16/2021 4:45:00 PM 17.78 64.004 0.17 7.65 2.61 9.41
9/16/2021 5:00:00 PM 17.73 63.914 0.17 7.64 2.55 9.39
9/16/2021 5:15:00 PM 17.69 63.842 0.17 7.64 2.5 9.39
9/16/2021 5:30:00 PM 17.64 63.752 0.17 7.62 2.64 9.37
9/16/2021 5:45:00 PM 17.57 63.626 0.17 7.62 2.42 9.34
9/16/2021 6:00:00 PM 17.51 63.518 0.17 7.61 2.43 9.3
9/16/2021 6:15:00 PM 17.44 63.392 0.17 7.59 2.25 9.25
9/16/2021 6:30:00 PM 17.38 63.284 0.169 7.59 2.47 9.2
9/16/2021 6:45:00 PM 17.34 63.212 0.169 7.57 2.33 9.16
9/16/2021 7:00:00 PM 17.3 63.14 0.169 7.56 2.47 9.11
9/16/2021 7:15:00 PM 17.26 63.068 0.169 7.54 2.66 9.06
9/16/2021 7:30:00 PM 17.23 63.014 0.169 7.52 2.59 9.02
9/16/2021 7:45:00 PM 17.19 62.942 0.17 7.5 2.41 8.99
9/16/2021 8:00:00 PM 17.16 62.888 0.17 7.49 2.89 8.97
9/16/2021 8:15:00 PM 17.12 62.816 0.17 7.49 2.54 8.95
9/16/2021 8:30:00 PM 17.08 62.744 0.17 7.48 2.66 8.93
9/16/2021 8:45:00 PM 17.04 62.672 0.17 7.47 2.6 8.92
9/16/2021 9:00:00 PM 17 62.6 0.17 7.46 2.39 8.91
9/16/2021 9:15:00 PM 16.97 62.546 0.17 7.46 3.07 8.91
9/16/2021 9:30:00 PM 16.93 62.474 0.17 7.44 2.57 8.91
9/16/2021 9:45:00 PM 16.9 62.42 0.171 7.44 2.68 8.9
9/16/2021 10:00:00 PM 16.87 62.366 0.171 7.44 2.83 8.9
9/16/2021 10:15:00 PM 16.85 62.33 0.172 7.44 2.86 8.91
9/16/2021 10:30:00 PM 16.83 62.294 0.172 7.44 2.78 8.91
9/16/2021 10:45:00 PM 16.81 62.258 0.173 7.44 2.66 8.91
9/16/2021 11:00:00 PM 16.78 62.204 0.173 7.44 2.51 8.91
9/16/2021 11:15:00 PM 16.76 62.168 0.173 7.44 2.44 8.91
9/16/2021 11:30:00 PM 16.72 62.096 0.173 7.44 2.39 8.91
9/16/2021 11:45:00 PM 16.69 62.042 0.173 7.43 2.43 8.91
9/17/2021 12:00:00 AM 16.65 61.97 0.173 7.43 2.46 8.91
9/17/2021 12:15:00 AM 16.6 61.88 0.173 7.44 2.4 8.92
9/17/2021 12:30:00 AM 16.56 61.808 0.173 7.43 2.42 8.92
9/17/2021 12:45:00 AM 16.51 61.718 0.173 7.43 2.31 8.93
9/17/2021 1:00:00 AM 16.46 61.628 0.173 7.43 2.17 8.94
9/17/2021 1:15:00 AM 16.42 61.556 0.173 7.43 2.17 8.95
9/17/2021 1:30:00 AM 16.37 61.466 0.173 7.43 2.24 8.95
9/17/2021 1:45:00 AM 16.32 61.376 0.173 7.43 2.16 8.97
9/17/2021 2:00:00 AM 16.27 61.286 0.173 7.43 2.06 8.97
9/17/2021 2:15:00 AM 16.23 61.214 0.173 7.43 2.1 8.98
9/17/2021 2:30:00 AM 16.2 61.16 0.174 7.42 1.97 8.98
9/17/2021 2:45:00 AM 16.17 61.106 0.173 7.42 2 8.97
9/17/2021 3:00:00 AM 16.14 61.052 0.173 7.41 2.07 8.96
9/17/2021 3:15:00 AM 16.12 61.016 0.174 7.41 1.83 8.99
9/17/2021 3:30:00 AM 16.1 60.98 0.174 7.41 1.89 9
9/17/2021 3:45:00 AM 16.09 60.962 0.174 7.4 1.96 8.98
9/17/2021 4:00:00 AM 16.08 60.944 0.174 7.38 2.33 8.95
9/17/2021 4:15:00 AM 16.07 60.926 0.174 7.37 1.8 8.94
9/17/2021 4:30:00 AM 16.07 60.926 0.174 7.36 1.89 8.95
9/17/2021 4:45:00 AM 16.06 60.908 0.174 7.37 1.78 8.97
9/17/2021 5:00:00 AM 16.06 60.908 0.174 7.37 1.92 8.96
9/17/2021 5:15:00 AM 16.06 60.908 0.174 7.36 4.32 8.96
9/17/2021 5:30:00 AM 16.06 60.908 0.174 7.32 2.35 8.9
9/17/2021 5:45:00 AM 16.07 60.926 0.174 7.31 1.9 8.9
9/17/2021 6:00:00 AM 16.07 60.926 0.174 7.3 2.04 8.91
9/17/2021 6:15:00 AM 16.07 60.926 0.174 7.3 1.99 8.89
9/17/2021 6:30:00 AM 16.08 60.944 0.174 7.29 1.65 8.89
9/17/2021 6:45:00 AM 16.09 60.962 0.175 7.3 1.71 8.9
9/17/2021 7:00:00 AM 16.09 60.962 0.175 7.28 1.67 8.9
9/17/2021 7:15:00 AM 16.1 60.98 0.175 7.29 1.6 8.89
9/17/2021 7:30:00 AM 16.11 60.998 0.175 7.28 1.81 8.91
9/17/2021 7:45:00 AM 16.12 61.016 0.175 7.29 1.92 8.91
9/17/2021 8:00:00 AM 16.13 61.034 0.175 7.29 2.26 8.92
9/17/2021 8:15:00 AM 16.14 61.052 0.176 7.28 2.01 8.93
9/17/2021 8:30:00 AM 16.15 61.07 0.176 7.29 2.06 8.95
9/17/2021 8:45:00 AM 16.17 61.106 0.176 7.29 1.67 8.99
9/17/2021 9:00:00 AM 16.2 61.16 0.176 7.29 1.65 9.03
9/17/2021 9:15:00 AM 16.22 61.196 0.176 7.29 1.46 9.08
9/17/2021 9:30:00 AM 16.24 61.232 0.176 7.3 1.19 9.13
9/17/2021 9:45:00 AM 16.27 61.286 0.176 7.3 1.25 9.18
9/17/2021 10:00:00 AM 16.3 61.34 0.176 7.32 1.16 9.21
9/17/2021 10:15:00 AM 16.34 61.412 0.176 7.33 1.09 9.27
9/17/2021 10:30:00 AM 16.38 61.484 0.176 7.34 1.02 9.32
9/17/2021 10:45:00 AM 16.44 61.592 0.176 7.35 1.22 9.39
9/17/2021 11:00:00 AM 16.51 61.718 0.177 7.37 1.05 9.47
9/17/2021 11:15:00 AM 16.58 61.844 0.177 7.37 1.79 9.57
9/17/2021 11:30:00 AM 16.66 61.988 0.177 7.46 1.08 9.67
9/17/2021 11:45:00 AM 16.7 62.06 0.177 7.49 1 9.67
9/17/2021 12:00:00 PM 16.76 62.168 0.177 7.44 0.8 9.64
9/17/2021 12:15:00 PM 16.81 62.258 0.177 7.43 0.77 9.62
9/17/2021 12:30:00 PM 16.83 62.294 0.177 7.44 0.73 9.62
9/17/2021 12:45:00 PM 16.9 62.42 0.177 7.44 0.71 9.62
9/17/2021 1:00:00 PM 17 62.6 0.177 7.46 0.64 9.68
9/17/2021 1:15:00 PM 17.07 62.726 0.177 7.48 0.6 9.71
9/17/2021 1:30:00 PM 17.1 62.78 0.177 7.47 0.71 9.7
9/17/2021 1:45:00 PM 17.13 62.834 0.177 7.48 0.81 9.69
9/17/2021 2:00:00 PM 17.16 62.888 0.178 7.5 0.67 9.67
9/17/2021 2:15:00 PM 17.2 62.96 0.178 7.49 0.65 9.66
9/17/2021 2:30:00 PM 17.25 63.05 0.178 7.49 0.68 9.66
9/17/2021 2:45:00 PM 17.3 63.14 0.178 7.5 0.73 9.66
9/17/2021 3:00:00 PM 17.36 63.248 0.178 7.51 0.64 9.66
9/17/2021 3:15:00 PM 17.39 63.302 0.178 7.5 0.67 9.65
9/17/2021 3:30:00 PM 17.41 63.338 0.178 7.52 0.59 9.63
9/17/2021 3:45:00 PM 17.42 63.356 0.178 7.53 0.66 9.61
9/17/2021 4:00:00 PM 17.48 63.464 0.179 7.52 0.69 9.62
9/17/2021 4:15:00 PM 17.49 63.482 0.179 7.52 0.64 9.61
9/17/2021 4:30:00 PM 17.5 63.5 0.179 7.55 0.87 9.6
9/17/2021 4:45:00 PM 17.52 63.536 0.179 7.53 0.77 9.57
9/17/2021 5:00:00 PM 17.51 63.518 0.179 7.54 0.82 9.53
9/17/2021 5:15:00 PM 17.5 63.5 0.18 7.52 0.77 9.47
9/17/2021 5:30:00 PM 17.5 63.5 0.18 7.51 0.9 9.4
9/17/2021 5:45:00 PM 17.48 63.464 0.18 7.49 0.66 9.34
9/17/2021 6:00:00 PM 17.45 63.41 0.18 7.48 0.87 9.24
9/17/2021 6:15:00 PM 17.42 63.356 0.18 7.46 0.64 9.16
9/17/2021 6:30:00 PM 17.39 63.302 0.18 7.45 0.74 9.09
9/17/2021 6:45:00 PM 17.35 63.23 0.181 7.43 0.71 9.01
9/17/2021 7:00:00 PM 17.31 63.158 0.181 7.42 0.73 8.98
9/17/2021 7:15:00 PM 17.26 63.068 0.181 7.4 0.7 8.91
9/17/2021 7:30:00 PM 17.2 62.96 0.181 7.39 0.71 8.84
9/17/2021 7:45:00 PM 17.15 62.87 0.181 7.36 0.7 8.78
9/17/2021 8:00:00 PM 17.1 62.78 0.181 7.36 0.73 8.77
9/17/2021 8:15:00 PM 17.06 62.708 0.182 7.35 0.76 8.75
9/17/2021 8:30:00 PM 17.02 62.636 0.181 7.35 0.78 8.72
9/17/2021 8:45:00 PM 16.98 62.564 0.181 7.32 0.81 8.68
9/17/2021 9:00:00 PM 16.94 62.492 0.181 7.33 0.84 8.66
9/17/2021 9:15:00 PM 16.9 62.42 0.182 7.31 0.82 8.68
9/17/2021 9:30:00 PM 16.86 62.348 0.182 7.31 0.83 8.66
9/17/2021 9:45:00 PM 16.82 62.276 0.182 7.31 0.97 8.67
9/17/2021 10:00:00 PM 16.78 62.204 0.182 7.3 1.06 8.63
9/17/2021 10:15:00 PM 16.74 62.132 0.182 7.29 0.91 8.66
9/17/2021 10:30:00 PM 16.7 62.06 0.182 7.3 0.91 8.66
9/17/2021 10:45:00 PM 16.65 61.97 0.182 7.28 0.86 8.63
9/17/2021 11:00:00 PM 16.61 61.898 0.182 7.28 0.82 8.66
9/17/2021 11:15:00 PM 16.58 61.844 0.183 7.29 0.87 8.68
9/17/2021 11:30:00 PM 16.55 61.79 0.183 7.29 0.85 8.69
9/17/2021 11:45:00 PM 16.51 61.718 0.183 7.28 0.99 8.7
9/18/2021 12:00:00 AM 16.48 61.664 0.183 7.28 0.97 8.69
9/18/2021 12:15:00 AM 16.45 61.61 0.183 7.29 0.9 8.69
9/18/2021 12:30:00 AM 16.42 61.556 0.183 7.28 0.79 8.72
9/18/2021 12:45:00 AM 16.41 61.538 0.183 7.27 0.95 8.69
9/18/2021 1:00:00 AM 16.39 61.502 0.183 7.27 0.9 8.67
9/18/2021 1:15:00 AM 16.38 61.484 0.183 7.27 0.91 8.69
9/18/2021 1:30:00 AM 16.36 61.448 0.183 7.26 0.77 8.66
9/18/2021 1:45:00 AM 16.36 61.448 0.183 7.25 1.07 8.66
9/18/2021 2:00:00 AM 16.35 61.43 0.183 7.25 0.79 8.66
9/18/2021 2:15:00 AM 16.34 61.412 0.183 7.25 0.81 8.64
9/18/2021 2:30:00 AM 16.34 61.412 0.183 7.24 0.7 8.65
9/18/2021 2:45:00 AM 16.34 61.412 0.183 7.25 0.7 8.65
9/18/2021 3:00:00 AM 16.33 61.394 0.183 7.24 0.74 8.66
9/18/2021 3:15:00 AM 16.32 61.376 0.183 7.24 0.7 8.63
9/18/2021 3:30:00 AM 16.32 61.376 0.183 7.23 0.93 8.64
9/18/2021 3:45:00 AM 16.32 61.376 0.183 7.24 0.84 8.64
9/18/2021 4:00:00 AM 16.31 61.358 0.183 7.24 0.98 8.65
9/18/2021 4:15:00 AM 16.3 61.34 0.183 7.24 1.01 8.66
9/18/2021 4:30:00 AM 16.29 61.322 0.184 7.24 1 8.64
9/18/2021 4:45:00 AM 16.28 61.304 0.184 7.24 0.7 8.66
9/18/2021 5:00:00 AM 16.28 61.304 0.183 7.24 0.96 8.65
9/18/2021 5:15:00 AM 16.27 61.286 0.184 7.25 0.92 8.68
9/18/2021 5:30:00 AM 16.27 61.286 0.184 7.23 1.05 8.66
9/18/2021 5:45:00 AM 16.26 61.268 0.184 7.23 1.41 8.65
9/18/2021 6:00:00 AM 16.25 61.25 0.184 7.24 0.82 8.67
9/18/2021 6:15:00 AM 16.24 61.232 0.183 7.23 0.83 8.66
9/18/2021 6:30:00 AM 16.24 61.232 0.184 7.23 1 8.67
9/18/2021 6:45:00 AM 16.24 61.232 0.184 7.23 1.21 8.65
9/18/2021 7:00:00 AM 16.23 61.214 0.184 7.24 0.87 8.7
9/18/2021 7:15:00 AM 16.23 61.214 0.184 7.24 0.98 8.71
9/18/2021 7:30:00 AM 16.24 61.232 0.185 7.24 1.03 8.75
9/18/2021 7:45:00 AM 16.24 61.232 0.184 7.25 0.82 8.75
9/18/2021 8:00:00 AM 16.24 61.232 0.184 7.23 0.88 8.75
9/18/2021 8:15:00 AM 16.26 61.268 0.184 7.24 0.77 8.78
9/18/2021 8:30:00 AM 16.28 61.304 0.184 7.23 0.76 8.84
9/18/2021 8:45:00 AM 16.3 61.34 0.184 7.24 0.61 8.87
9/18/2021 9:00:00 AM 16.33 61.394 0.185 7.24 0.68 8.95
9/18/2021 9:15:00 AM 16.38 61.484 0.185 7.26 0.79 9.04
9/18/2021 9:30:00 AM 16.41 61.538 0.185 7.28 0.77 9.11
9/18/2021 9:45:00 AM 16.44 61.592 0.185 7.29 0.85 9.16
9/18/2021 10:00:00 AM 16.49 61.682 0.185 7.3 0.83 9.24
9/18/2021 10:15:00 AM 16.53 61.754 0.185 7.32 0.7 9.27
9/18/2021 10:30:00 AM 16.6 61.88 0.185 7.33 0.68 9.29
9/18/2021 10:45:00 AM 16.72 62.096 0.185 7.35 0.65 9.39
9/18/2021 11:00:00 AM 16.81 62.258 0.185 7.35 0.62 9.41
9/18/2021 11:15:00 AM 16.91 62.438 0.184 7.36 0.57 9.42
9/18/2021 11:30:00 AM 17.04 62.672 0.185 7.37 0.5 9.52
9/18/2021 11:45:00 AM 17.15 62.87 0.185 7.37 0.75 9.54
9/18/2021 12:00:00 PM 17.22 62.996 0.185 7.4 0.51 9.55
9/18/2021 12:15:00 PM 17.36 63.248 0.184 7.39 0.63 9.56
9/18/2021 12:30:00 PM 17.58 63.644 0.185 7.4 0.58 9.65
9/18/2021 12:45:00 PM 17.65 63.77 0.184 7.41 0.56 9.61
9/18/2021 1:00:00 PM 17.76 63.968 0.184 7.41 0.4 9.63
9/18/2021 1:15:00 PM 17.93 64.274 0.185 7.45 0.48 9.74
9/18/2021 1:30:00 PM 18 64.4 0.185 7.47 0.48 9.73
9/18/2021 1:45:00 PM 18.17 64.706 0.185 7.49 0.43 9.77
9/18/2021 2:00:00 PM 18.32 64.976 0.185 7.48 0.52 9.75
9/18/2021 2:15:00 PM 18.32 64.976 0.185 7.47 0.54 9.64
9/18/2021 2:30:00 PM 18.58 65.444 0.184 7.46 0.54 9.63
9/18/2021 2:45:00 PM 18.66 65.588 0.185 7.47 0.61 9.64
9/18/2021 3:00:00 PM 18.72 65.696 0.185 7.48 0.45 9.6
9/18/2021 3:15:00 PM 18.77 65.786 0.185 7.49 0.55 9.56
9/18/2021 3:30:00 PM 18.78 65.804 0.185 7.49 0.56 9.53
9/18/2021 3:45:00 PM 18.85 65.93 0.185 7.49 0.63 9.5
9/18/2021 4:00:00 PM 18.85 65.93 0.185 7.47 0.67 9.44
9/18/2021 4:15:00 PM 18.82 65.876 0.187 7.62 0.62 9.53
9/18/2021 4:30:00 PM 18.79 65.82201 0.186 7.49 0.54 9.34
9/18/2021 4:45:00 PM 18.71 65.67799 0.186 7.51 0.64 9.3
9/18/2021 5:00:00 PM 18.68 65.624 0.187 7.57 0.9 9.27
9/18/2021 5:15:00 PM 18.64 65.552 0.187 7.59 0.82 9.22
9/18/2021 5:30:00 PM 18.56 65.408 0.187 7.58 0.97 9.15
9/18/2021 5:45:00 PM 18.48 65.264 0.188 7.64 0.85 9.13
9/18/2021 6:00:00 PM 18.38 65.084 0.187 7.59 0.78 9.03
9/18/2021 6:15:00 PM 18.3 64.94 0.188 7.6 0.74 8.99
9/18/2021 6:30:00 PM 18.21 64.778 0.188 7.55 0.57 8.9
9/18/2021 6:45:00 PM 18.13 64.634 0.187 7.51 0.71 8.81
9/18/2021 7:00:00 PM 18.04 64.472 0.187 7.47 0.66 8.75
9/18/2021 7:15:00 PM 17.97 64.346 0.188 7.46 0.65 8.73
9/18/2021 7:30:00 PM 17.89 64.202 0.187 7.43 0.61 8.66
9/18/2021 7:45:00 PM 17.81 64.058 0.187 7.4 0.67 8.62
9/18/2021 8:00:00 PM 17.74 63.932 0.187 7.38 0.72 8.55
9/18/2021 8:15:00 PM 17.65 63.77 0.187 7.33 0.61 8.47
9/18/2021 8:30:00 PM 17.58 63.644 0.187 7.32 0.56 8.43
9/18/2021 8:45:00 PM 17.5 63.5 0.187 7.31 0.72 8.41
9/18/2021 9:00:00 PM 17.42 63.356 0.187 7.28 0.72 8.38
9/18/2021 9:15:00 PM 17.34 63.212 0.186 7.27 0.84 8.36
9/18/2021 9:30:00 PM 17.27 63.086 0.187 7.27 0.79 8.4
9/18/2021 9:45:00 PM 17.19 62.942 0.187 7.26 0.65 8.36
9/18/2021 10:00:00 PM 17.11 62.798 0.187 7.26 0.63 8.37
9/18/2021 10:15:00 PM 17.04 62.672 0.187 7.24 0.52 8.38
9/18/2021 10:30:00 PM 16.97 62.546 0.187 7.24 0.6 8.38
9/18/2021 10:45:00 PM 16.88 62.384 0.187 7.23 0.62 8.36
9/18/2021 11:00:00 PM 16.81 62.258 0.187 7.22 1.31 8.39
9/18/2021 11:15:00 PM 16.74 62.132 0.187 7.23 0.88 8.41
9/18/2021 11:30:00 PM 16.67 62.006 0.187 7.21 0.81 8.39
9/18/2021 11:45:00 PM 16.61 61.898 0.186 7.21 0.84 8.4
9/19/2021 12:00:00 AM 16.54 61.772 0.187 7.22 0.82 8.41
9/19/2021 12:15:00 AM 16.48 61.664 0.187 7.21 1 8.42
9/19/2021 12:30:00 AM 16.42 61.556 0.186 7.21 0.68 8.44
9/19/2021 12:45:00 AM 16.36 61.448 0.186 7.21 0.6 8.43
9/19/2021 1:00:00 AM 16.3 61.34 0.187 7.21 0.7 8.47
9/19/2021 1:15:00 AM 16.23 61.214 0.187 7.2 0.64 8.46
9/19/2021 1:30:00 AM 16.19 61.142 0.189 7.3 0.69 8.63
9/19/2021 1:45:00 AM 16.11 60.998 0.186 7.24 0.73 8.46
9/19/2021 2:00:00 AM 16.06 60.908 0.189 7.32 0.86 8.66
9/19/2021 2:15:00 AM 15.97 60.746 0.187 7.26 0.69 8.5
9/19/2021 2:30:00 AM 15.9 60.62 0.188 7.23 0.59 8.55
9/19/2021 2:45:00 AM 15.83 60.494 0.188 7.23 1.08 8.55
9/19/2021 3:00:00 AM 15.76 60.368 0.187 7.2 1.29 8.52
9/19/2021 3:15:00 AM 15.68 60.224 0.187 7.2 1.53 8.55
9/19/2021 3:30:00 AM 15.61 60.098 0.188 7.2 1.07 8.58
9/19/2021 3:45:00 AM 15.53 59.954 0.189 7.27 1.23 8.74
9/19/2021 4:00:00 AM 15.45 59.81 0.187 7.2 1.16 8.6
9/19/2021 4:15:00 AM 15.38 59.684 0.187 7.21 1.2 8.62
9/19/2021 4:30:00 AM 15.31 59.558 0.187 7.21 1.01 8.66
9/19/2021 4:45:00 AM 15.24 59.432 0.188 7.26 1.26 8.77
9/19/2021 5:00:00 AM 15.17 59.306 0.19 7.34 1.43 8.89
9/19/2021 5:15:00 AM 15.1 59.18 0.191 7.38 1.17 8.94
9/19/2021 5:30:00 AM 15.04 59.072 0.191 7.38 1.19 8.95
9/19/2021 5:45:00 AM 14.98 58.964 0.191 7.4 1.04 8.97
9/19/2021 6:00:00 AM 14.92 58.856 0.191 7.39 1.09 8.98
9/19/2021 6:15:00 AM 14.86 58.748 0.19 7.4 1.14 8.99
9/19/2021 6:30:00 AM 14.8 58.64 0.19 7.39 1.22 9
9/19/2021 6:45:00 AM 14.74 58.532 0.19 7.4 0.98 9.03
9/19/2021 7:00:00 AM 14.69 58.442 0.188 7.27 1.27 8.89
9/19/2021 7:15:00 AM 14.64 58.352 0.19 7.37 1.37 9.04
9/19/2021 7:30:00 AM 14.59 58.262 0.19 7.38 1.19 9.08
9/19/2021 7:45:00 AM 14.57 58.226 0.186 7.24 0.98 8.87
9/19/2021 8:00:00 AM 14.54 58.172 0.186 7.21 1.14 8.88
9/19/2021 8:15:00 AM 14.52 58.136 0.185 7.2 325.82 8.92
9/19/2021 8:30:00 AM 14.52 58.136 0.186 7.17 10.25 8.95
9/19/2021 8:45:00 AM 14.53 58.154 0.186 7.16 1.8 9.01
9/19/2021 9:00:00 AM 14.55 58.19 0.185 7.2 7.61 9.09
9/19/2021 9:15:00 AM 14.58 58.244 0.186 7.15 1.1 9.17
9/19/2021 9:30:00 AM 14.6 58.28 0.185 7.19 0.89 9.2
9/19/2021 9:45:00 AM 14.62 58.316 0.185 7.18 0.84 9.23
9/19/2021 10:00:00 AM 14.65 58.37 0.186 7.2 0.74 9.28
9/19/2021 10:15:00 AM 14.69 58.442 0.185 7.16 0.69 9.25
9/19/2021 10:30:00 AM 14.73 58.514 0.186 7.23 0.6 9.33
9/19/2021 10:45:00 AM 14.81 58.658 0.186 7.21 0.69 9.34
9/19/2021 11:00:00 AM 14.88 58.784 0.186 7.23 0.59 9.37
9/19/2021 11:15:00 AM 14.97 58.946 0.186 7.23 0.81 9.38
9/19/2021 11:30:00 AM 15.09 59.162 0.186 7.25 0.63 9.41
9/19/2021 11:45:00 AM 15.22 59.396 0.185 7.24 0.77 9.42
9/19/2021 12:00:00 PM 15.33 59.594 0.186 7.25 0.58 9.46
9/19/2021 12:15:00 PM 15.47 59.846 0.185 7.24 0.76 9.44
9/19/2021 12:30:00 PM 15.65 60.17 0.185 7.25 0.97 9.51
9/19/2021 12:45:00 PM 15.85 60.53 0.185 7.26 0.83 9.53
9/19/2021 1:00:00 PM 16.09 60.962 0.185 7.27 0.66 9.57
9/19/2021 1:15:00 PM 16.37 61.466 0.185 7.27 0.63 9.64
9/19/2021 1:30:00 PM 16.65 61.97 0.185 7.27 0.52 9.67
9/19/2021 1:45:00 PM 16.94 62.492 0.185 7.29 0.62 9.7
9/19/2021 2:00:00 PM 17.21 62.978 0.185 7.29 0.56 9.75
9/19/2021 2:15:00 PM 17.41 63.338 0.185 7.3 0.57 9.74
9/19/2021 2:30:00 PM 17.58 63.644 0.185 7.34 0.59 9.77
9/19/2021 2:45:00 PM 17.76 63.968 0.185 7.3 0.56 9.7
9/19/2021 3:00:00 PM 17.92 64.256 0.186 7.31 0.7 9.68
9/19/2021 3:15:00 PM 18.06 64.508 0.185 7.33 0.5 9.67
9/19/2021 3:30:00 PM 18.16 64.688 0.185 7.31 0.66 9.61
9/19/2021 3:45:00 PM 18.09 64.562 0.189 7.49 0.66 9.76
9/19/2021 4:00:00 PM 18.02 64.436 0.19 7.6 0.78 9.74
9/19/2021 4:15:00 PM 18 64.4 0.19 7.64 0.67 9.69
9/19/2021 4:30:00 PM 17.88 64.184 0.19 7.64 0.74 9.57
9/19/2021 4:45:00 PM 17.75 63.95 0.19 7.63 0.72 9.46
9/19/2021 5:00:00 PM 17.61 63.698 0.19 7.62 0.83 9.36
9/19/2021 5:15:00 PM 17.47 63.446 0.191 7.6 0.92 9.25
9/19/2021 5:30:00 PM 17.36 63.248 0.191 7.59 0.75 9.17
9/19/2021 5:45:00 PM 17.26 63.068 0.191 7.57 0.92 9.12
9/19/2021 6:00:00 PM 17.15 62.87 0.191 7.55 0.78 9.07
9/19/2021 6:15:00 PM 17.04 62.672 0.191 7.54 0.58 9.03
9/19/2021 6:30:00 PM 16.92 62.456 0.191 7.53 0.59 8.99
9/19/2021 6:45:00 PM 16.81 62.258 0.191 7.5 0.51 8.96
9/19/2021 7:00:00 PM 16.69 62.042 0.191 7.49 0.64 8.92
9/19/2021 7:15:00 PM 16.58 61.844 0.191 7.49 0.52 8.89
9/19/2021 7:30:00 PM 16.46 61.628 0.192 7.47 0.6 8.86
9/19/2021 7:45:00 PM 16.34 61.412 0.192 7.46 0.55 8.84
9/19/2021 8:00:00 PM 16.23 61.214 0.192 7.44 0.57 8.8
9/19/2021 8:15:00 PM 16.12 61.016 0.192 7.44 0.47 8.8
9/19/2021 8:30:00 PM 16.02 60.836 0.192 7.43 0.59 8.78
9/19/2021 8:45:00 PM 15.92 60.656 0.192 7.42 0.49 8.77
9/19/2021 9:00:00 PM 15.83 60.494 0.192 7.42 0.49 8.77
9/19/2021 9:15:00 PM 15.74 60.332 0.192 7.41 0.47 8.77
9/19/2021 9:30:00 PM 15.64 60.152 0.192 7.4 0.55 8.76
9/19/2021 9:45:00 PM 15.56 60.008 0.192 7.4 0.61 8.76
9/19/2021 10:00:00 PM 15.47 59.846 0.192 7.38 0.47 8.75
9/19/2021 10:15:00 PM 15.39 59.702 0.192 7.39 0.83 8.77
9/19/2021 10:30:00 PM 15.3 59.54 0.192 7.37 0.61 8.77
9/19/2021 10:45:00 PM 15.22 59.396 0.192 7.37 0.61 8.77
9/19/2021 11:00:00 PM 15.14 59.252 0.192 7.36 0.72 8.79
9/19/2021 11:15:00 PM 15.06 59.108 0.192 7.36 0.68 8.8
9/19/2021 11:30:00 PM 14.98 58.964 0.192 7.36 0.64 8.81
9/19/2021 11:45:00 PM 14.91 58.838 0.191 7.36 0.48 8.83
9/20/2021 12:00:00 AM 14.83 58.694 0.191 7.36 0.6 8.83
9/20/2021 12:15:00 AM 14.76 58.568 0.191 7.35 0.5 8.84
9/20/2021 12:30:00 AM 14.68 58.424 0.191 7.34 0.47 8.85
9/20/2021 12:45:00 AM 14.61 58.298 0.191 7.34 0.55 8.87
9/20/2021 1:00:00 AM 14.54 58.172 0.191 7.34 0.38 8.88
9/20/2021 1:15:00 AM 14.48 58.064 0.191 7.32 0.38 8.88
9/20/2021 1:30:00 AM 14.42 57.956 0.191 7.31 0.39 8.89
9/20/2021 1:45:00 AM 14.35 57.83 0.191 7.32 0.48 8.91
9/20/2021 2:00:00 AM 14.29 57.722 0.191 7.3 0.52 8.9
9/20/2021 2:15:00 AM 14.22 57.596 0.191 7.31 0.32 8.91
9/20/2021 2:30:00 AM 14.16 57.488 0.191 7.31 0.53 8.91
9/20/2021 2:45:00 AM 14.1 57.38 0.191 7.3 0.49 8.93
9/20/2021 3:00:00 AM 14.04 57.272 0.191 7.3 0.46 8.94
9/20/2021 3:15:00 AM 13.98 57.164 0.191 7.29 0.43 8.96
9/20/2021 3:30:00 AM 13.92 57.056 0.191 7.29 0.48 8.95
9/20/2021 3:45:00 AM 13.86 56.948 0.191 7.28 0.99 8.94
9/20/2021 4:00:00 AM 13.79 56.822 0.191 7.28 0.69 8.95
9/20/2021 4:15:00 AM 13.73 56.714 0.191 7.27 0.57 8.97
9/20/2021 4:30:00 AM 13.67 56.606 0.191 7.27 0.64 8.97
9/20/2021 4:45:00 AM 13.61 56.498 0.191 7.26 0.61 8.98
9/20/2021 5:00:00 AM 13.54 56.372 0.191 7.26 0.55 9
9/20/2021 5:15:00 AM 13.48 56.264 0.191 7.27 0.54 9.03
9/20/2021 5:30:00 AM 13.42 56.156 0.191 7.27 0.52 9.04
9/20/2021 5:45:00 AM 13.37 56.066 0.191 7.26 0.67 9.05
9/20/2021 6:00:00 AM 13.31 55.958 0.191 7.23 0.74 9.03
9/20/2021 6:15:00 AM 13.28 55.904 0.19 7.21 0.68 8.93
9/20/2021 6:30:00 AM 13.21 55.778 0.19 7.22 0.61 9.01
9/20/2021 6:45:00 AM 13.14 55.652 0.191 7.23 0.48 9.07
9/20/2021 7:00:00 AM 13.12 55.616 0.189 7.19 0.52 8.97
9/20/2021 7:15:00 AM 13.06 55.508 0.19 7.18 0.77 9.01
9/20/2021 7:30:00 AM 13 55.4 0.151 7.19 1.03 9.03
9/20/2021 7:45:00 AM 12.98 55.364 0.189 7.16 266.48 8.96
9/20/2021 8:00:00 AM 12.97 55.346 0.189 7.14 4.11 8.91
9/20/2021 8:15:00 AM 12.9 55.22 0.19 7.15 0.58 9.09
9/20/2021 8:30:00 AM 12.87 55.166 0.191 7.21 0.5 9.16
9/20/2021 8:45:00 AM 12.85 55.13 0.191 7.2 0.43 9.23
9/20/2021 9:00:00 AM 12.88 55.184 0.19 7.23 0.52 9.24
9/20/2021 9:15:00 AM 12.87 55.166 0.191 7.24 0.62 9.31
9/20/2021 9:30:00 AM 12.89 55.202 0.191 7.25 0.57 9.38
9/20/2021 9:45:00 AM 12.9 55.22 0.191 7.25 0.64 9.47
9/20/2021 10:00:00 AM 12.93 55.274 0.191 7.27 0.75 9.51
9/20/2021 10:15:00 AM 12.96 55.328 0.191 7.29 0.61 9.56
9/20/2021 10:30:00 AM 13.01 55.418 0.191 7.31 0.54 9.59
9/20/2021 10:45:00 AM 13.06 55.508 0.191 7.31 0.65 9.65
9/20/2021 11:00:00 AM 13.14 55.652 0.191 7.31 0.57 9.7
9/20/2021 11:15:00 AM 13.26 55.868 0.191 7.31 0.48 9.76
9/20/2021 11:30:00 AM 13.4 56.12 0.191 7.32 0.45 9.86
9/20/2021 11:45:00 AM 13.58 56.444 0.191 7.35 0.39 9.93
9/20/2021 12:00:00 PM 13.76 56.768 0.191 7.37 0.54 10.04
9/20/2021 12:15:00 PM 13.91 57.038 0.19 7.37 0.42 10.06
9/20/2021 12:30:00 PM 14.09 57.362 0.19 7.37 0.24 10.08
9/20/2021 12:45:00 PM 14.3 57.74 0.19 7.38 0.4 10.12
9/20/2021 1:00:00 PM 14.6 58.28 0.19 7.39 0.27 10.17
9/20/2021 1:15:00 PM 15.04 59.072 0.19 7.44 0.31 10.26
9/20/2021 1:30:00 PM 15.51 59.918 0.19 7.44 0.34 10.25
9/20/2021 1:45:00 PM 15.97 60.746 0.19 7.46 0.27 10.38
9/20/2021 2:00:00 PM 16.4 61.52 0.19 7.48 0.32 10.4
9/20/2021 2:15:00 PM 16.75 62.15 0.19 7.47 0.37 10.39
9/20/2021 2:30:00 PM 17.05 62.69 0.19 7.51 0.38 10.42
9/20/2021 2:45:00 PM 17.24 63.032 0.19 7.51 0.28 10.4
9/20/2021 3:00:00 PM 17.44 63.392 0.19 7.53 0.34 10.39
9/20/2021 3:15:00 PM 17.55 63.59 0.19 7.55 0.54 10.34
9/20/2021 3:30:00 PM 17.6 63.68 0.19 7.54 0.39 10.29
9/20/2021 3:45:00 PM 17.58 63.644 0.19 7.52 0.41 10.15
9/20/2021 4:00:00 PM 17.59 63.662 0.19 7.53 0.38 10.11
9/20/2021 4:15:00 PM 17.58 63.644 0.191 7.52 0.21 10.03
9/20/2021 4:30:00 PM 17.61 63.698 0.191 7.53 1.99 10.01
9/20/2021 4:45:00 PM 17.58 63.644 0.191 7.54 0.51 10
9/20/2021 5:00:00 PM 17.53 63.554 0.191 7.54 0.47 9.93
9/20/2021 5:15:00 PM 17.45 63.41 0.191 7.54 0.44 9.85
9/20/2021 5:30:00 PM 17.35 63.23 0.191 7.51 0.47 9.71
9/20/2021 5:45:00 PM 17.26 63.068 0.191 7.5 0.38 9.62
9/20/2021 6:00:00 PM 17.18 62.924 0.191 7.48 0.24 9.5
9/20/2021 6:15:00 PM 17.1 62.78 0.191 7.46 0.81 9.42
9/20/2021 6:30:00 PM 17.02 62.636 0.191 7.43 0.32 9.29
9/20/2021 6:45:00 PM 16.96 62.528 0.192 7.43 0.28 9.25
9/20/2021 7:00:00 PM 16.87 62.366 0.192 7.42 0.39 9.14
9/20/2021 7:15:00 PM 16.78 62.204 0.192 7.41 0.38 9.05
9/20/2021 7:30:00 PM 16.7 62.06 0.192 7.39 0.55 8.97
9/20/2021 7:45:00 PM 16.62 61.916 0.192 7.39 0.57 8.92
9/20/2021 8:00:00 PM 16.52 61.736 0.193 7.36 0.35 8.82
9/20/2021 8:15:00 PM 16.43 61.574 0.193 7.35 0.47 8.72
9/20/2021 8:30:00 PM 16.34 61.412 0.193 7.33 0.55 8.64
9/20/2021 8:45:00 PM 16.27 61.286 0.193 7.32 0.56 8.59
9/20/2021 9:00:00 PM 16.22 61.196 0.193 7.31 0.52 8.6
9/20/2021 9:15:00 PM 16.15 61.07 0.193 7.31 0.67 8.48
9/20/2021 9:30:00 PM 16.02 60.836 0.192 7.27 0.42 8.39
9/20/2021 9:45:00 PM 16.01 60.818 0.193 7.27 0.55 8.4
9/20/2021 10:00:00 PM 15.93 60.674 0.193 7.27 0.48 8.35
9/20/2021 10:15:00 PM 15.83 60.494 0.193 7.24 0.35 8.26
9/20/2021 10:30:00 PM 15.75 60.35 0.193 7.22 0.47 8.24
9/20/2021 10:45:00 PM 15.69 60.242 0.193 7.21 0.48 8.21
9/20/2021 11:00:00 PM 15.63 60.134 0.193 7.21 0.48 8.2
9/20/2021 11:15:00 PM 15.56 60.008 0.193 7.18 1.47 8.17
9/20/2021 11:30:00 PM 15.5 59.9 0.193 7.2 1.02 8.17
9/20/2021 11:45:00 PM 15.45 59.81 0.193 7.18 1.33 8.1
9/21/2021 12:00:00 AM 15.37 59.666 0.193 7.17 0.78 8.07
9/21/2021 12:15:00 AM 15.32 59.576 0.193 7.13 0.58 8.05
9/21/2021 12:30:00 AM 15.21 59.378 0.192 7.14 0.48 7.99
9/21/2021 12:45:00 AM 15.16 59.288 0.193 7.14 0.37 8.19
9/21/2021 1:00:00 AM 15.1 59.18 0.193 7.15 0.45 8.12
9/21/2021 1:15:00 AM 15.03 59.054 0.194 7.16 0.36 8.25
9/21/2021 1:30:00 AM 14.98 58.964 0.194 7.17 0.37 8.27
9/21/2021 1:45:00 AM 14.93 58.874 0.194 7.17 0.29 8.26
9/21/2021 2:00:00 AM 14.89 58.802 0.194 7.18 0.55 8.32
9/21/2021 2:15:00 AM 14.84 58.712 0.194 7.19 0.41 8.36
9/21/2021 2:30:00 AM 14.8 58.64 0.194 7.15 1.36 8.27
9/21/2021 2:45:00 AM 14.76 58.568 0.193 7.14 2.31 8.19
9/21/2021 3:00:00 AM 14.73 58.514 0.192 7.1 0.74 7.96
9/21/2021 3:15:00 AM 14.68 58.424 0.192 7.07 0.96 7.86
9/21/2021 3:30:00 AM 14.66 58.388 0.192 7.08 1.26 8
9/21/2021 3:45:00 AM 14.63 58.334 0.192 7.06 0.71 8.05
9/21/2021 4:00:00 AM 14.6 58.28 0.193 7.1 0.82 8.21
9/21/2021 4:15:00 AM 14.56 58.208 0.192 7.1 0.79 8.1
9/21/2021 4:30:00 AM 14.53 58.154 0.192 7.07 0.9 8.03
9/21/2021 4:45:00 AM 14.51 58.118 0.192 7.07 0.7 8.04
9/21/2021 5:00:00 AM 14.46 58.028 0.192 7.07 0.55 8.05
9/21/2021 5:15:00 AM 14.43 57.974 0.192 7.07 0.9 8.06
9/21/2021 5:30:00 AM 14.39 57.902 0.192 7.07 0.53 8.08
9/21/2021 5:45:00 AM 14.36 57.848 0.192 7.08 0.64 8.16
9/21/2021 6:00:00 AM 14.32 57.776 0.192 7.06 0.72 8.16
9/21/2021 6:15:00 AM 14.29 57.722 0.192 7.09 0.78 8.2
9/21/2021 6:30:00 AM 14.26 57.668 0.192 7.11 0.72 8.23
9/21/2021 6:45:00 AM 14.2 57.56 0.193 7.09 0.78 8.19
9/21/2021 7:00:00 AM 14.17 57.506 0.192 7.09 3.13 8.12
9/21/2021 7:15:00 AM 14.13 57.434 0.192 7.1 0.78 8.2
9/21/2021 7:30:00 AM 14.1 57.38 0.192 7.09 0.68 8.18
9/21/2021 7:45:00 AM 14.08 57.344 0.192 7.09 0.8 8.21
9/21/2021 8:00:00 AM 14.08 57.344 0.192 7.11 0.84 8.29
9/21/2021 8:15:00 AM 14.08 57.344 0.192 7.06 1.13 8.22
9/21/2021 8:30:00 AM 14.1 57.38 0.192 7.08 0.9 8.23
9/21/2021 8:45:00 AM 14.11 57.398 0.192 7.05 1.29 8.32
9/21/2021 9:00:00 AM 14.14 57.452 0.192 7.08 1.14 8.45
9/21/2021 9:15:00 AM 14.19 57.542 0.19 7.09 3.56 8.44
9/21/2021 9:30:00 AM 14.26 57.668 0.191 7.05 3.53 8.3
9/21/2021 9:45:00 AM 14.29 57.722 0.191 7.06 0.77 8.55
9/21/2021 10:00:00 AM 14.33 57.794 0.191 7.08 0.54 8.73
9/21/2021 10:15:00 AM 14.33 57.794 0.191 7.1 0.38 8.91
9/21/2021 10:30:00 AM 14.34 57.812 0.191 7.12 0.74 9.01
9/21/2021 10:45:00 AM 14.38 57.884 0.191 7.13 0.36 9.11
9/21/2021 11:00:00 AM 14.43 57.974 0.191 7.11 0.6 9.06
9/21/2021 11:15:00 AM 14.47 58.046 0.19 7.11 0.32 9.05
9/21/2021 11:30:00 AM 14.53 58.154 0.19 7.08 0.58 9.02
9/21/2021 11:45:00 AM 14.59 58.262 0.19 7.05 0.65 8.89
9/21/2021 12:00:00 PM 14.69 58.442 0.19 7.07 0.46 9.1
9/21/2021 12:15:00 PM 14.79 58.622 0.19 7.09 0.38 9.13
9/21/2021 12:30:00 PM 14.92 58.856 0.19 7.11 0.29 9.26
9/21/2021 12:45:00 PM 15.06 59.108 0.191 7.13 1.05 9.38
9/21/2021 1:00:00 PM 15.22 59.396 0.19 7.15 0.7 9.42
9/21/2021 1:15:00 PM 15.37 59.666 0.19 7.13 0.36 9.52
9/21/2021 1:30:00 PM 15.66 60.188 0.19 7.18 0.5 9.56
9/21/2021 1:45:00 PM 16.02 60.836 0.189 7.15 0.68 9.64
9/21/2021 2:00:00 PM 16.35 61.43 0.19 7.19 0.68 9.85
9/21/2021 2:15:00 PM 16.55 61.79 0.191 7.24 0.53 9.95
9/21/2021 2:30:00 PM 16.69 62.042 0.191 7.24 0.72 9.95
9/21/2021 2:45:00 PM 16.79 62.222 0.19 7.24 0.51 9.83
9/21/2021 3:00:00 PM 16.84 62.312 0.19 7.25 1.23 9.8
9/21/2021 3:15:00 PM 16.85 62.33 0.191 7.25 0.46 9.81
9/21/2021 3:30:00 PM 16.83 62.294 0.19 7.25 0.55 9.73
9/21/2021 3:45:00 PM 16.82 62.276 0.19 7.23 0.58 9.68
9/21/2021 4:00:00 PM 16.85 62.33 0.19 7.24 0.49 9.7
9/21/2021 4:15:00 PM 16.89 62.402 0.19 7.24 0.39 9.67
9/21/2021 4:30:00 PM 16.89 62.402 0.19 7.23 0.36 9.6
9/21/2021 4:45:00 PM 16.92 62.456 0.19 7.23 0.94 9.57
9/21/2021 5:00:00 PM 16.95 62.51 0.19 7.24 0.94 9.57
9/21/2021 5:15:00 PM 16.94 62.492 0.191 7.25 0.87 9.58
9/21/2021 5:30:00 PM 16.9 62.42 0.191 7.22 0.73 9.53
9/21/2021 5:45:00 PM 16.84 62.312 0.19 7.19 0.66 9.29
9/21/2021 6:00:00 PM 16.83 62.294 0.191 7.18 0.67 9.27
9/21/2021 6:15:00 PM 16.78 62.204 0.191 7.17 0.88 9.14
9/21/2021 6:30:00 PM 16.77 62.186 0.191 7.17 0.66 9.13
9/21/2021 6:45:00 PM 16.72 62.096 0.191 7.16 1.39 9.01
9/21/2021 7:00:00 PM 16.69 62.042 0.192 7.15 1.03 8.9
9/21/2021 7:15:00 PM 16.66 61.988 0.192 7.16 0.41 8.84
9/21/2021 7:30:00 PM 16.61 61.898 0.192 7.15 0.44 8.72
9/21/2021 7:45:00 PM 16.59 61.862 0.192 7.13 0.19 8.61
9/21/2021 8:00:00 PM 16.55 61.79 0.192 7.14 0.4 8.53
9/21/2021 8:15:00 PM 16.51 61.718 0.193 7.12 0.36 8.45
9/21/2021 8:30:00 PM 16.45 61.61 0.192 7.1 0.37 8.35
9/21/2021 8:45:00 PM 16.42 61.556 0.193 7.09 0.52 8.23
9/21/2021 9:00:00 PM 16.39 61.502 0.194 7.09 0.39 8.18
9/21/2021 9:15:00 PM 16.36 61.448 0.193 7.1 0.29 8.14
9/21/2021 9:30:00 PM 16.3 61.34 0.193 7.07 0.05 8
9/21/2021 9:45:00 PM 16.28 61.304 0.194 7.07 0.06 7.97
9/21/2021 10:00:00 PM 16.24 61.232 0.194 7.06 0.09 7.93
9/21/2021 10:15:00 PM 16.2 61.16 0.194 7.06 0.23 7.88
9/21/2021 10:30:00 PM 16.17 61.106 0.194 7.04 0.28 7.79
9/21/2021 10:45:00 PM 16.14 61.052 0.194 7.05 0.17 7.81
9/21/2021 11:00:00 PM 16.08 60.944 0.194 7.03 0.19 7.7
9/21/2021 11:15:00 PM 16.07 60.926 0.194 7.05 0.33 7.75
9/21/2021 11:30:00 PM 16.04 60.872 0.195 7.05 0.98 7.75
9/21/2021 11:45:00 PM 16.01 60.818 0.195 7.05 0.39 7.72
9/22/2021 12:00:00 AM 15.97 60.746 0.195 7.04 0.7 7.66
9/22/2021 12:15:00 AM 15.94 60.692 0.195 7.04 0.53 7.62
9/22/2021 12:30:00 AM 15.93 60.674 0.195 7.04 1.31 7.58
9/22/2021 12:45:00 AM 15.91 60.638 0.195 7.02 0.45 7.5
9/22/2021 1:00:00 AM 15.88 60.584 0.195 7.02 0.62 7.42
9/22/2021 1:15:00 AM 15.87 60.566 0.195 7 0.99 7.37
9/22/2021 1:30:00 AM 15.86 60.548 0.196 7.01 0.62 7.35
9/22/2021 1:45:00 AM 15.83 60.494 0.195 7 0.56 7.29
9/22/2021 2:00:00 AM 15.75 60.35 0.194 6.98 0.56 7.02
9/22/2021 2:15:00 AM 15.69 60.242 0.193 6.94 0.36 6.96
9/22/2021 2:30:00 AM 15.68 60.224 0.193 6.95 0.24 6.88
9/22/2021 2:45:00 AM 15.68 60.224 0.193 6.93 0.24 6.96
9/22/2021 3:00:00 AM 15.63 60.134 0.192 6.92 0.18 6.92
9/22/2021 3:15:00 AM 15.66 60.188 0.193 6.93 0.69 6.86
9/22/2021 3:30:00 AM 15.63 60.134 0.193 6.93 0.57 6.94
9/22/2021 3:45:00 AM 15.6 60.08 0.193 6.91 0.67 6.87
9/22/2021 4:00:00 AM 15.56 60.008 0.191 6.88 0.37 6.64
9/22/2021 4:15:00 AM 15.53 59.954 0.192 6.87 0.31 6.52
9/22/2021 4:30:00 AM 15.57 60.026 0.193 6.9 1.07 6.55
9/22/2021 4:45:00 AM 15.56 60.008 0.191 6.9 0.55 6.63
9/22/2021 5:00:00 AM 15.53 59.954 0.192 6.88 0.57 6.55
9/22/2021 5:15:00 AM 15.53 59.954 0.192 6.89 0.43 6.47
9/22/2021 5:30:00 AM 15.5 59.9 0.193 6.86 0.79 6.4
9/22/2021 5:45:00 AM 15.5 59.9 0.193 6.85 0.62 6.33
9/22/2021 6:00:00 AM 15.48 59.864 0.193 6.81 2.27 6.18
9/22/2021 6:15:00 AM 15.51 59.918 0.193 6.82 3 6.25
9/22/2021 6:30:00 AM 15.46 59.828 0.192 6.8 1.28 6.07
9/22/2021 6:45:00 AM 15.38 59.684 0.191 6.78 1.94 5.76
9/22/2021 7:00:00 AM 15.42 59.756 0.192 6.78 1.28 5.79
9/22/2021 7:15:00 AM 15.4 59.72 0.192 6.81 0.9 5.91
9/22/2021 7:30:00 AM 15.41 59.738 0.191 6.78 1.53 5.93
9/22/2021 7:45:00 AM 15.38 59.684 0.19 6.8 0.95 5.78
9/22/2021 8:00:00 AM 15.42 59.756 0.191 6.79 4.46 6
9/22/2021 8:15:00 AM 15.5 59.9 0.193 6.81 6.73 6.21
9/22/2021 8:30:00 AM 15.44 59.792 0.191 6.78 12.19 5.91
9/22/2021 8:45:00 AM 15.38 59.684 0.191 6.75 7.06 5.71
9/22/2021 9:00:00 AM 15.49 59.882 0.193 6.78 4.15 5.77
9/22/2021 9:15:00 AM 15.51 59.918 0.192 6.78 1.06 5.9
9/22/2021 9:30:00 AM 15.49 59.882 0.191 6.77 2.75 5.87
9/22/2021 9:45:00 AM 15.56 60.008 0.191 6.79 0.72 5.88
9/22/2021 10:00:00 AM 15.55 59.99 0.191 6.79 0.77 5.85
9/22/2021 10:15:00 AM 15.58 60.044 0.19 6.8 1.06 5.95
9/22/2021 10:30:00 AM 15.68 60.224 0.19 6.77 0.68 6.19
9/22/2021 10:45:00 AM 15.68 60.224 0.19 6.8 0.9 6.34
9/22/2021 11:00:00 AM 15.71 60.278 0.19 6.81 0.46 6.37
9/22/2021 11:15:00 AM 15.91 60.638 0.192 6.81 1.43 6.97
9/22/2021 11:30:00 AM 15.95 60.71 0.191 6.83 1.38 7.01
9/22/2021 11:45:00 AM 16.02 60.836 0.191 6.8 1.38 7.12
9/22/2021 12:00:00 PM 16.04 60.872 0.191 6.85 1.08 7.17
9/22/2021 12:15:00 PM 16.16 61.088 0.191 6.88 1.23 7.68
9/22/2021 12:30:00 PM 16.13 61.034 0.191 6.87 0.53 7.33
9/22/2021 12:45:00 PM 16.17 61.106 0.189 6.88 0.89 7.57
9/22/2021 1:00:00 PM 16.34 61.412 0.19 6.87 1.48 7.66
9/22/2021 1:15:00 PM 16.5 61.7 0.19 6.87 1.19 7.97
9/22/2021 1:30:00 PM 16.57 61.826 0.19 6.89 6.29 7.96
9/22/2021 1:45:00 PM 16.6 61.88 0.19 6.9 1.05 7.96
9/22/2021 2:00:00 PM 16.55 61.79 0.189 6.9 7.08 7.91
9/22/2021 2:15:00 PM 16.63 61.934 0.189 6.9 0.64 7.69
9/22/2021 2:30:00 PM 16.68 62.024 0.189 6.87 1.34 7.64
9/22/2021 2:45:00 PM 16.79 62.222 0.109 6.89 0.34 7.72
9/22/2021 3:00:00 PM 16.9 62.42 0.136 6.81 0.41 8.21
9/22/2021 3:15:00 PM 16.84 62.312 0.187 6.82 6.11 7.64
9/22/2021 3:30:00 PM 16.79 62.222 0.185 6.79 0.59 7.53
9/22/2021 3:45:00 PM 17 62.6 0.179 6.72 0.7 7.46
9/22/2021 4:00:00 PM 16.9 62.42 0.177 6.62 0.6 6.95
9/22/2021 4:15:00 PM 16.82 62.276 0.178 6.59 0.19 6.83
9/22/2021 4:30:00 PM 16.86 62.348 0.179 6.62 0.46 6.91
9/22/2021 4:45:00 PM 16.84 62.312 0.182 6.64 0.3 6.94
9/22/2021 5:00:00 PM 17 62.6 0.183 6.67 0.37 7.29
9/22/2021 5:15:00 PM 17.13 62.834 0.178 6.66 0.41 7.34
9/22/2021 5:30:00 PM 16.98 62.564 0.181 6.69 0.3 6.93
9/22/2021 5:45:00 PM 17.1 62.78 0.178 6.65 0.16 7.12
9/22/2021 6:00:00 PM 16.87 62.366 0.181 6.68 0.99 6.84
9/22/2021 6:15:00 PM 17.13 62.834 0.184 6.71 0.51 7.18
9/22/2021 6:30:00 PM 17 62.6 0.184 6.7 0.54 7.12
9/22/2021 6:45:00 PM 16.89 62.402 0.185 6.73 0.57 6.76
9/22/2021 7:00:00 PM 16.98 62.564 0.185 6.71 0.71 6.95
9/22/2021 7:15:00 PM 17.03 62.654 0.185 6.72 1.17 7.08
9/22/2021 7:30:00 PM 16.93 62.474 0.187 6.76 1.69 6.96
9/22/2021 7:45:00 PM 16.9 62.42 0.189 6.8 1.16 6.71
9/22/2021 8:00:00 PM 16.93 62.474 0.189 6.84 0.65 7.02
9/22/2021 8:15:00 PM 16.74 62.132 0.188 6.81 0.35 6.58
9/22/2021 8:30:00 PM 16.76 62.168 0.189 6.83 0.8 6.62
9/22/2021 8:45:00 PM 16.86 62.348 0.193 6.87 0.83 6.77
9/22/2021 9:00:00 PM 16.75 62.15 0.19 6.87 0.69 6.64
9/22/2021 9:15:00 PM 16.67 62.006 0.19 6.88 0.66 6.66
9/22/2021 9:30:00 PM 16.67 62.006 0.19 6.86 0.75 6.46
9/22/2021 9:45:00 PM 16.73 62.114 0.192 6.84 2.09 6.43
9/22/2021 10:00:00 PM 16.65 61.97 0.192 6.85 0.64 6.28
9/22/2021 10:15:00 PM 16.64 61.952 0.191 6.83 0.59 6.26
9/22/2021 10:30:00 PM 16.9 62.42 0.196 6.86 0.72 6.69
9/22/2021 10:45:00 PM 16.86 62.348 0.199 7.04 2.39 7.84
9/22/2021 11:00:00 PM 16.94 62.492 0.205 7.36 2 8.56
9/22/2021 11:15:00 PM 16.92 62.456 0.205 7.46 2.1 8.69
9/22/2021 11:30:00 PM 16.89 62.402 0.205 7.5 1.22 8.73
9/22/2021 11:45:00 PM 16.87 62.366 0.205 7.52 1.21 8.74
9/23/2021 12:00:00 AM 16.85 62.33 0.205 7.5 1.19 8.69
9/23/2021 12:15:00 AM 16.83 62.294 0.204 7.45 0.93 8.65
9/23/2021 12:30:00 AM 16.82 62.276 0.204 7.45 0.95 8.62
9/23/2021 12:45:00 AM 16.81 62.258 0.204 7.44 0.94 8.64
9/23/2021 1:00:00 AM 16.8 62.24 0.203 7.41 0.97 8.56
9/23/2021 1:15:00 AM 16.79 62.222 0.203 7.4 0.84 8.55
9/23/2021 1:30:00 AM 16.79 62.222 0.201 7.33 0.68 8.43
9/23/2021 1:45:00 AM 16.79 62.222 0.203 7.38 0.61 8.5
9/23/2021 2:00:00 AM 16.79 62.222 0.204 7.43 0.74 8.52
9/23/2021 2:15:00 AM 16.78 62.204 0.204 7.43 0.74 8.51
9/23/2021 2:30:00 AM 16.79 62.222 0.204 7.43 0.64 8.48
9/23/2021 2:45:00 AM 16.79 62.222 0.204 7.42 0.78 8.44
9/23/2021 3:00:00 AM 16.79 62.222 0.204 7.41 0.79 8.39
9/23/2021 3:15:00 AM 16.79 62.222 0.204 7.38 0.73 8.35
9/23/2021 3:30:00 AM 16.79 62.222 0.204 7.38 1.12 8.31
9/23/2021 3:45:00 AM 16.72 62.096 0.203 7.32 0.88 8.13
9/23/2021 4:00:00 AM 16.75 62.15 0.204 7.31 0.47 8.15
9/23/2021 4:15:00 AM 16.76 62.168 0.203 7.28 0.68 8.09
9/23/2021 4:30:00 AM 16.74 62.132 0.203 7.25 0.57 8.01
9/23/2021 4:45:00 AM 16.77 62.186 0.203 7.24 0.53 8.02
9/23/2021 5:00:00 AM 16.76 62.168 0.203 7.22 0.84 7.97
9/23/2021 5:15:00 AM 16.72 62.096 0.202 7.19 0.9 7.82
9/23/2021 5:30:00 AM 16.74 62.132 0.202 7.18 1 7.79
9/23/2021 5:45:00 AM 16.73 62.114 0.202 7.15 0.54 7.72
9/23/2021 6:00:00 AM 16.71 62.078 0.201 7.13 0.54 7.61
9/23/2021 6:15:00 AM 16.69 62.042 0.201 7.1 0.44 7.5
9/23/2021 6:30:00 AM 16.69 62.042 0.201 7.1 0.46 7.47
9/23/2021 6:45:00 AM 16.63 61.934 0.201 7.08 0.33 7.19
9/23/2021 7:00:00 AM 16.59 61.862 0.199 7.04 0.55 7.02
9/23/2021 7:15:00 AM 16.56 61.808 0.199 7.01 0.55 6.93
9/23/2021 7:30:00 AM 16.58 61.844 0.2 7.01 0.67 6.87
9/23/2021 7:45:00 AM 16.52 61.736 0.199 6.99 0.7 6.74
9/23/2021 8:00:00 AM 16.44 61.592 0.199 6.99 1.18 6.64
9/23/2021 8:15:00 AM 16.42 61.556 0.199 6.96 1.77 6.39
9/23/2021 8:30:00 AM 16.37 61.466 0.199 6.91 0.99 6.04
9/23/2021 8:45:00 AM 16.35 61.43 0.199 6.89 0.97 6.04
9/23/2021 9:00:00 AM 16.39 61.502 0.199 6.91 0.93 5.99
9/23/2021 9:15:00 AM 16.37 61.466 0.198 6.87 0.48 5.98
9/23/2021 9:30:00 AM 16.33 61.394 0.198 6.88 0.62 5.88
9/23/2021 9:45:00 AM 16.3 61.34 0.198 6.87 0.54 5.75
9/23/2021 10:00:00 AM 16.33 61.394 0.198 6.87 0.5 5.7
9/23/2021 10:15:00 AM 16.34 61.412 0.198 6.82 0.59 5.52
9/23/2021 10:30:00 AM 16.44 61.592 0.197 6.89 0.55 5.9
9/23/2021 10:45:00 AM 16.52 61.736 0.195 6.86 0.61 5.97
9/23/2021 11:00:00 AM 16.66 61.988 0.194 6.89 1.09 6.37
9/23/2021 11:15:00 AM 16.81 62.258 0.195 6.93 0.82 7.01
9/23/2021 11:30:00 AM 16.89 62.402 0.194 6.99 1.55 7.51
9/23/2021 11:45:00 AM 16.92 62.456 0.195 7.05 1.84 7.72
9/23/2021 12:00:00 PM 16.9 62.42 0.195 7.09 2.16 7.9
9/23/2021 12:15:00 PM 16.89 62.402 0.194 7.16 3.05 8.2
9/23/2021 12:30:00 PM 16.86 62.348 0.192 7.21 5.57 8.45
9/23/2021 12:45:00 PM 16.85 62.33 0.193 7.33 9.23 8.75
9/23/2021 1:00:00 PM 16.84 62.312 0.19 7.44 16.87 8.87
9/23/2021 1:15:00 PM 16.82 62.276 0.181 7.46 50 8.85
9/23/2021 1:30:00 PM 16.8 62.24 0.17 7.44 57.57 8.88
9/23/2021 1:45:00 PM 16.78 62.204 0.163 7.43 60.54 8.91
9/23/2021 2:00:00 PM 16.78 62.204 0.156 7.4 85.85 8.89
9/23/2021 2:15:00 PM 16.78 62.204 0.151 7.36 104.04 8.91
9/23/2021 2:30:00 PM 16.77 62.186 0.151 7.38 72.49 8.85
9/23/2021 2:45:00 PM 16.78 62.204 0.149 7.3 78.66 8.79
9/23/2021 3:00:00 PM 16.77 62.186 0.146 7.32 76.71 8.78
9/23/2021 3:15:00 PM 16.74 62.132 0.142 7.32 111.73 8.81
9/23/2021 3:30:00 PM 16.72 62.096 0.139 7.3 97.17 8.81
9/23/2021 3:45:00 PM 16.71 62.078 0.141 7.27 112.25 8.8
9/23/2021 4:00:00 PM 16.71 62.078 0.145 7.28 118.19 8.82
9/23/2021 4:15:00 PM 16.7 62.06 0.15 7.3 117.63 8.82
9/23/2021 4:30:00 PM 16.65 61.97 0.151 7.28 87 8.84
9/23/2021 4:45:00 PM 16.59 61.862 0.151 7.3 84.75 8.87
9/23/2021 5:00:00 PM 16.54 61.772 0.146 7.31 78.15 8.89
9/23/2021 5:15:00 PM 16.56 61.808 0.135 7.28 121.95 8.89
9/23/2021 5:30:00 PM 16.62 61.916 0.124 7.26 201.24 8.87
9/23/2021 5:45:00 PM 16.69 62.042 0.116 7.22 146.44 8.85
9/23/2021 6:00:00 PM 16.75 62.15 0.111 7.18 147.23 8.84
9/23/2021 6:15:00 PM 16.8 62.24 0.109 7.19 133.43 8.83
9/23/2021 6:30:00 PM 16.82 62.276 0.109 7.19 123.42 8.82
9/23/2021 6:45:00 PM 16.84 62.312 0.109 7.17 121.49 8.82
9/23/2021 7:00:00 PM 16.85 62.33 0.108 7.18 89.01 8.82
9/23/2021 7:15:00 PM 16.86 62.348 0.107 7.16 87.52 8.82
9/23/2021 7:30:00 PM 16.86 62.348 0.106 7.15 75.04 8.82
9/23/2021 7:45:00 PM 16.87 62.366 0.106 7.16 77 8.82
9/23/2021 8:00:00 PM 16.88 62.384 0.107 7.15 75.07 8.81
9/23/2021 8:15:00 PM 16.89 62.402 0.109 7.13 76.2 8.8
9/23/2021 8:30:00 PM 16.89 62.402 0.111 7.15 67.77 8.79
9/23/2021 8:45:00 PM 16.9 62.42 0.113 7.15 67.51 8.78
9/23/2021 9:00:00 PM 16.9 62.42 0.116 7.14 67.36 8.77
9/23/2021 9:15:00 PM 16.89 62.402 0.118 7.16 62.66 8.77
9/23/2021 9:30:00 PM 16.88 62.384 0.12 7.18 50.98 8.76
9/23/2021 9:45:00 PM 16.85 62.33 0.121 7.16 51.93 8.77
9/23/2021 10:00:00 PM 16.82 62.276 0.122 7.19 53.06 8.77
9/23/2021 10:15:00 PM 16.78 62.204 0.123 7.2 46.13 8.79
9/23/2021 10:30:00 PM 16.73 62.114 0.124 7.2 52.03 8.8
9/23/2021 10:45:00 PM 16.68 62.024 0.125 7.21 42.17 8.81
9/23/2021 11:00:00 PM 16.62 61.916 0.126 7.23 34.39 8.83
9/23/2021 11:15:00 PM 16.56 61.808 0.126 7.22 40.7 8.85
9/23/2021 11:30:00 PM 16.5 61.7 0.127 7.2 36.01 8.86
9/23/2021 11:45:00 PM 16.43 61.574 0.128 7.21 35.24 8.88
9/24/2021 12:00:00 AM 16.37 61.466 0.129 7.22 33.07 8.9
9/24/2021 12:15:00 AM 16.3 61.34 0.129 7.21 35.04 8.92
9/24/2021 12:30:00 AM 16.23 61.214 0.13 7.23 28.29 8.93
9/24/2021 12:45:00 AM 16.15 61.07 0.131 7.24 32.82 8.95
9/24/2021 1:00:00 AM 16.08 60.944 0.132 7.24 25.95 8.97
9/24/2021 1:15:00 AM 16.02 60.836 0.133 7.25 28.07 8.98
9/24/2021 1:30:00 AM 15.95 60.71 0.134 7.24 23.77 9
9/24/2021 1:45:00 AM 15.89 60.602 0.135 7.24 22.03 9.03
9/24/2021 2:00:00 AM 15.82 60.476 0.136 7.26 24.06 9.04
9/24/2021 2:15:00 AM 15.75 60.35 0.137 7.26 22.31 9.06
9/24/2021 2:30:00 AM 15.69 60.242 0.138 7.24 21.99 9.07
9/24/2021 2:45:00 AM 15.61 60.098 0.139 7.25 20.7 9.08
9/24/2021 3:00:00 AM 15.55 59.99 0.14 7.23 17.29 9.1
9/24/2021 3:15:00 AM 15.47 59.846 0.141 7.28 18.93 9.12
9/24/2021 3:30:00 AM 15.4 59.72 0.142 7.28 18.36 9.14
9/24/2021 3:45:00 AM 15.33 59.594 0.143 7.25 13.91 9.16
9/24/2021 4:00:00 AM 15.25 59.45 0.144 7.28 16.66 9.18
9/24/2021 4:15:00 AM 15.18 59.324 0.145 7.28 16.68 9.21
9/24/2021 4:30:00 AM 15.11 59.198 0.146 7.21 15.42 9.23
9/24/2021 4:45:00 AM 15.04 59.072 0.147 7.27 15.16 9.24
9/24/2021 5:00:00 AM 14.97 58.946 0.147 7.26 14.48 9.26
9/24/2021 5:15:00 AM 14.9 58.82 0.148 7.27 14.31 9.28
9/24/2021 5:30:00 AM 14.83 58.694 0.148 7.28 14.42 9.3
9/24/2021 5:45:00 AM 14.76 58.568 0.149 7.28 14.21 9.3
9/24/2021 6:00:00 AM 14.69 58.442 0.149 7.27 13.8 9.33
9/24/2021 6:15:00 AM 14.62 58.316 0.15 7.27 14.07 9.34
9/24/2021 6:30:00 AM 14.55 58.19 0.15 7.3 13.19 9.36
9/24/2021 6:45:00 AM 14.48 58.064 0.15 7.3 13.3 9.37
9/24/2021 7:00:00 AM 14.42 57.956 0.151 7.28 12.48 9.39
9/24/2021 7:15:00 AM 14.36 57.848 0.151 7.31 12.33 9.4
9/24/2021 7:30:00 AM 14.3 57.74 0.151 7.3 11.56 9.42
9/24/2021 7:45:00 AM 14.24 57.632 0.151 7.31 11.01 9.44
9/24/2021 8:00:00 AM 14.19 57.542 0.152 7.29 10.56 9.45
9/24/2021 8:15:00 AM 14.14 57.452 0.152 7.3 10.4 9.47
9/24/2021 8:30:00 AM 14.11 57.398 0.152 7.33 10 9.48
9/24/2021 8:45:00 AM 14.08 57.344 0.152 7.34 9.81 9.5
9/24/2021 9:00:00 AM 14.07 57.326 0.153 7.34 9.03 9.51
9/24/2021 9:15:00 AM 14.07 57.326 0.153 7.35 8.08 9.53
9/24/2021 9:30:00 AM 14.08 57.344 0.153 7.36 7.68 9.55
9/24/2021 9:45:00 AM 14.1 57.38 0.153 7.34 7.51 9.57
9/24/2021 10:00:00 AM 14.14 57.452 0.153 7.35 7.15 9.59
9/24/2021 10:15:00 AM 14.19 57.542 0.154 7.37 6.91 9.62
9/24/2021 10:30:00 AM 14.23 57.614 0.154 7.39 6.89 9.63
9/24/2021 10:45:00 AM 14.28 57.704 0.154 7.38 6.92 9.66
9/24/2021 11:00:00 AM 14.36 57.848 0.154 7.41 6.34 9.69
9/24/2021 11:15:00 AM 14.45 58.01 0.154 7.41 6.23 9.7
9/24/2021 11:30:00 AM 14.53 58.154 0.155 7.43 6.26 9.73
9/24/2021 11:45:00 AM 14.62 58.316 0.155 7.43 6.22 9.74
9/24/2021 12:00:00 PM 14.68 58.424 0.155 7.45 5.95 9.73
9/24/2021 12:15:00 PM 14.74 58.532 0.156 7.46 5.9 9.72
9/24/2021 12:30:00 PM 14.79 58.622 0.156 7.42 5.48 9.73
9/24/2021 12:45:00 PM 14.84 58.712 0.156 7.47 5.23 9.73
9/24/2021 1:00:00 PM 14.94 58.892 0.156 7.42 5.58 9.75
9/24/2021 1:15:00 PM 15.04 59.072 0.157 7.48 5.56 9.75
9/24/2021 1:30:00 PM 15.14 59.252 0.157 7.48 5.05 9.76
9/24/2021 1:45:00 PM 15.2 59.36 0.157 7.46 5.1 9.76
9/24/2021 2:00:00 PM 15.31 59.558 0.158 7.48 4.94 9.77
9/24/2021 2:15:00 PM 15.34 59.612 0.158 7.47 4.61 9.75
9/24/2021 2:30:00 PM 15.36 59.648 0.158 7.49 4.99 9.72
9/24/2021 2:45:00 PM 15.42 59.756 0.158 7.49 4.66 9.71
9/24/2021 3:00:00 PM 15.43 59.774 0.159 7.48 4.59 9.71
9/24/2021 3:15:00 PM 15.43 59.774 0.159 7.47 4.54 9.69
9/24/2021 3:30:00 PM 15.4 59.72 0.159 7.49 4.66 9.67
9/24/2021 3:45:00 PM 15.39 59.702 0.16 7.48 4.48 9.66
9/24/2021 4:00:00 PM 15.36 59.648 0.16 7.49 4.99 9.63
9/24/2021 4:15:00 PM 15.35 59.63 0.16 7.49 4.26 9.6
9/24/2021 4:30:00 PM 15.38 59.684 0.16 7.49 4.45 9.57
9/24/2021 4:45:00 PM 15.37 59.666 0.161 7.45 4.34 9.53
9/24/2021 5:00:00 PM 15.36 59.648 0.161 7.47 4.21 9.5
9/24/2021 5:15:00 PM 15.36 59.648 0.161 7.45 4.62 9.47
9/24/2021 5:30:00 PM 15.36 59.648 0.162 7.47 4.57 9.46
9/24/2021 5:45:00 PM 15.33 59.594 0.162 7.47 4.44 9.43
9/24/2021 6:00:00 PM 15.31 59.558 0.162 7.44 4.27 9.41
9/24/2021 6:15:00 PM 15.28 59.504 0.163 7.43 4.68 9.39
9/24/2021 6:30:00 PM 15.24 59.432 0.164 7.46 5.59 9.37
9/24/2021 6:45:00 PM 15.2 59.36 0.164 7.45 5.99 9.36
9/24/2021 7:00:00 PM 15.16 59.288 0.164 7.45 5.93 9.36
9/24/2021 7:15:00 PM 15.13 59.234 0.164 7.44 6.02 9.35
9/24/2021 7:30:00 PM 15.09 59.162 0.164 7.44 6.66 9.34
9/24/2021 7:45:00 PM 15.06 59.108 0.164 7.44 7.81 9.33
9/24/2021 8:00:00 PM 15.02 59.036 0.165 7.44 8.91 9.33
9/24/2021 8:15:00 PM 14.99 58.982 0.165 7.44 9.84 9.33
9/24/2021 8:30:00 PM 14.95 58.91 0.165 7.44 10.9 9.33
9/24/2021 8:45:00 PM 14.92 58.856 0.165 7.44 12.02 9.33
9/24/2021 9:00:00 PM 14.88 58.784 0.165 7.43 12.17 9.34
9/24/2021 9:15:00 PM 14.84 58.712 0.165 7.43 13.69 9.35
9/24/2021 9:30:00 PM 14.79 58.622 0.166 7.44 14.29 9.36
9/24/2021 9:45:00 PM 14.75 58.55 0.166 7.43 14.59 9.36
9/24/2021 10:00:00 PM 14.7 58.46 0.166 7.43 15.42 9.37
9/24/2021 10:15:00 PM 14.66 58.388 0.166 7.43 15.37 9.38
9/24/2021 10:30:00 PM 14.61 58.298 0.166 7.43 15.45 9.39
9/24/2021 10:45:00 PM 14.57 58.226 0.167 7.43 18.2 9.4
9/24/2021 11:00:00 PM 14.52 58.136 0.167 7.44 16.3 9.41
9/24/2021 11:15:00 PM 14.48 58.064 0.167 7.42 16.87 9.41
9/24/2021 11:30:00 PM 14.44 57.992 0.167 7.43 19.73 9.42
9/24/2021 11:45:00 PM 14.39 57.902 0.168 7.43 18.67 9.43
9/25/2021 12:00:00 AM 14.35 57.83 0.168 7.43 18.01 9.44
9/25/2021 12:15:00 AM 14.31 57.758 0.168 7.43 17.83 9.44
9/25/2021 12:30:00 AM 14.27 57.686 0.169 7.43 18.3 9.44
9/25/2021 12:45:00 AM 14.22 57.596 0.169 7.44 17.36 9.45
9/25/2021 1:00:00 AM 14.18 57.524 0.169 7.44 19.52 9.46
9/25/2021 1:15:00 AM 14.13 57.434 0.169 7.44 13.57 9.48
9/25/2021 1:30:00 AM 14.08 57.344 0.169 7.44 15.57 9.49
9/25/2021 1:45:00 AM 14.03 57.254 0.17 7.43 17.81 9.5
9/25/2021 2:00:00 AM 13.99 57.182 0.17 7.44 18.18 9.51
9/25/2021 2:15:00 AM 13.94 57.092 0.17 7.44 18.33 9.52
9/25/2021 2:30:00 AM 13.89 57.002 0.17 7.43 17.83 9.53
9/25/2021 2:45:00 AM 13.83 56.894 0.17 7.44 17.79 9.55
9/25/2021 3:00:00 AM 13.78 56.804 0.171 7.44 19.37 9.56
9/25/2021 3:15:00 AM 13.73 56.714 0.171 7.44 18.43 9.57
9/25/2021 3:30:00 AM 13.68 56.624 0.171 7.42 16.99 9.58
9/25/2021 3:45:00 AM 13.63 56.534 0.171 7.42 15.09 9.59
9/25/2021 4:00:00 AM 13.57 56.426 0.172 7.42 14.36 9.6
9/25/2021 4:15:00 AM 13.52 56.336 0.172 7.42 12.58 9.61
9/25/2021 4:30:00 AM 13.47 56.246 0.172 7.43 12.61 9.62
9/25/2021 4:45:00 AM 13.42 56.156 0.172 7.42 11.62 9.63
9/25/2021 5:00:00 AM 13.36 56.048 0.172 7.43 10.41 9.65
9/25/2021 5:15:00 AM 13.31 55.958 0.172 7.43 9.49 9.67
9/25/2021 5:30:00 AM 13.27 55.886 0.173 7.43 9.14 9.68
9/25/2021 5:45:00 AM 13.22 55.796 0.173 7.43 8.72 9.68
9/25/2021 6:00:00 AM 13.17 55.706 0.173 7.43 8.2 9.7
9/25/2021 6:15:00 AM 13.12 55.616 0.173 7.43 8.11 9.71
9/25/2021 6:30:00 AM 13.08 55.544 0.173 7.43 7.36 9.72
9/25/2021 6:45:00 AM 13.03 55.454 0.173 7.42 7 9.74
9/25/2021 7:00:00 AM 12.98 55.364 0.174 7.43 6.65 9.75
9/25/2021 7:15:00 AM 12.94 55.292 0.174 7.43 6.21 9.76
9/25/2021 7:30:00 AM 12.9 55.22 0.174 7.43 6.19 9.78
9/25/2021 7:45:00 AM 12.86 55.148 0.174 7.44 5.79 9.8
9/25/2021 8:00:00 AM 12.83 55.094 0.174 7.44 5.58 9.82
9/25/2021 8:15:00 AM 12.81 55.058 0.174 7.45 5.32 9.86
9/25/2021 8:30:00 AM 12.79 55.022 0.175 7.45 5.08 9.88
9/25/2021 8:45:00 AM 12.78 55.004 0.175 7.46 4.93 9.91
9/25/2021 9:00:00 AM 12.77 54.986 0.175 7.47 4.55 9.94
9/25/2021 9:15:00 AM 12.76 54.968 0.175 7.47 4.54 9.95
9/25/2021 9:30:00 AM 12.78 55.004 0.175 7.49 4.17 9.98
9/25/2021 9:45:00 AM 12.8 55.04 0.175 7.5 3.82 10
9/25/2021 10:00:00 AM 12.85 55.13 0.175 7.5 4.09 10.03
9/25/2021 10:15:00 AM 12.91 55.238 0.175 7.51 4.1 10.04
9/25/2021 10:30:00 AM 12.99 55.382 0.175 7.52 3.77 10.07
9/25/2021 10:45:00 AM 13.08 55.544 0.175 7.53 3.62 10.08
9/25/2021 11:00:00 AM 13.19 55.742 0.175 7.53 4.68 10.09
9/25/2021 11:15:00 AM 13.31 55.958 0.175 7.54 3.64 10.1
9/25/2021 11:30:00 AM 13.46 56.228 0.175 7.56 3.37 10.11
9/25/2021 11:45:00 AM 13.62 56.516 0.175 7.57 3.25 10.11
9/25/2021 12:00:00 PM 13.78 56.804 0.175 7.57 3.22 10.12
9/25/2021 12:15:00 PM 13.98 57.164 0.175 7.58 3.24 10.13
9/25/2021 12:30:00 PM 14.17 57.506 0.175 7.6 3.1 10.12
9/25/2021 12:45:00 PM 14.37 57.866 0.175 7.61 3.28 10.12
9/25/2021 1:00:00 PM 14.55 58.19 0.175 7.6 2.96 10.11
9/25/2021 1:15:00 PM 14.74 58.532 0.175 7.62 3.2 10.11
9/25/2021 1:30:00 PM 14.91 58.838 0.175 7.64 2.99 10.1
9/25/2021 1:45:00 PM 15.05 59.09 0.175 7.64 2.89 10.09
9/25/2021 2:00:00 PM 15.16 59.288 0.175 7.66 2.84 10.07
9/25/2021 2:15:00 PM 15.25 59.45 0.175 7.65 2.89 10.05
9/25/2021 2:30:00 PM 15.31 59.558 0.175 7.66 3.06 10.03
9/25/2021 2:45:00 PM 15.33 59.594 0.175 7.66 2.93 10
9/25/2021 3:00:00 PM 15.38 59.684 0.175 7.67 2.82 9.99
9/25/2021 3:15:00 PM 15.38 59.684 0.175 7.66 2.94 9.95
9/25/2021 3:30:00 PM 15.37 59.666 0.175 7.66 2.94 9.92
9/25/2021 3:45:00 PM 15.36 59.648 0.175 7.65 2.85 9.88
9/25/2021 4:00:00 PM 15.36 59.648 0.175 7.66 3.05 9.84
9/25/2021 4:15:00 PM 15.33 59.594 0.175 7.64 2.8 9.8
9/25/2021 4:30:00 PM 15.3 59.54 0.175 7.64 2.92 9.75
9/25/2021 4:45:00 PM 15.26 59.468 0.175 7.63 2.75 9.72
9/25/2021 5:00:00 PM 15.22 59.396 0.175 7.62 2.86 9.7
9/25/2021 5:15:00 PM 15.17 59.306 0.175 7.62 2.85 9.68
9/25/2021 5:30:00 PM 15.12 59.216 0.175 7.6 2.87 9.67
9/25/2021 5:45:00 PM 15.08 59.144 0.175 7.58 2.84 9.65
9/25/2021 6:00:00 PM 15.06 59.108 0.175 7.6 2.86 9.63
9/25/2021 6:15:00 PM 15.03 59.054 0.175 7.59 2.91 9.59
9/25/2021 6:30:00 PM 15 59 0.175 7.58 3.25 9.56
9/25/2021 6:45:00 PM 14.97 58.946 0.175 7.57 2.96 9.52
9/25/2021 7:00:00 PM 14.93 58.874 0.175 7.55 3.11 9.49
9/25/2021 7:15:00 PM 14.88 58.784 0.174 7.55 3.22 9.46
9/25/2021 7:30:00 PM 14.83 58.694 0.174 7.55 3.28 9.44
9/25/2021 7:45:00 PM 14.79 58.622 0.174 7.54 3.27 9.42
9/25/2021 8:00:00 PM 14.75 58.55 0.174 7.53 3.4 9.41
9/25/2021 8:15:00 PM 14.72 58.496 0.174 7.53 3.44 9.4
9/25/2021 8:30:00 PM 14.69 58.442 0.174 7.51 3.19 9.39
9/25/2021 8:45:00 PM 14.66 58.388 0.174 7.52 3.44 9.39
9/25/2021 9:00:00 PM 14.64 58.352 0.174 7.51 3.31 9.38
9/25/2021 9:15:00 PM 14.61 58.298 0.174 7.5 3.37 9.38
9/25/2021 9:30:00 PM 14.59 58.262 0.174 7.51 3.46 9.38
9/25/2021 9:45:00 PM 14.57 58.226 0.174 7.5 3.9 9.39
9/25/2021 10:00:00 PM 14.55 58.19 0.174 7.5 4 9.38
9/25/2021 10:15:00 PM 14.53 58.154 0.173 7.5 3.96 9.38
9/25/2021 10:30:00 PM 14.52 58.136 0.173 7.49 4.11 9.39
9/25/2021 10:45:00 PM 14.51 58.118 0.173 7.47 4.16 9.39
9/25/2021 11:00:00 PM 14.5 58.1 0.173 7.48 4.64 9.39
9/25/2021 11:15:00 PM 14.5 58.1 0.173 7.48 4.2 9.39
9/25/2021 11:30:00 PM 14.5 58.1 0.173 7.48 4.14 9.39
9/25/2021 11:45:00 PM 14.51 58.118 0.173 7.47 4.29 9.39
9/26/2021 12:00:00 AM 14.51 58.118 0.173 7.48 4.01 9.39
9/26/2021 12:15:00 AM 14.52 58.136 0.173 7.48 4.4 9.39
9/26/2021 12:30:00 AM 14.52 58.136 0.173 7.49 4.09 9.38
9/26/2021 12:45:00 AM 14.52 58.136 0.173 7.47 3.88 9.38
9/26/2021 1:00:00 AM 14.52 58.136 0.173 7.49 3.85 9.38
9/26/2021 1:15:00 AM 14.52 58.136 0.173 7.48 4.37 9.38
9/26/2021 1:30:00 AM 14.51 58.118 0.173 7.48 3.84 9.38
9/26/2021 1:45:00 AM 14.51 58.118 0.173 7.49 3.86 9.38
9/26/2021 2:00:00 AM 14.5 58.1 0.173 7.49 3.87 9.38
9/26/2021 2:15:00 AM 14.49 58.082 0.173 7.48 4.12 9.37
9/26/2021 2:30:00 AM 14.48 58.064 0.172 7.49 4.24 9.38
9/26/2021 2:45:00 AM 14.47 58.046 0.172 7.49 4.37 9.38
9/26/2021 3:00:00 AM 14.46 58.028 0.172 7.49 4.74 9.39
9/26/2021 3:15:00 AM 14.44 57.992 0.172 7.48 4.83 9.39
9/26/2021 3:30:00 AM 14.42 57.956 0.172 7.48 4.78 9.39
9/26/2021 3:45:00 AM 14.4 57.92 0.172 7.48 4.8 9.39
9/26/2021 4:00:00 AM 14.38 57.884 0.172 7.48 4.51 9.4
9/26/2021 4:15:00 AM 14.36 57.848 0.171 7.48 4.49 9.41
9/26/2021 4:30:00 AM 14.33 57.794 0.171 7.48 4.31 9.42
9/26/2021 4:45:00 AM 14.29 57.722 0.171 7.49 4.27 9.42
9/26/2021 5:00:00 AM 14.25 57.65 0.171 7.48 4.25 9.43
9/26/2021 5:15:00 AM 14.21 57.578 0.171 7.48 4.25 9.43
9/26/2021 5:30:00 AM 14.15 57.47 0.171 7.48 4.08 9.44
9/26/2021 5:45:00 AM 14.1 57.38 0.17 7.47 3.97 9.46
9/26/2021 6:00:00 AM 14.05 57.29 0.17 7.48 3.78 9.47
9/26/2021 6:15:00 AM 14 57.2 0.17 7.48 3.72 9.48
9/26/2021 6:30:00 AM 13.95 57.11 0.17 7.48 3.75 9.49
9/26/2021 6:45:00 AM 13.9 57.02 0.17 7.48 3.4 9.5
9/26/2021 7:00:00 AM 13.86 56.948 0.17 7.48 3.21 9.51
9/26/2021 7:15:00 AM 13.82 56.876 0.17 7.48 3.35 9.52
9/26/2021 7:30:00 AM 13.79 56.822 0.169 7.48 3.01 9.54
9/26/2021 7:45:00 AM 13.76 56.768 0.169 7.49 3.14 9.56
9/26/2021 8:00:00 AM 13.73 56.714 0.169 7.48 3 9.59
9/26/2021 8:15:00 AM 13.71 56.678 0.169 7.48 2.74 9.62
9/26/2021 8:30:00 AM 13.69 56.642 0.169 7.49 2.66 9.67
9/26/2021 8:45:00 AM 13.67 56.606 0.168 7.5 2.47 9.7
9/26/2021 9:00:00 AM 13.66 56.588 0.168 7.51 2.44 9.75
9/26/2021 9:15:00 AM 13.64 56.552 0.168 7.51 2.43 9.76
9/26/2021 9:30:00 AM 13.64 56.552 0.168 7.52 2.38 9.78
9/26/2021 9:45:00 AM 13.65 56.57 0.168 7.52 2.2 9.79
9/26/2021 10:00:00 AM 13.68 56.624 0.168 7.52 2.25 9.82
9/26/2021 10:15:00 AM 13.73 56.714 0.168 7.53 3 9.84
9/26/2021 10:30:00 AM 13.79 56.822 0.168 7.54 1.87 9.87
9/26/2021 10:45:00 AM 13.86 56.948 0.168 7.56 1.76 9.9
9/26/2021 11:00:00 AM 13.95 57.11 0.168 7.56 1.85 9.94
9/26/2021 11:15:00 AM 14.03 57.254 0.168 7.57 1.77 9.97
9/26/2021 11:30:00 AM 14.14 57.452 0.168 7.59 1.72 10
9/26/2021 11:45:00 AM 14.26 57.668 0.168 7.6 1.59 10.03
9/26/2021 12:00:00 PM 14.39 57.902 0.168 7.62 1.58 10.04
9/26/2021 12:15:00 PM 14.52 58.136 0.168 7.63 1.55 10.06
9/26/2021 12:30:00 PM 14.67 58.406 0.168 7.64 1.55 10.07
9/26/2021 12:45:00 PM 14.84 58.712 0.168 7.65 1.52 10.09
9/26/2021 1:00:00 PM 14.9 58.82 0.168 7.67 1.62 10.06
9/26/2021 1:15:00 PM 15.08 59.144 0.168 7.68 1.44 10.1
9/26/2021 1:30:00 PM 15.13 59.234 0.168 7.69 1.5 10.07
9/26/2021 1:45:00 PM 15.29 59.522 0.168 7.7 1.46 10.09
9/26/2021 2:00:00 PM 15.38 59.684 0.168 7.71 1.41 10.08
9/26/2021 2:15:00 PM 15.37 59.666 0.168 7.71 1.34 10.02
9/26/2021 2:30:00 PM 15.43 59.774 0.167 7.71 1.28 9.99
9/26/2021 2:45:00 PM 15.4 59.72 0.167 7.72 1.34 9.98
9/26/2021 3:00:00 PM 15.38 59.684 0.167 7.7 1.26 9.94
9/26/2021 3:15:00 PM 15.37 59.666 0.167 7.71 1.31 9.92
9/26/2021 3:30:00 PM 15.37 59.666 0.167 7.71 1.25 9.93
9/26/2021 3:45:00 PM 15.36 59.648 0.167 7.71 1.49 9.91
9/26/2021 4:00:00 PM 15.34 59.612 0.167 7.7 1.19 9.88
9/26/2021 4:15:00 PM 15.31 59.558 0.167 7.7 1.33 9.88
9/26/2021 4:30:00 PM 15.26 59.468 0.168 7.7 1.3 9.83
9/26/2021 4:45:00 PM 15.2 59.36 0.168 7.68 1.36 9.79
9/26/2021 5:00:00 PM 15.12 59.216 0.168 7.67 1.44 9.75
9/26/2021 5:15:00 PM 15.06 59.108 0.168 7.66 1.5 9.72
9/26/2021 5:30:00 PM 15.02 59.036 0.168 7.65 1.52 9.68
9/26/2021 5:45:00 PM 14.97 58.946 0.168 7.63 1.5 9.64
9/26/2021 6:00:00 PM 14.91 58.838 0.168 7.63 1.54 9.6
9/26/2021 6:15:00 PM 14.85 58.73 0.168 7.62 1.68 9.57
9/26/2021 6:30:00 PM 14.79 58.622 0.168 7.6 1.68 9.54
9/26/2021 6:45:00 PM 14.73 58.514 0.168 7.59 1.81 9.52
9/26/2021 7:00:00 PM 14.67 58.406 0.168 7.57 1.63 9.5
9/26/2021 7:15:00 PM 14.61 58.298 0.168 7.56 1.78 9.49
9/26/2021 7:30:00 PM 14.55 58.19 0.169 7.56 1.93 9.48
9/26/2021 7:45:00 PM 14.5 58.1 0.169 7.55 1.89 9.47
9/26/2021 8:00:00 PM 14.45 58.01 0.169 7.53 2.12 9.46
9/26/2021 8:15:00 PM 14.39 57.902 0.169 7.54 1.98 9.46
9/26/2021 8:30:00 PM 14.33 57.794 0.169 7.53 2.21 9.46
9/26/2021 8:45:00 PM 14.28 57.704 0.169 7.53 2.08 9.46
9/26/2021 9:00:00 PM 14.23 57.614 0.169 7.52 2.05 9.47
9/26/2021 9:15:00 PM 14.18 57.524 0.169 7.52 1.99 9.47
9/26/2021 9:30:00 PM 14.14 57.452 0.169 7.5 1.98 9.48
9/26/2021 9:45:00 PM 14.09 57.362 0.169 7.5 1.92 9.48
9/26/2021 10:00:00 PM 14.05 57.29 0.169 7.51 1.94 9.49
9/26/2021 10:15:00 PM 14.01 57.218 0.169 7.51 1.82 9.5
9/26/2021 10:30:00 PM 13.96 57.128 0.169 7.51 1.97 9.5
9/26/2021 10:45:00 PM 13.92 57.056 0.169 7.5 1.94 9.51
9/26/2021 11:00:00 PM 13.87 56.966 0.169 7.5 1.98 9.51
9/26/2021 11:15:00 PM 13.83 56.894 0.169 7.49 2.41 9.52
9/26/2021 11:30:00 PM 13.78 56.804 0.169 7.5 2.28 9.53
9/26/2021 11:45:00 PM 13.73 56.714 0.169 7.49 2.59 9.53
9/27/2021 12:00:00 AM 13.69 56.642 0.169 7.5 2.19 9.54
9/27/2021 12:15:00 AM 13.65 56.57 0.169 7.49 2.3 9.55
9/27/2021 12:30:00 AM 13.6 56.48 0.169 7.48 2.2 9.56
9/27/2021 12:45:00 AM 13.57 56.426 0.169 7.49 2.33 9.57
9/27/2021 1:00:00 AM 13.54 56.372 0.169 7.49 2.24 9.58
9/27/2021 1:15:00 AM 13.52 56.336 0.169 7.49 2.19 9.58
9/27/2021 1:30:00 AM 13.49 56.282 0.169 7.49 2.42 9.59
9/27/2021 1:45:00 AM 13.47 56.246 0.169 7.49 2.38 9.6
9/27/2021 2:00:00 AM 13.46 56.228 0.169 7.49 2.44 9.6
9/27/2021 2:15:00 AM 13.44 56.192 0.169 7.49 2.63 9.61
9/27/2021 2:30:00 AM 13.43 56.174 0.169 7.48 2.83 9.61
9/27/2021 2:45:00 AM 13.42 56.156 0.169 7.48 2.94 9.61
9/27/2021 3:00:00 AM 13.41 56.138 0.169 7.48 2.89 9.61
9/27/2021 3:15:00 AM 13.4 56.12 0.169 7.49 3.02 9.62
9/27/2021 3:30:00 AM 13.39 56.102 0.169 7.49 3.16 9.62
9/27/2021 3:45:00 AM 13.39 56.102 0.169 7.48 3.37 9.62
9/27/2021 4:00:00 AM 13.39 56.102 0.169 7.49 3.51 9.62
9/27/2021 4:15:00 AM 13.38 56.084 0.169 7.49 3.6 9.62
9/27/2021 4:30:00 AM 13.38 56.084 0.169 7.48 3.85 9.62
9/27/2021 4:45:00 AM 13.38 56.084 0.169 7.49 4.01 9.62
9/27/2021 5:00:00 AM 13.37 56.066 0.17 7.48 3.74 9.62
9/27/2021 5:15:00 AM 13.36 56.048 0.17 7.49 3.85 9.62
9/27/2021 5:30:00 AM 13.36 56.048 0.17 7.48 3.62 9.62
9/27/2021 5:45:00 AM 13.35 56.03 0.17 7.48 3.54 9.63
9/27/2021 6:00:00 AM 13.34 56.012 0.17 7.48 3.31 9.63
9/27/2021 6:15:00 AM 13.33 55.994 0.17 7.49 3.31 9.63
9/27/2021 6:30:00 AM 13.33 55.994 0.17 7.48 3.44 9.64
9/27/2021 6:45:00 AM 13.32 55.976 0.17 7.48 3.4 9.64
9/27/2021 7:00:00 AM 13.31 55.958 0.169 7.48 3.48 9.65
9/27/2021 7:15:00 AM 13.3 55.94 0.169 7.49 3.4 9.65
9/27/2021 7:30:00 AM 13.29 55.922 0.169 7.48 3.26 9.65
9/27/2021 7:45:00 AM 13.27 55.886 0.168 7.48 3.28 9.67
9/27/2021 8:00:00 AM 13.26 55.868 0.168 7.48 3.35 9.68
9/27/2021 8:15:00 AM 13.25 55.85 0.167 7.48 3.39 9.68
9/27/2021 8:30:00 AM 13.24 55.832 0.167 7.47 3.22 9.69
9/27/2021 8:45:00 AM 13.24 55.832 0.167 7.48 3.25 9.7
9/27/2021 9:00:00 AM 13.25 55.85 0.167 7.47 2.9 9.72
9/27/2021 9:15:00 AM 13.25 55.85 0.167 7.48 2.86 9.75
9/27/2021 9:30:00 AM 13.27 55.886 0.166 7.48 2.66 9.79
9/27/2021 9:45:00 AM 13.3 55.94 0.166 7.49 2.5 9.86
9/27/2021 10:00:00 AM 13.34 56.012 0.166 7.51 2.42 9.92
9/27/2021 10:15:00 AM 13.39 56.102 0.166 7.52 2.26 9.99
9/27/2021 10:30:00 AM 13.43 56.174 0.166 7.53 2.16 10.04
9/27/2021 10:45:00 AM 13.48 56.264 0.166 7.55 1.91 10.09
9/27/2021 11:00:00 AM 13.6 56.48 0.165 7.56 1.88 10.15
9/27/2021 11:15:00 AM 13.71 56.678 0.165 7.58 1.71 10.2
9/27/2021 11:30:00 AM 13.83 56.894 0.165 7.61 1.65 10.25
9/27/2021 11:45:00 AM 13.93 57.074 0.165 7.62 1.55 10.26
9/27/2021 12:00:00 PM 14.08 57.344 0.165 7.64 1.51 10.27
9/27/2021 12:15:00 PM 14.24 57.632 0.165 7.65 1.45 10.29
9/27/2021 12:30:00 PM 14.39 57.902 0.165 7.67 1.4 10.3
9/27/2021 12:45:00 PM 14.55 58.19 0.165 7.69 1.36 10.32
9/27/2021 1:00:00 PM 14.73 58.514 0.165 7.71 1.49 10.33
9/27/2021 1:15:00 PM 14.89 58.802 0.165 7.73 1.5 10.33
9/27/2021 1:30:00 PM 15.04 59.072 0.165 7.74 1.22 10.33
9/27/2021 1:45:00 PM 15.16 59.288 0.165 7.75 1.87 10.31
9/27/2021 2:00:00 PM 15.21 59.378 0.165 7.77 1.21 10.28
9/27/2021 2:15:00 PM 15.27 59.486 0.164 7.78 1.31 10.25
9/27/2021 2:30:00 PM 15.31 59.558 0.164 7.78 1.12 10.22
9/27/2021 2:45:00 PM 15.36 59.648 0.164 7.79 1.2 10.19
9/27/2021 3:00:00 PM 15.37 59.666 0.164 7.79 1.07 10.17
9/27/2021 3:15:00 PM 15.38 59.684 0.164 7.78 1.02 10.14
9/27/2021 3:30:00 PM 15.38 59.684 0.164 7.78 1.13 10.12
9/27/2021 3:45:00 PM 15.39 59.702 0.164 7.78 1.02 10.09
9/27/2021 4:00:00 PM 15.39 59.702 0.164 7.78 1.04 10.07
9/27/2021 4:15:00 PM 15.39 59.702 0.165 7.77 1.07 10.03
9/27/2021 4:30:00 PM 15.39 59.702 0.165 7.76 1.02 9.99
9/27/2021 4:45:00 PM 15.37 59.666 0.165 7.75 0.99 9.95
9/27/2021 5:00:00 PM 15.34 59.612 0.165 7.73 0.94 9.91
9/27/2021 5:15:00 PM 15.3 59.54 0.166 7.72 1.02 9.86
9/27/2021 5:30:00 PM 15.26 59.468 0.166 7.71 0.98 9.82
9/27/2021 5:45:00 PM 15.23 59.414 0.166 7.7 0.95 9.77
9/27/2021 6:00:00 PM 15.2 59.36 0.166 7.68 1.03 9.72
9/27/2021 6:15:00 PM 15.18 59.324 0.167 7.66 0.98 9.66
9/27/2021 6:30:00 PM 15.16 59.288 0.167 7.64 1.04 9.6
9/27/2021 6:45:00 PM 15.14 59.252 0.167 7.62 1.06 9.54
9/27/2021 7:00:00 PM 15.12 59.216 0.167 7.6 1.06 9.49
9/27/2021 7:15:00 PM 15.09 59.162 0.167 7.59 1.16 9.44
9/27/2021 7:30:00 PM 15.05 59.09 0.167 7.58 1.34 9.4
9/27/2021 7:45:00 PM 15.02 59.036 0.167 7.57 1.4 9.37
9/27/2021 8:00:00 PM 14.99 58.982 0.167 7.55 1.69 9.35
9/27/2021 8:15:00 PM 14.96 58.928 0.167 7.54 1.53 9.33
9/27/2021 8:30:00 PM 14.94 58.892 0.167 7.53 1.38 9.32
9/27/2021 8:45:00 PM 14.91 58.838 0.167 7.52 1.41 9.31
9/27/2021 9:00:00 PM 14.89 58.802 0.167 7.51 1.43 9.31
9/27/2021 9:15:00 PM 14.87 58.766 0.167 7.51 1.5 9.31
9/27/2021 9:30:00 PM 14.85 58.73 0.167 7.5 1.38 9.3
9/27/2021 9:45:00 PM 14.83 58.694 0.166 7.49 1.41 9.3
9/27/2021 10:00:00 PM 14.82 58.676 0.166 7.48 1.32 9.29
9/27/2021 10:15:00 PM 14.8 58.64 0.166 7.48 1.43 9.3
9/27/2021 10:30:00 PM 14.78 58.604 0.166 7.47 3.03 9.29
9/27/2021 10:45:00 PM 14.76 58.568 0.166 7.48 1.56 9.29
9/27/2021 11:00:00 PM 14.74 58.532 0.166 7.48 1.63 9.29
9/27/2021 11:15:00 PM 14.73 58.514 0.165 7.46 1.67 9.29
9/27/2021 11:30:00 PM 14.72 58.496 0.165 7.47 1.98 9.29
9/27/2021 11:45:00 PM 14.71 58.478 0.165 7.46 2.2 9.29
9/28/2021 12:00:00 AM 14.7 58.46 0.165 7.46 2.28 9.29
9/28/2021 12:15:00 AM 14.7 58.46 0.165 7.46 2.89 9.29
9/28/2021 12:30:00 AM 14.71 58.478 0.164 7.47 2.77 9.29
9/28/2021 12:45:00 AM 14.7 58.46 0.164 7.46 3.09 9.28
9/28/2021 1:00:00 AM 14.7 58.46 0.164 7.46 3.38 9.28
9/28/2021 1:15:00 AM 14.69 58.442 0.164 7.47 3.29 9.28
9/28/2021 1:30:00 AM 14.69 58.442 0.164 7.45 3.57 9.28
9/28/2021 1:45:00 AM 14.68 58.424 0.164 7.43 3.88 9.26
9/28/2021 2:00:00 AM 14.68 58.424 0.164 7.45 3.46 9.28
9/28/2021 2:15:00 AM 14.67 58.406 0.164 7.42 3.37 9.28
9/28/2021 2:30:00 AM 14.67 58.406 0.165 7.41 3.38 9.28
9/28/2021 2:45:00 AM 14.66 58.388 0.165 7.44 3.45 9.27
9/28/2021 3:00:00 AM 14.66 58.388 0.165 7.41 3.23 9.27
9/28/2021 3:15:00 AM 14.67 58.406 0.165 7.43 3.32 9.27
9/28/2021 3:30:00 AM 14.67 58.406 0.165 7.45 3.03 9.27
9/28/2021 3:45:00 AM 14.67 58.406 0.165 7.39 3.22 9.27
9/28/2021 4:00:00 AM 14.67 58.406 0.166 7.45 3.47 9.27
9/28/2021 4:15:00 AM 14.66 58.388 0.166 7.43 2.97 9.27
9/28/2021 4:30:00 AM 14.66 58.388 0.166 7.41 2.91 9.26
9/28/2021 4:45:00 AM 14.64 58.352 0.166 7.45 2.98 9.26
9/28/2021 5:00:00 AM 14.63 58.334 0.166 7.4 2.73 9.27
9/28/2021 5:15:00 AM 14.61 58.298 0.166 7.44 3.15 9.27
9/28/2021 5:30:00 AM 14.6 58.28 0.166 7.44 2.67 9.27
9/28/2021 5:45:00 AM 14.58 58.244 0.167 7.43 2.56 9.27
9/28/2021 6:00:00 AM 14.56 58.208 0.167 7.44 2.72 9.27
9/28/2021 6:15:00 AM 14.55 58.19 0.167 7.43 2.48 9.27
9/28/2021 6:30:00 AM 14.54 58.172 0.167 7.43 2.61 9.27
9/28/2021 6:45:00 AM 14.53 58.154 0.167 7.43 2.77 9.27
9/28/2021 7:00:00 AM 14.52 58.136 0.167 7.41 2.66 9.27
9/28/2021 7:15:00 AM 14.5 58.1 0.167 7.41 2.71 9.27
9/28/2021 7:30:00 AM 14.5 58.1 0.167 7.44 2.63 9.29
9/28/2021 7:45:00 AM 14.5 58.1 0.167 7.43 2.56 9.31
9/28/2021 8:00:00 AM 14.49 58.082 0.167 7.43 2.56 9.31
9/28/2021 8:15:00 AM 14.49 58.082 0.167 7.44 2.7 9.32
9/28/2021 8:30:00 AM 14.48 58.064 0.167 7.44 2.52 9.32
9/28/2021 8:45:00 AM 14.47 58.046 0.164 7.45 4.31 9.39
9/28/2021 9:00:00 AM 14.47 58.046 0.164 7.44 4.21 9.4
9/28/2021 9:15:00 AM 14.47 58.046 0.163 7.43 6.39 9.39
9/28/2021 9:30:00 AM 14.46 58.028 0.163 7.44 6.05 9.38
9/28/2021 9:45:00 AM 14.46 58.028 0.163 7.43 6.31 9.39
9/28/2021 10:00:00 AM 14.45 58.01 0.16 7.43 21.53 9.4
9/28/2021 10:15:00 AM 14.45 58.01 0.158 7.41 30.64 9.39
9/28/2021 10:30:00 AM 14.46 58.028 0.159 7.43 21.1 9.4
9/28/2021 10:45:00 AM 14.47 58.046 0.16 7.42 13.56 9.43
9/28/2021 11:00:00 AM 14.49 58.082 0.161 7.45 8.91 9.46
9/28/2021 11:15:00 AM 14.51 58.118 0.162 7.46 6.39 9.52
9/28/2021 11:30:00 AM 14.54 58.172 0.162 7.47 5.08 9.6
9/28/2021 11:45:00 AM 14.63 58.334 0.162 7.49 4.16 9.72
9/28/2021 12:00:00 PM 14.69 58.442 0.161 7.5 3.81 9.81
9/28/2021 12:15:00 PM 14.77 58.586 0.16 7.54 3.47 9.89
9/28/2021 12:30:00 PM 14.83 58.694 0.159 7.55 3.48 9.95
9/28/2021 12:45:00 PM 14.94 58.892 0.158 7.58 3.58 10.02
9/28/2021 1:00:00 PM 15.06 59.108 0.158 7.62 3.69 10.08
9/28/2021 1:15:00 PM 15.23 59.414 0.158 7.62 3.52 10.15
9/28/2021 1:30:00 PM 15.34 59.612 0.158 7.66 3.55 10.16
9/28/2021 1:45:00 PM 15.42 59.756 0.157 7.69 3.24 10.16
9/28/2021 2:00:00 PM 15.44 59.792 0.157 7.7 3.51 10.14
9/28/2021 2:15:00 PM 15.5 59.9 0.157 7.72 3.34 10.14
9/28/2021 2:30:00 PM 15.5 59.9 0.156 7.71 3.05 10.06
9/28/2021 2:45:00 PM 15.58 60.044 0.156 7.71 2.76 10.05
9/28/2021 3:00:00 PM 15.63 60.134 0.156 7.72 2.85 10.04
9/28/2021 3:15:00 PM 15.62 60.116 0.156 7.72 2.79 10.02
9/28/2021 3:30:00 PM 15.62 60.116 0.157 7.71 3 9.99
9/28/2021 3:45:00 PM 15.63 60.134 0.157 7.73 2.57 9.97
9/28/2021 4:00:00 PM 15.59 60.062 0.158 7.71 2.57 9.92
9/28/2021 4:15:00 PM 15.57 60.026 0.158 7.71 2.37 9.9
9/28/2021 4:30:00 PM 15.5 59.9 0.159 7.69 2.37 9.81
9/28/2021 4:45:00 PM 15.4 59.72 0.159 7.69 2.62 9.76
9/28/2021 5:00:00 PM 15.3 59.54 0.16 7.67 2.25 9.73
9/28/2021 5:15:00 PM 15.21 59.378 0.16 7.65 2.09 9.73
9/28/2021 5:30:00 PM 15.12 59.216 0.161 7.64 1.97 9.69
9/28/2021 5:45:00 PM 15.04 59.072 0.161 7.62 1.84 9.66
9/28/2021 6:00:00 PM 14.97 58.946 0.161 7.62 1.87 9.63
9/28/2021 6:15:00 PM 14.91 58.838 0.162 7.61 1.94 9.61
9/28/2021 6:30:00 PM 14.85 58.73 0.162 7.6 1.71 9.59
9/28/2021 6:45:00 PM 14.78 58.604 0.162 7.59 1.79 9.56
9/28/2021 7:00:00 PM 14.71 58.478 0.162 7.58 1.54 9.53
9/28/2021 7:15:00 PM 14.63 58.334 0.162 7.58 1.84 9.51
9/28/2021 7:30:00 PM 14.55 58.19 0.162 7.56 1.83 9.5
9/28/2021 7:45:00 PM 14.47 58.046 0.162 7.56 2.08 9.48
9/28/2021 8:00:00 PM 14.4 57.92 0.162 7.55 2.01 9.47
9/28/2021 8:15:00 PM 14.33 57.794 0.163 7.54 1.97 9.47
9/28/2021 8:30:00 PM 14.26 57.668 0.163 7.53 2.06 9.47
9/28/2021 8:45:00 PM 14.19 57.542 0.163 7.53 1.85 9.47
9/28/2021 9:00:00 PM 14.13 57.434 0.163 7.52 2.03 9.48
9/28/2021 9:15:00 PM 14.07 57.326 0.163 7.51 1.88 9.49
9/28/2021 9:30:00 PM 14.01 57.218 0.163 7.51 1.89 9.5
9/28/2021 9:45:00 PM 13.95 57.11 0.163 7.51 1.96 9.51
9/28/2021 10:00:00 PM 13.9 57.02 0.162 7.48 2.08 9.51
9/28/2021 10:15:00 PM 13.84 56.912 0.162 7.51 2.13 9.52
9/28/2021 10:30:00 PM 13.8 56.84 0.162 7.49 2.01 9.53
9/28/2021 10:45:00 PM 13.75 56.75 0.162 7.5 2.11 9.54
9/28/2021 11:00:00 PM 13.71 56.678 0.162 7.5 2.33 9.55
9/28/2021 11:15:00 PM 13.66 56.588 0.161 7.49 2.31 9.56
9/28/2021 11:30:00 PM 13.62 56.516 0.161 7.49 2.64 9.57
9/28/2021 11:45:00 PM 13.59 56.462 0.161 7.48 3.13 9.57
9/29/2021 12:00:00 AM 13.55 56.39 0.16 7.49 3.37 9.58
9/29/2021 12:15:00 AM 13.52 56.336 0.16 7.48 3.66 9.59
9/29/2021 12:30:00 AM 13.48 56.264 0.16 7.49 4.42 9.6
9/29/2021 12:45:00 AM 13.45 56.21 0.16 7.47 4.92 9.6
9/29/2021 1:00:00 AM 13.41 56.138 0.16 7.48 4.56 9.61
9/29/2021 1:15:00 AM 13.38 56.084 0.16 7.48 4.87 9.62
9/29/2021 1:30:00 AM 13.33 55.994 0.16 7.47 4.91 9.63
9/29/2021 1:45:00 AM 13.29 55.922 0.16 7.47 4.97 9.64
9/29/2021 2:00:00 AM 13.25 55.85 0.16 7.48 4.87 9.64
9/29/2021 2:15:00 AM 13.21 55.778 0.16 7.48 4.68 9.64
9/29/2021 2:30:00 AM 13.17 55.706 0.16 7.47 4.58 9.66
9/29/2021 2:45:00 AM 13.13 55.634 0.16 7.46 4.08 9.66
9/29/2021 3:00:00 AM 13.1 55.58 0.16 7.47 4.24 9.67
9/29/2021 3:15:00 AM 13.07 55.526 0.16 7.46 4.25 9.68
9/29/2021 3:30:00 AM 13.04 55.472 0.16 7.46 3.93 9.68
9/29/2021 3:45:00 AM 13.02 55.436 0.161 7.47 3.49 9.69
9/29/2021 4:00:00 AM 13 55.4 0.161 7.46 3.56 9.69
9/29/2021 4:15:00 AM 12.98 55.364 0.161 7.45 3.58 9.7
9/29/2021 4:30:00 AM 12.95 55.31 0.161 7.46 3.57 9.71
9/29/2021 4:45:00 AM 12.91 55.238 0.161 7.45 3.76 9.71
9/29/2021 5:00:00 AM 12.87 55.166 0.161 7.45 3.34 9.72
9/29/2021 5:15:00 AM 12.83 55.094 0.161 7.45 3.28 9.73
9/29/2021 5:30:00 AM 12.79 55.022 0.161 7.44 4.52 9.74
9/29/2021 5:45:00 AM 12.74 54.932 0.161 7.44 3.31 9.75
9/29/2021 6:00:00 AM 12.69 54.842 0.161 7.43 3.56 9.76
9/29/2021 6:15:00 AM 12.64 54.752 0.161 7.44 3.26 9.77
9/29/2021 6:30:00 AM 12.6 54.68 0.161 7.43 3.17 9.78
9/29/2021 6:45:00 AM 12.55 54.59 0.16 7.43 3.08 9.79
9/29/2021 7:00:00 AM 12.52 54.536 0.16 7.43 3.08 9.8
9/29/2021 7:15:00 AM 12.47 54.446 0.16 7.43 3.09 9.82
9/29/2021 7:30:00 AM 12.44 54.392 0.16 7.42 2.87 9.84
9/29/2021 7:45:00 AM 12.41 54.338 0.16 7.43 2.7 9.85
9/29/2021 8:00:00 AM 12.38 54.284 0.16 7.43 2.78 9.89
9/29/2021 8:15:00 AM 12.36 54.248 0.16 7.43 2.6 9.93
9/29/2021 8:30:00 AM 12.35 54.23 0.16 7.45 2.53 9.99
9/29/2021 8:45:00 AM 12.34 54.212 0.159 7.45 2.32 10.04
9/29/2021 9:00:00 AM 12.34 54.212 0.159 7.47 2.35 10.08
9/29/2021 9:15:00 AM 12.35 54.23 0.159 7.48 2.25 10.13
9/29/2021 9:30:00 AM 12.38 54.284 0.159 7.49 2.2 10.18
9/29/2021 9:45:00 AM 12.42 54.356 0.159 7.51 2.21 10.24
9/29/2021 10:00:00 AM 12.47 54.446 0.159 7.53 2.02 10.29
9/29/2021 10:15:00 AM 12.55 54.59 0.159 7.54 2.12 10.36
9/29/2021 10:30:00 AM 12.64 54.752 0.159 7.56 2.27 10.4
9/29/2021 10:45:00 AM 12.74 54.932 0.158 7.59 2.13 10.45
9/29/2021 11:00:00 AM 12.82 55.076 0.158 7.59 2.14 10.46
9/29/2021 11:15:00 AM 12.93 55.274 0.158 7.61 1.81 10.49
9/29/2021 11:30:00 AM 13.03 55.454 0.158 7.63 1.78 10.5
9/29/2021 11:45:00 AM 13.15 55.67 0.158 7.64 1.78 10.52
9/29/2021 12:00:00 PM 13.31 55.958 0.158 7.65 1.92 10.55
9/29/2021 12:15:00 PM 13.42 56.156 0.158 7.68 1.9 10.57
9/29/2021 12:30:00 PM 13.53 56.354 0.158 7.69 1.96 10.55
9/29/2021 12:45:00 PM 13.69 56.642 0.158 7.7 1.87 10.59
9/29/2021 1:00:00 PM 13.83 56.894 0.158 7.71 1.88 10.62
9/29/2021 1:15:00 PM 14.01 57.218 0.158 7.73 1.73 10.64
9/29/2021 1:30:00 PM 14.05 57.29 0.158 7.75 1.52 10.61
9/29/2021 1:45:00 PM 14.17 57.506 0.158 7.77 1.73 10.6
9/29/2021 2:00:00 PM 14.2 57.56 0.158 7.77 1.61 10.5
9/29/2021 2:15:00 PM 14.25 57.65 0.158 7.76 1.6 10.47
9/29/2021 2:30:00 PM 14.29 57.722 0.158 7.77 1.65 10.5
9/29/2021 2:45:00 PM 14.27 57.686 0.158 7.74 1.47 10.44
9/29/2021 3:00:00 PM 14.25 57.65 0.158 7.77 1.52 10.4
9/29/2021 3:15:00 PM 14.2 57.56 0.158 7.74 1.46 10.32
9/29/2021 3:30:00 PM 14.16 57.488 0.159 7.74 1.43 10.23
9/29/2021 3:45:00 PM 14.14 57.452 0.159 7.71 1.38 10.19
9/29/2021 4:00:00 PM 14.14 57.452 0.159 7.71 1.3 10.21
9/29/2021 4:15:00 PM 14.13 57.434 0.159 7.71 1.4 10.19
9/29/2021 4:30:00 PM 14.1 57.38 0.159 7.69 1.29 10.14
9/29/2021 4:45:00 PM 14.1 57.38 0.159 7.69 1.28 10.15
9/29/2021 5:00:00 PM 14.08 57.344 0.16 7.68 1.27 10.15
9/29/2021 5:15:00 PM 14.07 57.326 0.16 7.69 1.15 10.15
9/29/2021 5:30:00 PM 14.04 57.272 0.16 7.67 1.18 10.13
9/29/2021 5:45:00 PM 14.01 57.218 0.16 7.67 1.14 10.11
9/29/2021 6:00:00 PM 13.97 57.146 0.16 7.66 1.41 10.05
9/29/2021 6:15:00 PM 13.93 57.074 0.161 7.66 1.65 10.02
9/29/2021 6:30:00 PM 13.88 56.984 0.161 7.66 1.75 9.97
9/29/2021 6:45:00 PM 13.83 56.894 0.161 7.64 1.78 9.89
9/29/2021 7:00:00 PM 13.8 56.84 0.16 7.61 1.66 9.81
9/29/2021 7:15:00 PM 13.77 56.786 0.161 7.59 1.92 9.78
9/29/2021 7:30:00 PM 13.74 56.732 0.161 7.58 1.7 9.75
9/29/2021 7:45:00 PM 13.71 56.678 0.161 7.57 1.57 9.73
9/29/2021 8:00:00 PM 13.68 56.624 0.161 7.55 1.76 9.71
9/29/2021 8:15:00 PM 13.64 56.552 0.161 7.54 1.81 9.68
9/29/2021 8:30:00 PM 13.61 56.498 0.162 7.54 1.62 9.67
9/29/2021 8:45:00 PM 13.57 56.426 0.162 7.53 1.56 9.67
9/29/2021 9:00:00 PM 13.52 56.336 0.162 7.52 1.61 9.67
9/29/2021 9:15:00 PM 13.48 56.264 0.163 7.52 1.47 9.66
9/29/2021 9:30:00 PM 13.43 56.174 0.163 7.51 1.75 9.67
9/29/2021 9:45:00 PM 13.38 56.084 0.164 7.51 1.34 9.66
9/29/2021 10:00:00 PM 13.34 56.012 0.164 7.5 1.35 9.67
9/29/2021 10:15:00 PM 13.3 55.94 0.164 7.5 1.35 9.67
9/29/2021 10:30:00 PM 13.25 55.85 0.165 7.5 1.21 9.68
9/29/2021 10:45:00 PM 13.21 55.778 0.165 7.49 1.38 9.67
9/29/2021 11:00:00 PM 13.18 55.724 0.165 7.49 1.99 9.67
9/29/2021 11:15:00 PM 13.14 55.652 0.165 7.48 1.21 9.67
9/29/2021 11:30:00 PM 13.12 55.616 0.166 7.48 1.13 9.67
9/29/2021 11:45:00 PM 13.09 55.562 0.166 7.48 1.22 9.68
9/30/2021 12:00:00 AM 13.07 55.526 0.166 7.48 1.25 9.68
9/30/2021 12:15:00 AM 13.04 55.472 0.167 7.48 1.3 9.68
9/30/2021 12:30:00 AM 13.03 55.454 0.168 7.48 1.03 9.67
9/30/2021 12:45:00 AM 13.01 55.418 0.168 7.47 1.17 9.68
9/30/2021 1:00:00 AM 13 55.4 0.169 7.48 1.25 9.68
9/30/2021 1:15:00 AM 12.99 55.382 0.169 7.47 1.13 9.67
9/30/2021 1:30:00 AM 12.98 55.364 0.17 7.47 1.34 9.66
9/30/2021 1:45:00 AM 12.96 55.328 0.17 7.47 1.27 9.66
9/30/2021 2:00:00 AM 12.96 55.328 0.171 7.44 1.25 9.63
9/30/2021 2:15:00 AM 12.95 55.31 0.171 7.43 1.52 9.62
9/30/2021 2:30:00 AM 12.94 55.292 0.171 7.4 1.4 9.58
9/30/2021 2:45:00 AM 12.95 55.31 0.17 7.37 1.24 9.53
9/30/2021 3:00:00 AM 12.93 55.274 0.17 7.36 1.19 9.53
9/30/2021 3:15:00 AM 12.91 55.238 0.17 7.35 1.23 9.56
9/30/2021 3:30:00 AM 12.9 55.22 0.17 7.35 1.19 9.53
9/30/2021 3:45:00 AM 12.88 55.184 0.17 7.36 1.26 9.57
9/30/2021 4:00:00 AM 12.86 55.148 0.17 7.39 1.19 9.61
9/30/2021 4:15:00 AM 12.86 55.148 0.17 7.34 1.09 9.56
9/30/2021 4:30:00 AM 12.83 55.094 0.17 7.41 1.3 9.65
9/30/2021 4:45:00 AM 12.81 55.058 0.17 7.41 1.08 9.67
9/30/2021 5:00:00 AM 12.79 55.022 0.169 7.41 1.2 9.65
9/30/2021 5:15:00 AM 12.75 54.95 0.169 7.4 1.2 9.64
9/30/2021 5:30:00 AM 12.73 54.914 0.168 7.37 1.06 9.61
9/30/2021 5:45:00 AM 12.71 54.878 0.168 7.34 1.05 9.56
9/30/2021 6:00:00 AM 12.67 54.806 0.168 7.33 1.36 9.56
9/30/2021 6:15:00 AM 12.64 54.752 0.167 7.32 1.15 9.53
9/30/2021 6:30:00 AM 12.6 54.68 0.168 7.31 1.17 9.57
9/30/2021 6:45:00 AM 12.56 54.608 0.167 7.31 1.21 9.57
9/30/2021 7:00:00 AM 12.53 54.554 0.168 7.31 1.24 9.58
9/30/2021 7:15:00 AM 12.5 54.5 0.167 7.3 1.39 9.56
9/30/2021 7:30:00 AM 12.48 54.464 0.167 7.27 1.38 9.58
9/30/2021 7:45:00 AM 12.47 54.446 0.167 7.26 1.44 9.59
9/30/2021 8:00:00 AM 12.45 54.41 0.167 7.26 1.5 9.6
9/30/2021 8:15:00 AM 12.42 54.356 0.168 7.28 1.35 9.66
9/30/2021 8:30:00 AM 12.41 54.338 0.167 7.28 1.16 9.7
9/30/2021 8:45:00 AM 12.39 54.302 0.168 7.28 1.21 9.76
9/30/2021 9:00:00 AM 12.39 54.302 0.168 7.29 1.15 9.83
9/30/2021 9:15:00 AM 12.39 54.302 0.168 7.29 1.01 9.88
9/30/2021 9:30:00 AM 12.4 54.32 0.168 7.3 1.11 9.94
9/30/2021 9:45:00 AM 12.39 54.302 0.168 7.32 1.06 10.05
9/30/2021 10:00:00 AM 12.42 54.356 0.169 7.36 1.06 10.18
9/30/2021 10:15:00 AM 12.47 54.446 0.169 7.38 1.05 10.29
9/30/2021 10:30:00 AM 12.49